<?xml version='1.0' encoding='UTF-8'?><gpx version="1.1" creator="JPX - https://github.com/jenetics/jpx" xmlns="http://www.topografix.com/GPX/1/1"><trk><trkseg><trkpt lat="44.1134693611497" lon="9.904693414626019"><ele>94.0</ele><time>2026-04-03T12:30:38Z</time></trkpt><trkpt lat="44.11338194471077" lon="9.904693996060837"><ele>94.0</ele><time>2026-04-03T12:30:42Z</time></trkpt><trkpt lat="44.113308430087265" lon="9.904657956984225"><ele>94.0</ele><time>2026-04-03T12:30:45Z</time></trkpt><trkpt lat="44.113236925584395" lon="9.904621334136818"><ele>94.0</ele><time>2026-04-03T12:30:48Z</time></trkpt><trkpt lat="44.1131729371468" lon="9.904588279133648"><ele>94.0</ele><time>2026-04-03T12:30:51Z</time></trkpt><trkpt lat="44.1131025502234" lon="9.904521964551416"><ele>94.0</ele><time>2026-04-03T12:30:55Z</time></trkpt><trkpt lat="44.11303711936504" lon="9.904463048351777"><ele>94.66666666666666</ele><time>2026-04-03T12:30:58Z</time></trkpt><trkpt lat="44.11295954111728" lon="9.904404173745803"><ele>95.33333333333333</ele><time>2026-04-03T12:31:01Z</time></trkpt><trkpt lat="44.11289236723116" lon="9.904344914621644"><ele>96.0</ele><time>2026-04-03T12:31:04Z</time></trkpt><trkpt lat="44.11284287065431" lon="9.904276442256133"><ele>96.66666666666666</ele><time>2026-04-03T12:31:07Z</time></trkpt><trkpt lat="44.11278933249449" lon="9.904204886253874"><ele>97.33333333333333</ele><time>2026-04-03T12:31:10Z</time></trkpt><trkpt lat="44.112718962845754" lon="9.904146166603997"><ele>98.0</ele><time>2026-04-03T12:31:13Z</time></trkpt><trkpt lat="44.112648742092794" lon="9.904089678510427"><ele>99.99999999999999</ele><time>2026-04-03T12:31:16Z</time></trkpt><trkpt lat="44.11258523502935" lon="9.904029968857618"><ele>102.0</ele><time>2026-04-03T12:31:19Z</time></trkpt><trkpt lat="44.11252721687621" lon="9.903959515925717"><ele>104.0</ele><time>2026-04-03T12:31:22Z</time></trkpt><trkpt lat="44.11249666254631" lon="9.903852622606676"><ele>106.0</ele><time>2026-04-03T12:31:25Z</time></trkpt><trkpt lat="44.11249722890663" lon="9.90372015980962"><ele>107.99999999999999</ele><time>2026-04-03T12:31:28Z</time></trkpt><trkpt lat="44.112500530168134" lon="9.90359790372115"><ele>110.0</ele><time>2026-04-03T12:31:31Z</time></trkpt><trkpt lat="44.112507942388056" lon="9.903477951400118"><ele>110.49999999999999</ele><time>2026-04-03T12:31:34Z</time></trkpt><trkpt lat="44.11251439835969" lon="9.903388398720796"><ele>111.0</ele><time>2026-04-03T12:31:36Z</time></trkpt><trkpt lat="44.112521438987784" lon="9.90330104662301"><ele>111.5</ele><time>2026-04-03T12:31:38Z</time></trkpt><trkpt lat="44.112529946302644" lon="9.903181573119609"><ele>112.0</ele><time>2026-04-03T12:31:41Z</time></trkpt><trkpt lat="44.112540915567486" lon="9.903064345918365"><ele>112.49999999999999</ele><time>2026-04-03T12:31:44Z</time></trkpt><trkpt lat="44.11254494135721" lon="9.902945176654919"><ele>113.0</ele><time>2026-04-03T12:31:47Z</time></trkpt><trkpt lat="44.11254476041175" lon="9.902821782682674"><ele>112.99999999999999</ele><time>2026-04-03T12:31:50Z</time></trkpt><trkpt lat="44.11254798766329" lon="9.902733082742563"><ele>113.0</ele><time>2026-04-03T12:31:52Z</time></trkpt><trkpt lat="44.11252097199265" lon="9.902609988358035"><ele>113.0</ele><time>2026-04-03T12:31:55Z</time></trkpt><trkpt lat="44.112478482405855" lon="9.902496936416018"><ele>113.0</ele><time>2026-04-03T12:31:58Z</time></trkpt><trkpt lat="44.11243702252597" lon="9.902430436021918"><ele>112.99999999999999</ele><time>2026-04-03T12:32:00Z</time></trkpt><trkpt lat="44.1123681251328" lon="9.90234608170085"><ele>113.0</ele><time>2026-04-03T12:32:03Z</time></trkpt><trkpt lat="44.11231915607969" lon="9.90228625210887"><ele>112.0</ele><time>2026-04-03T12:32:05Z</time></trkpt><trkpt lat="44.11226623139849" lon="9.902228005020708"><ele>111.0</ele><time>2026-04-03T12:32:07Z</time></trkpt><trkpt lat="44.11222317495544" lon="9.902153591694642"><ele>110.0</ele><time>2026-04-03T12:32:09Z</time></trkpt><trkpt lat="44.1121842062729" lon="9.902065957585688"><ele>109.0</ele><time>2026-04-03T12:32:11Z</time></trkpt><trkpt lat="44.11215092015707" lon="9.901970972705282"><ele>108.0</ele><time>2026-04-03T12:32:13Z</time></trkpt><trkpt lat="44.11211766562498" lon="9.901875084741505"><ele>107.0</ele><time>2026-04-03T12:32:15Z</time></trkpt><trkpt lat="44.112083026653586" lon="9.901779326220208"><ele>106.0</ele><time>2026-04-03T12:32:17Z</time></trkpt><trkpt lat="44.112044933283975" lon="9.901690019600423"><ele>106.00000000000001</ele><time>2026-04-03T12:32:19Z</time></trkpt><trkpt lat="44.112009028012885" lon="9.901595015079652"><ele>106.0</ele><time>2026-04-03T12:32:21Z</time></trkpt><trkpt lat="44.11197751862982" lon="9.901496471305407"><ele>106.0</ele><time>2026-04-03T12:32:23Z</time></trkpt><trkpt lat="44.111947358043906" lon="9.901390668110771"><ele>106.0</ele><time>2026-04-03T12:32:25Z</time></trkpt><trkpt lat="44.1119008391123" lon="9.901260496848456"><ele>106.00000000000001</ele><time>2026-04-03T12:32:27Z</time></trkpt><trkpt lat="44.11187952740001" lon="9.901136854693027"><ele>106.0</ele><time>2026-04-03T12:32:29Z</time></trkpt><trkpt lat="44.11186499189346" lon="9.901021878787935"><ele>107.83333333333334</ele><time>2026-04-03T12:32:31Z</time></trkpt><trkpt lat="44.11185485169076" lon="9.900910389624057"><ele>109.66666666666667</ele><time>2026-04-03T12:32:33Z</time></trkpt><trkpt lat="44.11184381752501" lon="9.900794883676033"><ele>111.5</ele><time>2026-04-03T12:32:35Z</time></trkpt><trkpt lat="44.111833170448314" lon="9.900681848127075"><ele>113.33333333333334</ele><time>2026-04-03T12:32:37Z</time></trkpt><trkpt lat="44.1118271171444" lon="9.900568378378308"><ele>115.16666666666667</ele><time>2026-04-03T12:32:39Z</time></trkpt><trkpt lat="44.1118169856378" lon="9.900455153817575"><ele>117.0</ele><time>2026-04-03T12:32:41Z</time></trkpt><trkpt lat="44.11181627628052" lon="9.900346397072013"><ele>117.0</ele><time>2026-04-03T12:32:43Z</time></trkpt><trkpt lat="44.11180480762626" lon="9.900239065232961"><ele>117.0</ele><time>2026-04-03T12:32:45Z</time></trkpt><trkpt lat="44.11180654201577" lon="9.90012888796845"><ele>117.0</ele><time>2026-04-03T12:32:47Z</time></trkpt><trkpt lat="44.11180260056547" lon="9.900020902528613"><ele>117.0</ele><time>2026-04-03T12:32:49Z</time></trkpt><trkpt lat="44.11179499407021" lon="9.899913962782996"><ele>117.0</ele><time>2026-04-03T12:32:51Z</time></trkpt><trkpt lat="44.11178876941396" lon="9.899813403123455"><ele>117.0</ele><time>2026-04-03T12:32:53Z</time></trkpt><trkpt lat="44.111781815556355" lon="9.899713894270318"><ele>118.28571428571429</ele><time>2026-04-03T12:32:55Z</time></trkpt><trkpt lat="44.111776496795976" lon="9.899610548679654"><ele>119.57142857142858</ele><time>2026-04-03T12:32:57Z</time></trkpt><trkpt lat="44.111774539017794" lon="9.899521678846245"><ele>120.85714285714286</ele><time>2026-04-03T12:32:59Z</time></trkpt><trkpt lat="44.11176921811222" lon="9.899432078928497"><ele>122.14285714285714</ele><time>2026-04-03T12:33:01Z</time></trkpt><trkpt lat="44.11176637982714" lon="9.89933868716287"><ele>123.42857142857143</ele><time>2026-04-03T12:33:03Z</time></trkpt><trkpt lat="44.111759514597075" lon="9.899228215918143"><ele>124.71428571428572</ele><time>2026-04-03T12:33:06Z</time></trkpt><trkpt lat="44.11175559349168" lon="9.899128099158746"><ele>126.0</ele><time>2026-04-03T12:33:10Z</time></trkpt><trkpt lat="44.111760278529296" lon="9.899021939136583"><ele>126.0</ele><time>2026-04-03T12:33:16Z</time></trkpt><trkpt lat="44.11169978106365" lon="9.898969350720202"><ele>126.0</ele><time>2026-04-03T12:33:30Z</time></trkpt><trkpt lat="44.11171310149115" lon="9.898877649351837"><ele>126.0</ele><time>2026-04-03T12:33:35Z</time></trkpt><trkpt lat="44.111649297638" lon="9.898873444657431"><ele>126.0</ele><time>2026-04-03T12:33:38Z</time></trkpt><trkpt lat="44.111584592263874" lon="9.898835046388646"><ele>126.0</ele><time>2026-04-03T12:33:40Z</time></trkpt><trkpt lat="44.111529303655196" lon="9.89875568096313"><ele>126.0</ele><time>2026-04-03T12:33:42Z</time></trkpt><trkpt lat="44.111508315744665" lon="9.898635974152949"><ele>126.0</ele><time>2026-04-03T12:33:44Z</time></trkpt><trkpt lat="44.11149425628952" lon="9.898503736801011"><ele>124.4</ele><time>2026-04-03T12:33:46Z</time></trkpt><trkpt lat="44.111473418095535" lon="9.898364664314268"><ele>122.8</ele><time>2026-04-03T12:33:48Z</time></trkpt><trkpt lat="44.11143681632859" lon="9.898228516196287"><ele>121.20000000000002</ele><time>2026-04-03T12:33:50Z</time></trkpt><trkpt lat="44.111373026814725" lon="9.898103551721602"><ele>119.60000000000001</ele><time>2026-04-03T12:33:52Z</time></trkpt><trkpt lat="44.11129006271785" lon="9.897992136031002"><ele>118.0</ele><time>2026-04-03T12:33:54Z</time></trkpt><trkpt lat="44.1111688356875" lon="9.897961949960058"><ele>118.00000000000001</ele><time>2026-04-03T12:33:56Z</time></trkpt><trkpt lat="44.111099244554296" lon="9.897982287351834"><ele>118.0</ele><time>2026-04-03T12:33:57Z</time></trkpt><trkpt lat="44.11098037468245" lon="9.8980155346915"><ele>118.0</ele><time>2026-04-03T12:33:59Z</time></trkpt><trkpt lat="44.11091845193672" lon="9.898032854202953"><ele>118.0</ele><time>2026-04-03T12:34:00Z</time></trkpt><trkpt lat="44.1108543760265" lon="9.8980509984647"><ele>118.00000000000001</ele><time>2026-04-03T12:34:01Z</time></trkpt><trkpt lat="44.11078722787396" lon="9.898070144627235"><ele>118.0</ele><time>2026-04-03T12:34:02Z</time></trkpt><trkpt lat="44.1107212363273" lon="9.898088960994"><ele>118.28571428571428</ele><time>2026-04-03T12:34:03Z</time></trkpt><trkpt lat="44.1106541210248" lon="9.898108097799938"><ele>118.57142857142858</ele><time>2026-04-03T12:34:04Z</time></trkpt><trkpt lat="44.11058794310828" lon="9.89812698885254"><ele>118.85714285714286</ele><time>2026-04-03T12:34:05Z</time></trkpt><trkpt lat="44.110517929165354" lon="9.898146976159971"><ele>119.14285714285714</ele><time>2026-04-03T12:34:06Z</time></trkpt><trkpt lat="44.110450776796455" lon="9.898165252973804"><ele>119.42857142857142</ele><time>2026-04-03T12:34:07Z</time></trkpt><trkpt lat="44.110381224933136" lon="9.898183725571919"><ele>119.71428571428572</ele><time>2026-04-03T12:34:08Z</time></trkpt><trkpt lat="44.110311792768705" lon="9.898202166420928"><ele>120.0</ele><time>2026-04-03T12:34:09Z</time></trkpt><trkpt lat="44.11023896629275" lon="9.898224476457061"><ele>120.0</ele><time>2026-04-03T12:34:10Z</time></trkpt><trkpt lat="44.110171276995054" lon="9.8982494351943"><ele>120.0</ele><time>2026-04-03T12:34:11Z</time></trkpt><trkpt lat="44.11009949311523" lon="9.898283135228366"><ele>120.0</ele><time>2026-04-03T12:34:11.999Z</time></trkpt><trkpt lat="44.11003148407811" lon="9.898322755699988"><ele>120.0</ele><time>2026-04-03T12:34:12.999Z</time></trkpt><trkpt lat="44.10996632555101" lon="9.898368140568637"><ele>120.0</ele><time>2026-04-03T12:34:13.999Z</time></trkpt><trkpt lat="44.10990371288227" lon="9.898419768331884"><ele>120.0</ele><time>2026-04-03T12:34:14.999Z</time></trkpt><trkpt lat="44.10984178083724" lon="9.898485229206193"><ele>120.0</ele><time>2026-04-03T12:34:15.999Z</time></trkpt><trkpt lat="44.109785517574785" lon="9.89855017024257"><ele>116.5</ele><time>2026-04-03T12:34:16.999Z</time></trkpt><trkpt lat="44.10972959115244" lon="9.89862432670379"><ele>113.0</ele><time>2026-04-03T12:34:17.999Z</time></trkpt><trkpt lat="44.10967841440235" lon="9.898704889078559"><ele>109.5</ele><time>2026-04-03T12:34:18.999Z</time></trkpt><trkpt lat="44.10962983412909" lon="9.898782896943757"><ele>106.0</ele><time>2026-04-03T12:34:19.999Z</time></trkpt><trkpt lat="44.109574036563146" lon="9.898849290799799"><ele>102.5</ele><time>2026-04-03T12:34:20.999Z</time></trkpt><trkpt lat="44.10950882888554" lon="9.898915902162003"><ele>99.0</ele><time>2026-04-03T12:34:21.999Z</time></trkpt><trkpt lat="44.10942158878513" lon="9.89890321599226"><ele>99.0</ele><time>2026-04-03T12:34:22.999Z</time></trkpt><trkpt lat="44.10934412567178" lon="9.898843643735086"><ele>99.0</ele><time>2026-04-03T12:34:23.999Z</time></trkpt><trkpt lat="44.109289213137984" lon="9.898758208839151"><ele>99.0</ele><time>2026-04-03T12:34:24.999Z</time></trkpt><trkpt lat="44.1092326557051" lon="9.898674045644624"><ele>99.0</ele><time>2026-04-03T12:34:25.999Z</time></trkpt><trkpt lat="44.10918269458418" lon="9.89858756581405"><ele>99.0</ele><time>2026-04-03T12:34:26.999Z</time></trkpt><trkpt lat="44.10912699121219" lon="9.89850430681652"><ele>99.0</ele><time>2026-04-03T12:34:27.999Z</time></trkpt><trkpt lat="44.109075833303415" lon="9.898417495274256"><ele>99.66666666666667</ele><time>2026-04-03T12:34:28.999Z</time></trkpt><trkpt lat="44.109027304083675" lon="9.89832596580374"><ele>100.33333333333334</ele><time>2026-04-03T12:34:29.999Z</time></trkpt><trkpt lat="44.108978226260476" lon="9.898236643854002"><ele>101.0</ele><time>2026-04-03T12:34:30.999Z</time></trkpt><trkpt lat="44.10893339526796" lon="9.898147609661036"><ele>101.66666666666667</ele><time>2026-04-03T12:34:31.999Z</time></trkpt><trkpt lat="44.10886779092802" lon="9.898081320449995"><ele>102.33333333333334</ele><time>2026-04-03T12:34:32.999Z</time></trkpt><trkpt lat="44.1087951903175" lon="9.89803725250115"><ele>103.0</ele><time>2026-04-03T12:34:33.999Z</time></trkpt><trkpt lat="44.10872396617943" lon="9.898001342848644"><ele>103.00000000000001</ele><time>2026-04-03T12:34:34.999Z</time></trkpt><trkpt lat="44.108654872027856" lon="9.897971226128723"><ele>103.0</ele><time>2026-04-03T12:34:35.999Z</time></trkpt><trkpt lat="44.10858606112937" lon="9.897943935617969"><ele>103.0</ele><time>2026-04-03T12:34:36.999Z</time></trkpt><trkpt lat="44.108517936549774" lon="9.897918967416798"><ele>103.0</ele><time>2026-04-03T12:34:37.999Z</time></trkpt><trkpt lat="44.10845182805692" lon="9.897894293216405"><ele>103.00000000000001</ele><time>2026-04-03T12:34:38.999Z</time></trkpt><trkpt lat="44.10839068515572" lon="9.89787138958602"><ele>103.0</ele><time>2026-04-03T12:34:39.999Z</time></trkpt><trkpt lat="44.10828475443426" lon="9.897825237532874"><ele>103.80000000000001</ele><time>2026-04-03T12:34:41.999Z</time></trkpt><trkpt lat="44.10818528722657" lon="9.897768766729913"><ele>104.6</ele><time>2026-04-03T12:34:43.999Z</time></trkpt><trkpt lat="44.10808972255321" lon="9.89770707230903"><ele>105.39999999999999</ele><time>2026-04-03T12:34:45.999Z</time></trkpt><trkpt lat="44.1079986439549" lon="9.897644431830683"><ele>106.19999999999999</ele><time>2026-04-03T12:34:47.999Z</time></trkpt><trkpt lat="44.107914317409985" lon="9.897583774474954"><ele>107.0</ele><time>2026-04-03T12:34:49.999Z</time></trkpt><trkpt lat="44.10783399005978" lon="9.897526384617922"><ele>106.99999999999999</ele><time>2026-04-03T12:34:51.999Z</time></trkpt><trkpt lat="44.107762860098845" lon="9.897475203576363"><ele>107.0</ele><time>2026-04-03T12:34:53.999Z</time></trkpt><trkpt lat="44.107690494127475" lon="9.89742479686482"><ele>107.0</ele><time>2026-04-03T12:34:55.999Z</time></trkpt><trkpt lat="44.10763224000518" lon="9.89739112563097"><ele>107.0</ele><time>2026-04-03T12:34:57.999Z</time></trkpt><trkpt lat="44.10755552270764" lon="9.897369746166653"><ele>106.99999999999999</ele><time>2026-04-03T12:35:01.999Z</time></trkpt><trkpt lat="44.10748591545998" lon="9.897359542235492"><ele>107.0</ele><time>2026-04-03T12:35:07.999Z</time></trkpt><trkpt lat="44.10739754985829" lon="9.897490466513474"><ele>107.33333333333333</ele><time>2026-04-03T12:35:12.999Z</time></trkpt><trkpt lat="44.107345996854264" lon="9.897549175812046"><ele>107.66666666666666</ele><time>2026-04-03T12:35:15.999Z</time></trkpt><trkpt lat="44.10726733459696" lon="9.897569187195533"><ele>108.0</ele><time>2026-04-03T12:35:18.999Z</time></trkpt><trkpt lat="44.107188298105086" lon="9.897612020654424"><ele>108.33333333333334</ele><time>2026-04-03T12:35:22.999Z</time></trkpt><trkpt lat="44.10710729351837" lon="9.897641380104039"><ele>108.66666666666667</ele><time>2026-04-03T12:35:26.999Z</time></trkpt><trkpt lat="44.107027415221665" lon="9.897647217327508"><ele>109.0</ele><time>2026-04-03T12:35:30.999Z</time></trkpt><trkpt lat="44.10696440971175" lon="9.897639324960553"><ele>109.0</ele><time>2026-04-03T12:35:33.999Z</time></trkpt><trkpt lat="44.10690166533375" lon="9.897630313020434"><ele>109.0</ele><time>2026-04-03T12:35:36.999Z</time></trkpt><trkpt lat="44.10681886103198" lon="9.897613529443781"><ele>109.0</ele><time>2026-04-03T12:35:40.999Z</time></trkpt><trkpt lat="44.106745781818" lon="9.897582576692217"><ele>109.0</ele><time>2026-04-03T12:35:44.999Z</time></trkpt><trkpt lat="44.10668871405594" lon="9.89753484345941"><ele>109.0</ele><time>2026-04-03T12:35:47.999Z</time></trkpt><trkpt lat="44.10662442063804" lon="9.897468547915548"><ele>109.0</ele><time>2026-04-03T12:35:51.999Z</time></trkpt><trkpt lat="44.10657225376217" lon="9.897404838241691"><ele>109.0</ele><time>2026-04-03T12:35:55.999Z</time></trkpt><trkpt lat="44.10650704781554" lon="9.89733524444994"><ele>107.33333333333334</ele><time>2026-04-03T12:35:58.999Z</time></trkpt><trkpt lat="44.10645481807463" lon="9.897263859929769"><ele>105.66666666666667</ele><time>2026-04-03T12:36:01.999Z</time></trkpt><trkpt lat="44.10640422204701" lon="9.897186784381553"><ele>104.0</ele><time>2026-04-03T12:36:04.999Z</time></trkpt><trkpt lat="44.10635406348165" lon="9.897109284907984"><ele>102.33333333333334</ele><time>2026-04-03T12:36:07.999Z</time></trkpt><trkpt lat="44.106307067851766" lon="9.897027473811711"><ele>100.66666666666667</ele><time>2026-04-03T12:36:10.999Z</time></trkpt><trkpt lat="44.10624108539017" lon="9.89695168174108"><ele>99.0</ele><time>2026-04-03T12:36:13.999Z</time></trkpt><trkpt lat="44.10616851455373" lon="9.896893361255302"><ele>99.0</ele><time>2026-04-03T12:36:16.999Z</time></trkpt><trkpt lat="44.106108917713655" lon="9.896847037925394"><ele>99.0</ele><time>2026-04-03T12:36:19.999Z</time></trkpt><trkpt lat="44.106051366439246" lon="9.896802304533205"><ele>99.0</ele><time>2026-04-03T12:36:22.999Z</time></trkpt><trkpt lat="44.10598655343012" lon="9.896847280666229"><ele>99.0</ele><time>2026-04-03T12:36:23.999Z</time></trkpt><trkpt lat="44.10591335758227" lon="9.896902404432607"><ele>99.0</ele><time>2026-04-03T12:36:26.999Z</time></trkpt><trkpt lat="44.10584524281578" lon="9.896897369768439"><ele>99.0</ele><time>2026-04-03T12:36:29.999Z</time></trkpt><trkpt lat="44.105776590799096" lon="9.896873150021902"><ele>99.0</ele><time>2026-04-03T12:36:32.999Z</time></trkpt><trkpt lat="44.10571180171838" lon="9.896838750363896"><ele>99.42857142857143</ele><time>2026-04-03T12:36:35.999Z</time></trkpt><trkpt lat="44.10564584695952" lon="9.89679012524647"><ele>99.85714285714285</ele><time>2026-04-03T12:36:38.999Z</time></trkpt><trkpt lat="44.105582380870274" lon="9.896744553744075"><ele>100.28571428571428</ele><time>2026-04-03T12:36:41.999Z</time></trkpt><trkpt lat="44.10552123070512" lon="9.896693115638588"><ele>100.71428571428572</ele><time>2026-04-03T12:36:44.999Z</time></trkpt><trkpt lat="44.10545732498583" lon="9.896646599423903"><ele>101.14285714285714</ele><time>2026-04-03T12:36:47.999Z</time></trkpt><trkpt lat="44.1053907294418" lon="9.8966122908541"><ele>101.57142857142857</ele><time>2026-04-03T12:36:50.999Z</time></trkpt><trkpt lat="44.105316662017344" lon="9.89659813045557"><ele>102.0</ele><time>2026-04-03T12:36:53.999Z</time></trkpt><trkpt lat="44.1052676757757" lon="9.896537663545816"><ele>104.66666666666667</ele><time>2026-04-03T12:36:55.999Z</time></trkpt><trkpt lat="44.1051865897299" lon="9.896539578224605"><ele>107.33333333333334</ele><time>2026-04-03T12:36:58.999Z</time></trkpt><trkpt lat="44.10511454604551" lon="9.896547188741314"><ele>110.0</ele><time>2026-04-03T12:37:01.999Z</time></trkpt><trkpt lat="44.10504924534285" lon="9.896554293597424"><ele>112.66666666666667</ele><time>2026-04-03T12:37:04.999Z</time></trkpt><trkpt lat="44.10496203465674" lon="9.896557176876135"><ele>115.33333333333334</ele><time>2026-04-03T12:37:08.999Z</time></trkpt><trkpt lat="44.10488780918662" lon="9.896554714467701"><ele>118.0</ele><time>2026-04-03T12:37:11.999Z</time></trkpt><trkpt lat="44.10480614817403" lon="9.896535185987457"><ele>118.83333333333334</ele><time>2026-04-03T12:37:14.999Z</time></trkpt><trkpt lat="44.10473326116092" lon="9.89649283262648"><ele>119.66666666666667</ele><time>2026-04-03T12:37:17.999Z</time></trkpt><trkpt lat="44.10466898154453" lon="9.896431003311296"><ele>120.5</ele><time>2026-04-03T12:37:20.999Z</time></trkpt><trkpt lat="44.104606476719226" lon="9.896369401748919"><ele>121.33333333333334</ele><time>2026-04-03T12:37:23.999Z</time></trkpt><trkpt lat="44.1045435321114" lon="9.896311241778816"><ele>122.16666666666667</ele><time>2026-04-03T12:37:26.999Z</time></trkpt><trkpt lat="44.10447223019318" lon="9.896259693047508"><ele>123.0</ele><time>2026-04-03T12:37:29.999Z</time></trkpt><trkpt lat="44.10440474330946" lon="9.896227737807353"><ele>123.00000000000001</ele><time>2026-04-03T12:37:32.999Z</time></trkpt><trkpt lat="44.1043277681025" lon="9.896202695435592"><ele>123.0</ele><time>2026-04-03T12:37:35.999Z</time></trkpt><trkpt lat="44.1042575784146" lon="9.896189255237099"><ele>123.00000000000001</ele><time>2026-04-03T12:37:38.999Z</time></trkpt><trkpt lat="44.104185053359735" lon="9.896180304828889"><ele>123.00000000000001</ele><time>2026-04-03T12:37:41.999Z</time></trkpt><trkpt lat="44.10410897083506" lon="9.896171287519781"><ele>123.0</ele><time>2026-04-03T12:37:44.999Z</time></trkpt><trkpt lat="44.104037217403494" lon="9.89615870201651"><ele>123.00000000000001</ele><time>2026-04-03T12:37:47.999Z</time></trkpt><trkpt lat="44.103967332594095" lon="9.89613478263915"><ele>123.00000000000001</ele><time>2026-04-03T12:37:50.999Z</time></trkpt><trkpt lat="44.103898662421265" lon="9.896098560882164"><ele>123.16666666666667</ele><time>2026-04-03T12:37:53.999Z</time></trkpt><trkpt lat="44.10383296609316" lon="9.896051938920467"><ele>123.33333333333334</ele><time>2026-04-03T12:37:56.999Z</time></trkpt><trkpt lat="44.10376661660157" lon="9.896000913114875"><ele>123.5</ele><time>2026-04-03T12:37:59.999Z</time></trkpt><trkpt lat="44.10370004609952" lon="9.895947924493383"><ele>123.66666666666667</ele><time>2026-04-03T12:38:02.999Z</time></trkpt><trkpt lat="44.10363540296035" lon="9.895893972002002"><ele>123.83333333333334</ele><time>2026-04-03T12:38:05.999Z</time></trkpt><trkpt lat="44.103567078327615" lon="9.89584053014512"><ele>124.0</ele><time>2026-04-03T12:38:08.999Z</time></trkpt><trkpt lat="44.10349402914132" lon="9.89579702678148"><ele>124.00000000000001</ele><time>2026-04-03T12:38:11.999Z</time></trkpt><trkpt lat="44.103419197019676" lon="9.895760245807029"><ele>124.0</ele><time>2026-04-03T12:38:14.999Z</time></trkpt><trkpt lat="44.10335103141334" lon="9.895787870549146"><ele>124.0</ele><time>2026-04-03T12:38:16.999Z</time></trkpt><trkpt lat="44.10325957893943" lon="9.895776137178773"><ele>124.0</ele><time>2026-04-03T12:38:19.999Z</time></trkpt><trkpt lat="44.10317244445301" lon="9.895745566263129"><ele>124.00000000000001</ele><time>2026-04-03T12:38:22.999Z</time></trkpt><trkpt lat="44.10308489232021" lon="9.89571871748643"><ele>124.0</ele><time>2026-04-03T12:38:25.999Z</time></trkpt><trkpt lat="44.10302233671402" lon="9.895700947496735"><ele>123.85714285714286</ele><time>2026-04-03T12:38:27.999Z</time></trkpt><trkpt lat="44.10293395181785" lon="9.895680692577299"><ele>123.71428571428572</ele><time>2026-04-03T12:38:30.999Z</time></trkpt><trkpt lat="44.1028714240154" lon="9.895670317669309"><ele>123.57142857142858</ele><time>2026-04-03T12:38:32.999Z</time></trkpt><trkpt lat="44.102806846152816" lon="9.89566020958173"><ele>123.42857142857144</ele><time>2026-04-03T12:38:34.999Z</time></trkpt><trkpt lat="44.102742479638756" lon="9.895664763643994"><ele>123.28571428571429</ele><time>2026-04-03T12:38:36.999Z</time></trkpt><trkpt lat="44.10267934651848" lon="9.895609831447304"><ele>123.14285714285717</ele><time>2026-04-03T12:38:38.999Z</time></trkpt><trkpt lat="44.10258822667686" lon="9.895609831447576"><ele>123.00000000000001</ele><time>2026-04-03T12:38:41.999Z</time></trkpt><trkpt lat="44.10250005315255" lon="9.895608056427239"><ele>120.83333333333333</ele><time>2026-04-03T12:38:44.999Z</time></trkpt><trkpt lat="44.102411938980495" lon="9.895594391169539"><ele>118.66666666666666</ele><time>2026-04-03T12:38:47.999Z</time></trkpt><trkpt lat="44.10232604251209" lon="9.895559954643831"><ele>116.5</ele><time>2026-04-03T12:38:50.999Z</time></trkpt><trkpt lat="44.10224404782763" lon="9.895505657419996"><ele>114.33333333333333</ele><time>2026-04-03T12:38:53.999Z</time></trkpt><trkpt lat="44.10217135561667" lon="9.895434761769502"><ele>112.16666666666666</ele><time>2026-04-03T12:38:56.999Z</time></trkpt><trkpt lat="44.1021228102085" lon="9.895377677804758"><ele>110.0</ele><time>2026-04-03T12:38:58.999Z</time></trkpt><trkpt lat="44.10207217911044" lon="9.8953168724385"><ele>109.99999999999999</ele><time>2026-04-03T12:39:00.999Z</time></trkpt><trkpt lat="44.102024014732805" lon="9.895252797593331"><ele>110.0</ele><time>2026-04-03T12:39:02.999Z</time></trkpt><trkpt lat="44.10197318896744" lon="9.895179459598134"><ele>110.0</ele><time>2026-04-03T12:39:04.999Z</time></trkpt><trkpt lat="44.10191740028959" lon="9.895104128992394"><ele>110.0</ele><time>2026-04-03T12:39:06.999Z</time></trkpt><trkpt lat="44.10186218242149" lon="9.895042360730125"><ele>110.0</ele><time>2026-04-03T12:39:08.999Z</time></trkpt><trkpt lat="44.10180454101343" lon="9.894988797239764"><ele>109.99999999999999</ele><time>2026-04-03T12:39:10.999Z</time></trkpt><trkpt lat="44.10173861463923" lon="9.894942369001903"><ele>110.0</ele><time>2026-04-03T12:39:12.999Z</time></trkpt><trkpt lat="44.10167339256289" lon="9.894906671223644"><ele>111.49999999999999</ele><time>2026-04-03T12:39:14.999Z</time></trkpt><trkpt lat="44.10160821658197" lon="9.894878944247885"><ele>113.0</ele><time>2026-04-03T12:39:16.999Z</time></trkpt><trkpt lat="44.10151795554532" lon="9.894843299799692"><ele>114.5</ele><time>2026-04-03T12:39:19.999Z</time></trkpt><trkpt lat="44.10145724434741" lon="9.894817174425224"><ele>116.0</ele><time>2026-04-03T12:39:21.999Z</time></trkpt><trkpt lat="44.10139451119035" lon="9.89478805492977"><ele>117.49999999999999</ele><time>2026-04-03T12:39:23.999Z</time></trkpt><trkpt lat="44.10131484955595" lon="9.89474029420862"><ele>119.0</ele><time>2026-04-03T12:39:26.999Z</time></trkpt><trkpt lat="44.10125361794085" lon="9.894682448971754"><ele>118.99999999999999</ele><time>2026-04-03T12:39:29.999Z</time></trkpt><trkpt lat="44.10118914489031" lon="9.894605932696061"><ele>119.0</ele><time>2026-04-03T12:39:32.999Z</time></trkpt><trkpt lat="44.10112899642497" lon="9.894531192354886"><ele>119.0</ele><time>2026-04-03T12:39:35.999Z</time></trkpt><trkpt lat="44.1010619640117" lon="9.89444343164557"><ele>119.0</ele><time>2026-04-03T12:39:38.999Z</time></trkpt><trkpt lat="44.1010142050243" lon="9.89438185603442"><ele>118.99999999999999</ele><time>2026-04-03T12:39:40.999Z</time></trkpt><trkpt lat="44.10094487344066" lon="9.894300535329123"><ele>119.0</ele><time>2026-04-03T12:39:43.999Z</time></trkpt><trkpt lat="44.100893527101746" lon="9.89424879226232"><ele>118.83333333333333</ele><time>2026-04-03T12:39:45.999Z</time></trkpt><trkpt lat="44.100836024603396" lon="9.8942061697983"><ele>118.66666666666666</ele><time>2026-04-03T12:39:47.999Z</time></trkpt><trkpt lat="44.10077735966493" lon="9.894173266965524"><ele>118.5</ele><time>2026-04-03T12:39:49.999Z</time></trkpt><trkpt lat="44.100715477792754" lon="9.894146836641593"><ele>118.33333333333334</ele><time>2026-04-03T12:39:51.999Z</time></trkpt><trkpt lat="44.10062958417011" lon="9.894121282748756"><ele>118.16666666666667</ele><time>2026-04-03T12:39:54.999Z</time></trkpt><trkpt lat="44.10054126347953" lon="9.894098770778983"><ele>118.0</ele><time>2026-04-03T12:39:57.999Z</time></trkpt><trkpt lat="44.100463119067804" lon="9.89405714163838"><ele>119.00000000000001</ele><time>2026-04-03T12:40:00.999Z</time></trkpt><trkpt lat="44.10040118181695" lon="9.89398376325748"><ele>120.0</ele><time>2026-04-03T12:40:03.999Z</time></trkpt><trkpt lat="44.10036262624174" lon="9.893876964157071"><ele>121.0</ele><time>2026-04-03T12:40:06.999Z</time></trkpt><trkpt lat="44.10032949130073" lon="9.89376426817444"><ele>122.0</ele><time>2026-04-03T12:40:09.999Z</time></trkpt><trkpt lat="44.10031605771181" lon="9.893638501732589"><ele>123.00000000000001</ele><time>2026-04-03T12:40:12.999Z</time></trkpt><trkpt lat="44.10030330087085" lon="9.893505918633144"><ele>124.0</ele><time>2026-04-03T12:40:15.999Z</time></trkpt><trkpt lat="44.10026217689254" lon="9.893394361338089"><ele>126.2</ele><time>2026-04-03T12:40:18.999Z</time></trkpt><trkpt lat="44.100193144408486" lon="9.893303763493787"><ele>128.4</ele><time>2026-04-03T12:40:21.999Z</time></trkpt><trkpt lat="44.10012047379914" lon="9.893225276749611"><ele>130.6</ele><time>2026-04-03T12:40:24.999Z</time></trkpt><trkpt lat="44.10005053323598" lon="9.893150450048676"><ele>132.8</ele><time>2026-04-03T12:40:27.999Z</time></trkpt><trkpt lat="44.09997542369139" lon="9.893074485228674"><ele>135.0</ele><time>2026-04-03T12:40:30.999Z</time></trkpt><trkpt lat="44.09990381991173" lon="9.893006040727103"><ele>135.0</ele><time>2026-04-03T12:40:33.999Z</time></trkpt><trkpt lat="44.099830282162344" lon="9.892953887540338"><ele>135.0</ele><time>2026-04-03T12:40:36.999Z</time></trkpt><trkpt lat="44.09976392428836" lon="9.892928438505951"><ele>135.0</ele><time>2026-04-03T12:40:39.999Z</time></trkpt><trkpt lat="44.09969049121571" lon="9.892922913745437"><ele>135.0</ele><time>2026-04-03T12:40:42.999Z</time></trkpt><trkpt lat="44.09962636930307" lon="9.892902869349788"><ele>135.0</ele><time>2026-04-03T12:40:45.999Z</time></trkpt><trkpt lat="44.099546748885864" lon="9.892912561082824"><ele>135.0</ele><time>2026-04-03T12:40:48.999Z</time></trkpt><trkpt lat="44.099482966603304" lon="9.892980139350351"><ele>135.0</ele><time>2026-04-03T12:40:51.999Z</time></trkpt><trkpt lat="44.09941205814106" lon="9.893000978326103"><ele>135.0</ele><time>2026-04-03T12:40:54.999Z</time></trkpt><trkpt lat="44.09933628290684" lon="9.8930058730332"><ele>135.0</ele><time>2026-04-03T12:40:57.999Z</time></trkpt><trkpt lat="44.09925648715558" lon="9.893010367524044"><ele>135.0</ele><time>2026-04-03T12:41:00.999Z</time></trkpt><trkpt lat="44.09917369153889" lon="9.892997277862412"><ele>135.0</ele><time>2026-04-03T12:41:03.999Z</time></trkpt><trkpt lat="44.09909241648044" lon="9.892984864904399"><ele>135.0</ele><time>2026-04-03T12:41:06.999Z</time></trkpt><trkpt lat="44.09901725671232" lon="9.89296597601408"><ele>133.83333333333334</ele><time>2026-04-03T12:41:09.999Z</time></trkpt><trkpt lat="44.098939314800084" lon="9.892947779071166"><ele>132.66666666666666</ele><time>2026-04-03T12:41:12.999Z</time></trkpt><trkpt lat="44.098859685463566" lon="9.892940297994512"><ele>131.5</ele><time>2026-04-03T12:41:15.999Z</time></trkpt><trkpt lat="44.09877841558903" lon="9.892917745676122"><ele>130.33333333333331</ele><time>2026-04-03T12:41:18.999Z</time></trkpt><trkpt lat="44.0987202359538" lon="9.892878635595215"><ele>129.16666666666666</ele><time>2026-04-03T12:41:21.999Z</time></trkpt><trkpt lat="44.09864861355243" lon="9.892841733916555"><ele>128.0</ele><time>2026-04-03T12:41:24.999Z</time></trkpt><trkpt lat="44.09858444133132" lon="9.89278598725965"><ele>127.99999999999999</ele><time>2026-04-03T12:41:27.999Z</time></trkpt><trkpt lat="44.09851589038927" lon="9.89270309880339"><ele>128.0</ele><time>2026-04-03T12:41:30.999Z</time></trkpt><trkpt lat="44.09847984693711" lon="9.892629360552156"><ele>128.0</ele><time>2026-04-03T12:41:32.999Z</time></trkpt><trkpt lat="44.09841123367983" lon="9.892547087701479"><ele>128.0</ele><time>2026-04-03T12:41:35.999Z</time></trkpt><trkpt lat="44.09834592083968" lon="9.892471610478273"><ele>127.99999999999999</ele><time>2026-04-03T12:41:38.999Z</time></trkpt><trkpt lat="44.09827564827863" lon="9.892390716058229"><ele>128.0</ele><time>2026-04-03T12:41:41.999Z</time></trkpt><trkpt lat="44.09820868521581" lon="9.892313631337775"><ele>131.33333333333331</ele><time>2026-04-03T12:41:44.999Z</time></trkpt><trkpt lat="44.098144232282436" lon="9.892239436220953"><ele>134.66666666666666</ele><time>2026-04-03T12:41:47.999Z</time></trkpt><trkpt lat="44.098078901789926" lon="9.892164230900727"><ele>138.0</ele><time>2026-04-03T12:41:50.999Z</time></trkpt><trkpt lat="44.098017433002134" lon="9.892093470985406"><ele>141.33333333333334</ele><time>2026-04-03T12:41:53.999Z</time></trkpt><trkpt lat="44.0979556644231" lon="9.892020972280994"><ele>144.66666666666669</ele><time>2026-04-03T12:41:56.999Z</time></trkpt><trkpt lat="44.09789396221587" lon="9.891945638115915"><ele>148.0</ele><time>2026-04-03T12:41:59.999Z</time></trkpt><trkpt lat="44.0978338329639" lon="9.89186767896102"><ele>148.0</ele><time>2026-04-03T12:42:02.999Z</time></trkpt><trkpt lat="44.09777546254635" lon="9.891786491656914"><ele>148.0</ele><time>2026-04-03T12:42:05.999Z</time></trkpt><trkpt lat="44.097719960609986" lon="9.891707377438074"><ele>148.0</ele><time>2026-04-03T12:42:08.999Z</time></trkpt><trkpt lat="44.09765607449406" lon="9.891616310492433"><ele>148.0</ele><time>2026-04-03T12:42:11.999Z</time></trkpt><trkpt lat="44.09750851901379" lon="9.891714922968255"><ele>148.0</ele><time>2026-04-03T12:42:13.999Z</time></trkpt><trkpt lat="44.097433774784434" lon="9.891780246442847"><ele>149.0</ele><time>2026-04-03T12:42:16.999Z</time></trkpt><trkpt lat="44.09735677501812" lon="9.89184054055762"><ele>150.0</ele><time>2026-04-03T12:42:19.999Z</time></trkpt><trkpt lat="44.09728390652637" lon="9.891901866000502"><ele>151.0</ele><time>2026-04-03T12:42:22.999Z</time></trkpt><trkpt lat="44.09721950091788" lon="9.891990410184206"><ele>152.0</ele><time>2026-04-03T12:42:25.999Z</time></trkpt><trkpt lat="44.09719340354276" lon="9.892098342954961"><ele>153.0</ele><time>2026-04-03T12:42:28.999Z</time></trkpt><trkpt lat="44.09716199816401" lon="9.892200871272708"><ele>154.0</ele><time>2026-04-03T12:42:31.999Z</time></trkpt><trkpt lat="44.09712282096978" lon="9.892270909872838"><ele>154.0</ele><time>2026-04-03T12:42:33.999Z</time></trkpt><trkpt lat="44.097053840311176" lon="9.892324244288012"><ele>154.0</ele><time>2026-04-03T12:42:36.999Z</time></trkpt><trkpt lat="44.09697786041216" lon="9.892340552327877"><ele>154.0</ele><time>2026-04-03T12:42:39.999Z</time></trkpt><trkpt lat="44.096893274768554" lon="9.892324222092805"><ele>154.0</ele><time>2026-04-03T12:42:42.999Z</time></trkpt><trkpt lat="44.096836287455844" lon="9.89228069351157"><ele>154.0</ele><time>2026-04-03T12:42:44.999Z</time></trkpt><trkpt lat="44.09677932344576" lon="9.8922360974248"><ele>154.0</ele><time>2026-04-03T12:42:46.999Z</time></trkpt><trkpt lat="44.09669720702902" lon="9.89217954491195"><ele>154.0</ele><time>2026-04-03T12:42:49.999Z</time></trkpt><trkpt lat="44.09662432086575" lon="9.892129193676752"><ele>154.0</ele><time>2026-04-03T12:42:52.999Z</time></trkpt><trkpt lat="44.09654715095529" lon="9.892075269794713"><ele>154.0</ele><time>2026-04-03T12:42:55.999Z</time></trkpt><trkpt lat="44.096471937842566" lon="9.892012332749673"><ele>154.0</ele><time>2026-04-03T12:42:58.999Z</time></trkpt><trkpt lat="44.09641719942597" lon="9.891963135735958"><ele>154.0</ele><time>2026-04-03T12:43:00.999Z</time></trkpt><trkpt lat="44.09635792973323" lon="9.891920378331296"><ele>154.0</ele><time>2026-04-03T12:43:02.999Z</time></trkpt><trkpt lat="44.096276282457396" lon="9.891874623957248"><ele>156.83333333333334</ele><time>2026-04-03T12:43:06Z</time></trkpt><trkpt lat="44.09618798070341" lon="9.891837465745793"><ele>159.66666666666669</ele><time>2026-04-03T12:43:09Z</time></trkpt><trkpt lat="44.096091994277096" lon="9.891811654030551"><ele>162.5</ele><time>2026-04-03T12:43:12Z</time></trkpt><trkpt lat="44.09602246288076" lon="9.891818926359354"><ele>165.33333333333334</ele><time>2026-04-03T12:43:14Z</time></trkpt><trkpt lat="44.095952668921875" lon="9.891859118974846"><ele>168.16666666666666</ele><time>2026-04-03T12:43:16Z</time></trkpt><trkpt lat="44.0958943531894" lon="9.891940938098015"><ele>171.0</ele><time>2026-04-03T12:43:18Z</time></trkpt><trkpt lat="44.09586178408169" lon="9.892041927552556"><ele>170.99999999999997</ele><time>2026-04-03T12:43:20Z</time></trkpt><trkpt lat="44.09583342764615" lon="9.892123528046236"><ele>171.0</ele><time>2026-04-03T12:43:22Z</time></trkpt><trkpt lat="44.09580731631222" lon="9.892208303150271"><ele>171.0</ele><time>2026-04-03T12:43:24Z</time></trkpt><trkpt lat="44.095767995488565" lon="9.892326118846704"><ele>171.0</ele><time>2026-04-03T12:43:27Z</time></trkpt><trkpt lat="44.09571976629198" lon="9.892432132188976"><ele>171.0</ele><time>2026-04-03T12:43:30Z</time></trkpt><trkpt lat="44.0956860169378" lon="9.892507378299907"><ele>170.99999999999997</ele><time>2026-04-03T12:43:32Z</time></trkpt><trkpt lat="44.09565591368574" lon="9.892591894544658"><ele>171.0</ele><time>2026-04-03T12:43:34Z</time></trkpt><trkpt lat="44.0956212173673" lon="9.892709872453436"><ele>170.7142857142857</ele><time>2026-04-03T12:43:37Z</time></trkpt><trkpt lat="44.09558394888566" lon="9.892788395215653"><ele>170.42857142857142</ele><time>2026-04-03T12:43:39Z</time></trkpt><trkpt lat="44.09554365337924" lon="9.892864966143247"><ele>170.14285714285714</ele><time>2026-04-03T12:43:41Z</time></trkpt><trkpt lat="44.09550148489585" lon="9.892942493580662"><ele>169.85714285714283</ele><time>2026-04-03T12:43:43Z</time></trkpt><trkpt lat="44.09546145494092" lon="9.89301603861011"><ele>169.57142857142856</ele><time>2026-04-03T12:43:45Z</time></trkpt><trkpt lat="44.095420581785504" lon="9.893089779422235"><ele>169.28571428571428</ele><time>2026-04-03T12:43:47Z</time></trkpt><trkpt lat="44.09536482637784" lon="9.893194740909651"><ele>169.0</ele><time>2026-04-03T12:43:50Z</time></trkpt><trkpt lat="44.09532071061846" lon="9.893312534673578"><ele>167.42857142857144</ele><time>2026-04-03T12:43:53Z</time></trkpt><trkpt lat="44.095288133607106" lon="9.893434954879144"><ele>165.85714285714286</ele><time>2026-04-03T12:43:56Z</time></trkpt><trkpt lat="44.095274531420564" lon="9.893522744659894"><ele>164.28571428571428</ele><time>2026-04-03T12:43:58Z</time></trkpt><trkpt lat="44.095267277131676" lon="9.89361027818791"><ele>162.71428571428572</ele><time>2026-04-03T12:44:00Z</time></trkpt><trkpt lat="44.09526449852431" lon="9.893703742387773"><ele>161.14285714285714</ele><time>2026-04-03T12:44:02Z</time></trkpt><trkpt lat="44.09526907782895" lon="9.893796896968075"><ele>159.57142857142858</ele><time>2026-04-03T12:44:04Z</time></trkpt><trkpt lat="44.095276518046816" lon="9.893892526526582"><ele>158.0</ele><time>2026-04-03T12:44:06Z</time></trkpt><trkpt lat="44.095283961235054" lon="9.893988193917554"><ele>158.00000000000003</ele><time>2026-04-03T12:44:08Z</time></trkpt><trkpt lat="44.09529614702065" lon="9.894084626778868"><ele>158.0</ele><time>2026-04-03T12:44:10Z</time></trkpt><trkpt lat="44.095309148936536" lon="9.894181613609014"><ele>158.0</ele><time>2026-04-03T12:44:12Z</time></trkpt><trkpt lat="44.09532454095553" lon="9.89427520038749"><ele>158.0</ele><time>2026-04-03T12:44:14Z</time></trkpt><trkpt lat="44.09533807011403" lon="9.894362134990578"><ele>158.0</ele><time>2026-04-03T12:44:16Z</time></trkpt><trkpt lat="44.09535036838095" lon="9.894451782873585"><ele>158.00000000000003</ele><time>2026-04-03T12:44:17.999Z</time></trkpt><trkpt lat="44.095358624623515" lon="9.894546414586648"><ele>158.0</ele><time>2026-04-03T12:44:19.999Z</time></trkpt><trkpt lat="44.095354502168405" lon="9.894676211947742"><ele>157.14285714285717</ele><time>2026-04-03T12:44:22.999Z</time></trkpt><trkpt lat="44.09534179024379" lon="9.894769348950394"><ele>156.28571428571428</ele><time>2026-04-03T12:44:24.999Z</time></trkpt><trkpt lat="44.09532779051383" lon="9.894859317006501"><ele>155.42857142857144</ele><time>2026-04-03T12:44:26.999Z</time></trkpt><trkpt lat="44.095316397592725" lon="9.894949036830242"><ele>154.57142857142858</ele><time>2026-04-03T12:44:28.999Z</time></trkpt><trkpt lat="44.09530867500769" lon="9.895043265095218"><ele>153.71428571428572</ele><time>2026-04-03T12:44:30.999Z</time></trkpt><trkpt lat="44.09530964997418" lon="9.89514540422473"><ele>152.85714285714286</ele><time>2026-04-03T12:44:32.999Z</time></trkpt><trkpt lat="44.09532684899711" lon="9.895249830846097"><ele>152.0</ele><time>2026-04-03T12:44:34.999Z</time></trkpt><trkpt lat="44.09535210438076" lon="9.895349744398116"><ele>152.0</ele><time>2026-04-03T12:44:36.999Z</time></trkpt><trkpt lat="44.09538122751017" lon="9.895444575967813"><ele>152.0</ele><time>2026-04-03T12:44:38.999Z</time></trkpt><trkpt lat="44.09541204190341" lon="9.895540682395682"><ele>152.0</ele><time>2026-04-03T12:44:40.999Z</time></trkpt><trkpt lat="44.09544194297807" lon="9.895640431651193"><ele>152.0</ele><time>2026-04-03T12:44:43Z</time></trkpt><trkpt lat="44.095469501968694" lon="9.895738243260118"><ele>152.0</ele><time>2026-04-03T12:44:45Z</time></trkpt><trkpt lat="44.095496279368085" lon="9.895839766387237"><ele>152.0</ele><time>2026-04-03T12:44:47Z</time></trkpt><trkpt lat="44.09552212058135" lon="9.895937740000322"><ele>155.42857142857142</ele><time>2026-04-03T12:44:49Z</time></trkpt><trkpt lat="44.09554679099611" lon="9.896033735790883"><ele>158.85714285714286</ele><time>2026-04-03T12:44:51Z</time></trkpt><trkpt lat="44.09557078488567" lon="9.896133356927978"><ele>162.28571428571428</ele><time>2026-04-03T12:44:53Z</time></trkpt><trkpt lat="44.09559354612133" lon="9.89622864837357"><ele>165.71428571428572</ele><time>2026-04-03T12:44:55Z</time></trkpt><trkpt lat="44.09561213609013" lon="9.896331574553392"><ele>169.14285714285714</ele><time>2026-04-03T12:44:57Z</time></trkpt><trkpt lat="44.09562357436131" lon="9.896430346332405"><ele>172.57142857142858</ele><time>2026-04-03T12:44:59Z</time></trkpt><trkpt lat="44.0956221802459" lon="9.896527945757683"><ele>176.0</ele><time>2026-04-03T12:45:01Z</time></trkpt><trkpt lat="44.09560439040567" lon="9.896618712205166"><ele>176.0</ele><time>2026-04-03T12:45:03Z</time></trkpt><trkpt lat="44.095566261992154" lon="9.89670496378025"><ele>176.0</ele><time>2026-04-03T12:45:05Z</time></trkpt><trkpt lat="44.09550043171979" lon="9.896792010896796"><ele>176.0</ele><time>2026-04-03T12:45:08Z</time></trkpt><trkpt lat="44.09543362268941" lon="9.89682351563863"><ele>176.0</ele><time>2026-04-03T12:45:10Z</time></trkpt><trkpt lat="44.095358131539044" lon="9.896820073430561"><ele>176.0</ele><time>2026-04-03T12:45:12Z</time></trkpt><trkpt lat="44.09528612244593" lon="9.896782243515071"><ele>176.0</ele><time>2026-04-03T12:45:14Z</time></trkpt><trkpt lat="44.09521828830286" lon="9.896769477855802"><ele>176.0</ele><time>2026-04-03T12:45:16Z</time></trkpt><trkpt lat="44.09515092515679" lon="9.89675810309855"><ele>176.0</ele><time>2026-04-03T12:45:18Z</time></trkpt><trkpt lat="44.095065109880096" lon="9.8967334161671"><ele>176.0</ele><time>2026-04-03T12:45:21Z</time></trkpt><trkpt lat="44.09497150282165" lon="9.896727786306267"><ele>176.0</ele><time>2026-04-03T12:45:23Z</time></trkpt><trkpt lat="44.09488235917441" lon="9.896749924411628"><ele>176.0</ele><time>2026-04-03T12:45:25Z</time></trkpt><trkpt lat="44.094804470440295" lon="9.89674992987648"><ele>176.0</ele><time>2026-04-03T12:45:27Z</time></trkpt><trkpt lat="44.09473706129081" lon="9.89676833404124"><ele>177.14285714285714</ele><time>2026-04-03T12:45:29Z</time></trkpt><trkpt lat="44.09464744536062" lon="9.896809238655413"><ele>178.28571428571428</ele><time>2026-04-03T12:45:32Z</time></trkpt><trkpt lat="44.09459989361073" lon="9.896882520734557"><ele>179.42857142857144</ele><time>2026-04-03T12:45:34Z</time></trkpt><trkpt lat="44.09454183304388" lon="9.896928578486047"><ele>180.57142857142856</ele><time>2026-04-03T12:45:36Z</time></trkpt><trkpt lat="44.09448521203118" lon="9.896971226355852"><ele>181.7142857142857</ele><time>2026-04-03T12:45:38Z</time></trkpt><trkpt lat="44.094409985747895" lon="9.896956696912778"><ele>182.85714285714286</ele><time>2026-04-03T12:45:40Z</time></trkpt><trkpt lat="44.09435297219184" lon="9.896995723931074"><ele>184.0</ele><time>2026-04-03T12:45:42Z</time></trkpt><trkpt lat="44.09427087099352" lon="9.897051080383255"><ele>184.0</ele><time>2026-04-03T12:45:45Z</time></trkpt><trkpt lat="44.09419688772726" lon="9.897098684977019"><ele>184.0</ele><time>2026-04-03T12:45:48Z</time></trkpt><trkpt lat="44.09413807322932" lon="9.897135751558677"><ele>184.0</ele><time>2026-04-03T12:45:50Z</time></trkpt><trkpt lat="44.09405391593074" lon="9.897187432804461"><ele>184.0</ele><time>2026-04-03T12:45:53Z</time></trkpt><trkpt lat="44.09397412129117" lon="9.89723643492971"><ele>184.0</ele><time>2026-04-03T12:45:56Z</time></trkpt><trkpt lat="44.09389947511343" lon="9.897281322120921"><ele>184.0</ele><time>2026-04-03T12:45:59Z</time></trkpt><trkpt lat="44.09382745966474" lon="9.897325535714621"><ele>180.85714285714286</ele><time>2026-04-03T12:46:02Z</time></trkpt><trkpt lat="44.09377207110771" lon="9.897374043379239"><ele>177.7142857142857</ele><time>2026-04-03T12:46:04Z</time></trkpt><trkpt lat="44.09372754329655" lon="9.897447341652288"><ele>174.57142857142856</ele><time>2026-04-03T12:46:06Z</time></trkpt><trkpt lat="44.09370326686659" lon="9.897531006569181"><ele>171.42857142857144</ele><time>2026-04-03T12:46:08Z</time></trkpt><trkpt lat="44.093698754576785" lon="9.89762170621502"><ele>168.28571428571428</ele><time>2026-04-03T12:46:10Z</time></trkpt><trkpt lat="44.093689963060505" lon="9.897723709185431"><ele>165.14285714285714</ele><time>2026-04-03T12:46:13Z</time></trkpt><trkpt lat="44.093769921441556" lon="9.897788295426539"><ele>162.0</ele><time>2026-04-03T12:46:14Z</time></trkpt><trkpt lat="44.09382658510066" lon="9.89782947479417"><ele>160.33333333333334</ele><time>2026-04-03T12:46:16Z</time></trkpt><trkpt lat="44.093897187910976" lon="9.897870655985036"><ele>158.66666666666666</ele><time>2026-04-03T12:46:19Z</time></trkpt><trkpt lat="44.09395840248445" lon="9.897902819524548"><ele>157.0</ele><time>2026-04-03T12:46:22Z</time></trkpt><trkpt lat="44.09403811347232" lon="9.897944701495513"><ele>155.33333333333331</ele><time>2026-04-03T12:46:23.999Z</time></trkpt><trkpt lat="44.09410225281016" lon="9.897978226588426"><ele>153.66666666666666</ele><time>2026-04-03T12:46:25.999Z</time></trkpt><trkpt lat="44.09419130151551" lon="9.898024622451361"><ele>152.0</ele><time>2026-04-03T12:46:29Z</time></trkpt><trkpt lat="44.094255492935474" lon="9.898058586162895"><ele>156.83333333333331</ele><time>2026-04-03T12:46:31Z</time></trkpt><trkpt lat="44.094336864425294" lon="9.898109768541813"><ele>161.66666666666666</ele><time>2026-04-03T12:46:34Z</time></trkpt><trkpt lat="44.09440153270395" lon="9.8981688098558"><ele>166.5</ele><time>2026-04-03T12:46:37Z</time></trkpt><trkpt lat="44.094449281842145" lon="9.898257142674224"><ele>171.33333333333334</ele><time>2026-04-03T12:46:40Z</time></trkpt><trkpt lat="44.09448050978294" lon="9.898369788827486"><ele>176.16666666666669</ele><time>2026-04-03T12:46:43Z</time></trkpt><trkpt lat="44.094440255176835" lon="9.898486545345298"><ele>181.0</ele><time>2026-04-03T12:46:46Z</time></trkpt><trkpt lat="44.09439171566305" lon="9.898588483351007"><ele>181.0</ele><time>2026-04-03T12:46:49Z</time></trkpt><trkpt lat="44.09433845840336" lon="9.898674213600275"><ele>181.0</ele><time>2026-04-03T12:46:52Z</time></trkpt><trkpt lat="44.094315501164935" lon="9.89878687922006"><ele>181.0</ele><time>2026-04-03T12:46:55Z</time></trkpt><trkpt lat="44.0942944982259" lon="9.898912216627307"><ele>181.0</ele><time>2026-04-03T12:46:58Z</time></trkpt><trkpt lat="44.094288756053814" lon="9.899001747201808"><ele>181.0</ele><time>2026-04-03T12:47:00Z</time></trkpt><trkpt lat="44.094302184588955" lon="9.8990960167036"><ele>181.0</ele><time>2026-04-03T12:47:02Z</time></trkpt><trkpt lat="44.09429513670311" lon="9.899183910300293"><ele>180.33333333333334</ele><time>2026-04-03T12:47:04Z</time></trkpt><trkpt lat="44.09430170474082" lon="9.899277149485739"><ele>179.66666666666669</ele><time>2026-04-03T12:47:06Z</time></trkpt><trkpt lat="44.094336227967055" lon="9.89939256960483"><ele>179.0</ele><time>2026-04-03T12:47:09Z</time></trkpt><trkpt lat="44.09437879828226" lon="9.899478392769371"><ele>178.33333333333334</ele><time>2026-04-03T12:47:11Z</time></trkpt><trkpt lat="44.09445209009719" lon="9.899505782797236"><ele>177.66666666666666</ele><time>2026-04-03T12:47:13Z</time></trkpt><trkpt lat="44.09450449582544" lon="9.899567690765936"><ele>177.0</ele><time>2026-04-03T12:47:15Z</time></trkpt><trkpt lat="44.09456917435007" lon="9.899629632606198"><ele>177.0</ele><time>2026-04-03T12:47:18Z</time></trkpt><trkpt lat="44.094609576897376" lon="9.899709736960153"><ele>177.0</ele><time>2026-04-03T12:47:21Z</time></trkpt><trkpt lat="44.094637206190775" lon="9.899809862655411"><ele>177.0</ele><time>2026-04-03T12:47:24Z</time></trkpt><trkpt lat="44.09464816223652" lon="9.899914358559702"><ele>177.0</ele><time>2026-04-03T12:47:27Z</time></trkpt><trkpt lat="44.09463827249284" lon="9.900017159828279"><ele>177.0</ele><time>2026-04-03T12:47:30Z</time></trkpt><trkpt lat="44.094625584802564" lon="9.90011775948411"><ele>177.0</ele><time>2026-04-03T12:47:33Z</time></trkpt><trkpt lat="44.09461030877965" lon="9.900219705226158"><ele>177.0</ele><time>2026-04-03T12:47:36Z</time></trkpt><trkpt lat="44.09459390194696" lon="9.900345267168191"><ele>175.83333333333334</ele><time>2026-04-03T12:47:39Z</time></trkpt><trkpt lat="44.09458458842689" lon="9.900436954646535"><ele>174.66666666666666</ele><time>2026-04-03T12:47:41Z</time></trkpt><trkpt lat="44.094575003994215" lon="9.900529166561642"><ele>173.5</ele><time>2026-04-03T12:47:43Z</time></trkpt><trkpt lat="44.094558806627816" lon="9.900650535070145"><ele>172.33333333333331</ele><time>2026-04-03T12:47:46Z</time></trkpt><trkpt lat="44.09453983109271" lon="9.90077233833517"><ele>171.16666666666666</ele><time>2026-04-03T12:47:49Z</time></trkpt><trkpt lat="44.09450772503977" lon="9.900895042911"><ele>170.0</ele><time>2026-04-03T12:47:52Z</time></trkpt><trkpt lat="44.09449576031647" lon="9.901021049515084"><ele>169.83333333333331</ele><time>2026-04-03T12:47:55Z</time></trkpt><trkpt lat="44.09449500993075" lon="9.901145567621924"><ele>169.66666666666666</ele><time>2026-04-03T12:47:58Z</time></trkpt><trkpt lat="44.0945042029971" lon="9.9012329809845"><ele>169.5</ele><time>2026-04-03T12:48:00Z</time></trkpt><trkpt lat="44.09453179605994" lon="9.90135598699578"><ele>169.33333333333334</ele><time>2026-04-03T12:48:03Z</time></trkpt><trkpt lat="44.094555029621716" lon="9.901442799512502"><ele>169.16666666666669</ele><time>2026-04-03T12:48:05Z</time></trkpt><trkpt lat="44.09458783604631" lon="9.901558933658618"><ele>169.0</ele><time>2026-04-03T12:48:08Z</time></trkpt><trkpt lat="44.094621470342275" lon="9.901668775689336"><ele>169.0</ele><time>2026-04-03T12:48:11Z</time></trkpt><trkpt lat="44.094656830924094" lon="9.901778813558037"><ele>169.0</ele><time>2026-04-03T12:48:14Z</time></trkpt><trkpt lat="44.09469240383481" lon="9.901879626773297"><ele>169.0</ele><time>2026-04-03T12:48:17Z</time></trkpt><trkpt lat="44.094730532332534" lon="9.901950316855594"><ele>169.0</ele><time>2026-04-03T12:48:21Z</time></trkpt><trkpt lat="44.094687187580455" lon="9.901865397104888"><ele>169.0</ele><time>2026-04-03T12:48:28Z</time></trkpt><trkpt lat="44.09472842688671" lon="9.90193754732958"><ele>169.0</ele><time>2026-04-03T12:48:54Z</time></trkpt><trkpt lat="44.094749104858785" lon="9.902025378465755"><ele>169.0</ele><time>2026-04-03T12:49:00Z</time></trkpt><trkpt lat="44.094787935645954" lon="9.902117772268543"><ele>169.0</ele><time>2026-04-03T12:49:04Z</time></trkpt><trkpt lat="44.094823524953355" lon="9.902192730209698"><ele>169.0</ele><time>2026-04-03T12:49:07Z</time></trkpt><trkpt lat="44.094863013690805" lon="9.902275950904503"><ele>169.0</ele><time>2026-04-03T12:49:11Z</time></trkpt><trkpt lat="44.094883939607755" lon="9.902365488692414"><ele>169.0</ele><time>2026-04-03T12:49:14Z</time></trkpt><trkpt lat="44.0949152486577" lon="9.902469271115287"><ele>169.0</ele><time>2026-04-03T12:49:18Z</time></trkpt><trkpt lat="44.09493863259729" lon="9.902569427215617"><ele>169.0</ele><time>2026-04-03T12:49:22Z</time></trkpt><trkpt lat="44.094955683226374" lon="9.902676327336973"><ele>169.0</ele><time>2026-04-03T12:49:26Z</time></trkpt><trkpt lat="44.09494888968307" lon="9.902584236527222"><ele>169.0</ele><time>2026-04-03T12:49:36Z</time></trkpt><trkpt lat="44.09492125318182" lon="9.90248622145381"><ele>169.0</ele><time>2026-04-03T12:49:41Z</time></trkpt><trkpt lat="44.09489655837346" lon="9.902401594858812"><ele>169.0</ele><time>2026-04-03T12:49:46Z</time></trkpt><trkpt lat="44.094863988265544" lon="9.902290741523716"><ele>169.0</ele><time>2026-04-03T12:50:20Z</time></trkpt><trkpt lat="44.09488852159412" lon="9.902378886371746"><ele>169.0</ele><time>2026-04-03T12:50:31Z</time></trkpt><trkpt lat="44.09500355238017" lon="9.902380958735005"><ele>169.0</ele><time>2026-04-03T12:50:42Z</time></trkpt><trkpt lat="44.095061169433684" lon="9.902334171242666"><ele>169.0</ele><time>2026-04-03T12:50:47Z</time></trkpt><trkpt lat="44.09515223099673" lon="9.902337503221128"><ele>169.0</ele><time>2026-04-03T12:50:49Z</time></trkpt><trkpt lat="44.09509229238019" lon="9.90237021025613"><ele>169.0</ele><time>2026-04-03T12:52:34.001Z</time></trkpt><trkpt lat="44.095021119842514" lon="9.902409372053063"><ele>169.0</ele><time>2026-04-03T12:53:02Z</time></trkpt><trkpt lat="44.0949593898969" lon="9.902380245316436"><ele>169.0</ele><time>2026-04-03T12:53:05Z</time></trkpt><trkpt lat="44.09489133784992" lon="9.90233965001865"><ele>169.0</ele><time>2026-04-03T12:53:09Z</time></trkpt><trkpt lat="44.09493167443706" lon="9.902454934378587"><ele>174.28571428571428</ele><time>2026-04-03T12:53:28Z</time></trkpt><trkpt lat="44.09495099220457" lon="9.902561090020104"><ele>179.57142857142856</ele><time>2026-04-03T12:53:31Z</time></trkpt><trkpt lat="44.094986295195625" lon="9.902644450912401"><ele>184.85714285714283</ele><time>2026-04-03T12:53:40Z</time></trkpt><trkpt lat="44.094979606215496" lon="9.902748013375486"><ele>190.14285714285714</ele><time>2026-04-03T12:54:30.001Z</time></trkpt><trkpt lat="44.09498597153017" lon="9.90286501732664"><ele>195.42857142857142</ele><time>2026-04-03T12:54:35.001Z</time></trkpt><trkpt lat="44.094980161352865" lon="9.90295334156811"><ele>200.7142857142857</ele><time>2026-04-03T12:54:38.001Z</time></trkpt><trkpt lat="44.09496879044988" lon="9.903045110796974"><ele>206.0</ele><time>2026-04-03T12:54:41.001Z</time></trkpt><trkpt lat="44.0949549958441" lon="9.903133734812565"><ele>207.7142857142857</ele><time>2026-04-03T12:54:44.001Z</time></trkpt><trkpt lat="44.09494486061103" lon="9.903224405204561"><ele>209.42857142857142</ele><time>2026-04-03T12:54:47Z</time></trkpt><trkpt lat="44.094922868743325" lon="9.90330815298473"><ele>211.14285714285714</ele><time>2026-04-03T12:54:50Z</time></trkpt><trkpt lat="44.094888039407934" lon="9.903396941813702"><ele>212.85714285714283</ele><time>2026-04-03T12:54:53Z</time></trkpt><trkpt lat="44.094848014906184" lon="9.903472031922695"><ele>214.57142857142858</ele><time>2026-04-03T12:54:56Z</time></trkpt><trkpt lat="44.09480933784475" lon="9.903553697928043"><ele>216.28571428571428</ele><time>2026-04-03T12:54:59Z</time></trkpt><trkpt lat="44.094768322007944" lon="9.903624944269255"><ele>218.0</ele><time>2026-04-03T12:55:02Z</time></trkpt><trkpt lat="44.09472677514949" lon="9.903698224203971"><ele>219.66666666666669</ele><time>2026-04-03T12:55:05Z</time></trkpt><trkpt lat="44.09467620278987" lon="9.903778792140365"><ele>221.33333333333334</ele><time>2026-04-03T12:55:08Z</time></trkpt><trkpt lat="44.0946118513867" lon="9.903833304633958"><ele>223.0</ele><time>2026-04-03T12:55:11Z</time></trkpt><trkpt lat="44.0945448162679" lon="9.903860236677858"><ele>224.66666666666669</ele><time>2026-04-03T12:55:13Z</time></trkpt><trkpt lat="44.09446458180135" lon="9.903852054327121"><ele>226.33333333333334</ele><time>2026-04-03T12:55:16Z</time></trkpt><trkpt lat="44.09438626613557" lon="9.903823208665278"><ele>228.0</ele><time>2026-04-03T12:55:19Z</time></trkpt><trkpt lat="44.09430954704534" lon="9.903801151932246"><ele>228.0</ele><time>2026-04-03T12:55:22Z</time></trkpt><trkpt lat="44.0942209633619" lon="9.903804989435534"><ele>228.0</ele><time>2026-04-03T12:55:25Z</time></trkpt><trkpt lat="44.09414422427533" lon="9.903831628136183"><ele>228.0</ele><time>2026-04-03T12:55:28Z</time></trkpt><trkpt lat="44.094076849962924" lon="9.90388766357491"><ele>228.0</ele><time>2026-04-03T12:55:31Z</time></trkpt><trkpt lat="44.09402783819979" lon="9.903959150885289"><ele>228.0</ele><time>2026-04-03T12:55:34Z</time></trkpt><trkpt lat="44.09397274550996" lon="9.90403162616144"><ele>228.0</ele><time>2026-04-03T12:55:37Z</time></trkpt><trkpt lat="44.09392049561021" lon="9.904118838295652"><ele>228.33333333333334</ele><time>2026-04-03T12:55:40Z</time></trkpt><trkpt lat="44.09385294271807" lon="9.904194680777003"><ele>228.66666666666669</ele><time>2026-04-03T12:55:43Z</time></trkpt><trkpt lat="44.093784613739025" lon="9.90424362545681"><ele>229.0</ele><time>2026-04-03T12:55:46Z</time></trkpt><trkpt lat="44.09370427856583" lon="9.904279368421335"><ele>229.33333333333334</ele><time>2026-04-03T12:55:49Z</time></trkpt><trkpt lat="44.09363033158974" lon="9.904301178517562"><ele>229.66666666666669</ele><time>2026-04-03T12:55:52Z</time></trkpt><trkpt lat="44.09355246818328" lon="9.904305608436653"><ele>230.0</ele><time>2026-04-03T12:55:55.001Z</time></trkpt><trkpt lat="44.093474255252154" lon="9.904295506691899"><ele>229.99999999999997</ele><time>2026-04-03T12:55:58.001Z</time></trkpt><trkpt lat="44.09341139376305" lon="9.904274088876953"><ele>230.0</ele><time>2026-04-03T12:56:01.001Z</time></trkpt><trkpt lat="44.09334067642071" lon="9.904267389568227"><ele>229.99999999999997</ele><time>2026-04-03T12:56:05.001Z</time></trkpt><trkpt lat="44.09326856237237" lon="9.904259207370664"><ele>229.99999999999997</ele><time>2026-04-03T12:56:09.001Z</time></trkpt><trkpt lat="44.09322712368875" lon="9.904176535896536"><ele>230.0</ele><time>2026-04-03T12:56:12.001Z</time></trkpt><trkpt lat="44.09315438039113" lon="9.90419209439644"><ele>229.99999999999997</ele><time>2026-04-03T12:56:16.001Z</time></trkpt><trkpt lat="44.09309403320638" lon="9.904220786283489"><ele>229.99999999999997</ele><time>2026-04-03T12:56:20.001Z</time></trkpt><trkpt lat="44.09301867416105" lon="9.904216117444902"><ele>223.66666666666669</ele><time>2026-04-03T12:56:24.001Z</time></trkpt><trkpt lat="44.09294947327461" lon="9.904279910715918"><ele>217.33333333333334</ele><time>2026-04-03T12:56:27.001Z</time></trkpt><trkpt lat="44.092900090884754" lon="9.904348639923102"><ele>211.0</ele><time>2026-04-03T12:56:29.001Z</time></trkpt><trkpt lat="44.09286756438854" lon="9.904424462172033"><ele>204.66666666666669</ele><time>2026-04-03T12:56:31.001Z</time></trkpt><trkpt lat="44.09283870619413" lon="9.904556608761183"><ele>198.33333333333334</ele><time>2026-04-03T12:56:34.001Z</time></trkpt><trkpt lat="44.092833525394475" lon="9.904682599935857"><ele>192.0</ele><time>2026-04-03T12:56:36.001Z</time></trkpt><trkpt lat="44.092864469624786" lon="9.904799415729913"><ele>192.0</ele><time>2026-04-03T12:56:38.001Z</time></trkpt><trkpt lat="44.09283640782287" lon="9.90496747427273"><ele>192.0</ele><time>2026-04-03T12:56:40.001Z</time></trkpt><trkpt lat="44.092777196355684" lon="9.905049978878608"><ele>192.0</ele><time>2026-04-03T12:56:41.001Z</time></trkpt><trkpt lat="44.09274649203498" lon="9.905158502878914"><ele>192.0</ele><time>2026-04-03T12:56:42.001Z</time></trkpt><trkpt lat="44.0927118042735" lon="9.90528568240919"><ele>192.0</ele><time>2026-04-03T12:56:43.001Z</time></trkpt><trkpt lat="44.09268664932454" lon="9.905380489947358"><ele>192.16666666666666</ele><time>2026-04-03T12:56:45.001Z</time></trkpt><trkpt lat="44.09266387001745" lon="9.905475641340292"><ele>192.33333333333331</ele><time>2026-04-03T12:56:46.001Z</time></trkpt><trkpt lat="44.09264150431077" lon="9.905586503864754"><ele>192.5</ele><time>2026-04-03T12:56:47.001Z</time></trkpt><trkpt lat="44.092624683713254" lon="9.90568896629677"><ele>192.66666666666666</ele><time>2026-04-03T12:56:48.001Z</time></trkpt><trkpt lat="44.092606746299" lon="9.90579754310463"><ele>192.83333333333331</ele><time>2026-04-03T12:56:49.001Z</time></trkpt><trkpt lat="44.09258599844097" lon="9.90590518869328"><ele>193.0</ele><time>2026-04-03T12:56:50.001Z</time></trkpt><trkpt lat="44.0925571423431" lon="9.90600729629345"><ele>192.99999999999997</ele><time>2026-04-03T12:56:51.001Z</time></trkpt><trkpt lat="44.09251205804503" lon="9.906089860151729"><ele>193.0</ele><time>2026-04-03T12:56:52Z</time></trkpt><trkpt lat="44.09244993907504" lon="9.906156004539316"><ele>193.0</ele><time>2026-04-03T12:56:53Z</time></trkpt><trkpt lat="44.092381638348975" lon="9.906207258228227"><ele>193.0</ele><time>2026-04-03T12:56:54Z</time></trkpt><trkpt lat="44.0922998737878" lon="9.906261962706282"><ele>192.99999999999997</ele><time>2026-04-03T12:56:55Z</time></trkpt><trkpt lat="44.092216978700016" lon="9.906315416486283"><ele>193.0</ele><time>2026-04-03T12:56:56Z</time></trkpt><trkpt lat="44.09213160068708" lon="9.906361310797104"><ele>192.49999999999997</ele><time>2026-04-03T12:56:57Z</time></trkpt><trkpt lat="44.092050576781574" lon="9.90639017747229"><ele>192.0</ele><time>2026-04-03T12:56:58Z</time></trkpt><trkpt lat="44.09196940234832" lon="9.906396539246403"><ele>191.5</ele><time>2026-04-03T12:56:59Z</time></trkpt><trkpt lat="44.09187899841734" lon="9.906412688893761"><ele>191.0</ele><time>2026-04-03T12:57:00Z</time></trkpt><trkpt lat="44.09179194872208" lon="9.906432733772451"><ele>190.5</ele><time>2026-04-03T12:57:01Z</time></trkpt><trkpt lat="44.09172102376349" lon="9.906457018549839"><ele>190.0</ele><time>2026-04-03T12:57:06Z</time></trkpt><trkpt lat="44.09165538477039" lon="9.906499657994104"><ele>190.0</ele><time>2026-04-03T12:57:09Z</time></trkpt><trkpt lat="44.09159410438975" lon="9.906544424541785"><ele>190.0</ele><time>2026-04-03T12:57:11Z</time></trkpt><trkpt lat="44.091501262909304" lon="9.906636295345132"><ele>190.0</ele><time>2026-04-03T12:57:13Z</time></trkpt><trkpt lat="44.09143189568464" lon="9.906679681608955"><ele>190.0</ele><time>2026-04-03T12:57:15Z</time></trkpt><trkpt lat="44.091365454819254" lon="9.906702865525938"><ele>190.0</ele><time>2026-04-03T12:57:18Z</time></trkpt><trkpt lat="44.09128019103979" lon="9.90676416505191"><ele>190.0</ele><time>2026-04-03T12:57:20Z</time></trkpt><trkpt lat="44.09133487830356" lon="9.907037302301259"><ele>187.42857142857144</ele><time>2026-04-03T12:57:21Z</time></trkpt><trkpt lat="44.09132438751138" lon="9.907127380923125"><ele>184.85714285714286</ele><time>2026-04-03T12:57:22Z</time></trkpt><trkpt lat="44.09128986803853" lon="9.90723203979524"><ele>182.28571428571428</ele><time>2026-04-03T12:57:25Z</time></trkpt><trkpt lat="44.091249126007284" lon="9.907309436399832"><ele>179.71428571428572</ele><time>2026-04-03T12:57:44Z</time></trkpt><trkpt lat="44.091186271765075" lon="9.907336840383866"><ele>177.14285714285714</ele><time>2026-04-03T12:57:50Z</time></trkpt><trkpt lat="44.09114144608143" lon="9.907400101083908"><ele>174.57142857142858</ele><time>2026-04-03T12:57:55Z</time></trkpt><trkpt lat="44.09109510344739" lon="9.907466763094144"><ele>172.0</ele><time>2026-04-03T12:58:11.001Z</time></trkpt><trkpt lat="44.09115649810514" lon="9.907491507915177"><ele>172.0</ele><time>2026-04-03T12:58:45.001Z</time></trkpt><trkpt lat="44.091222951100406" lon="9.907467648856807"><ele>172.0</ele><time>2026-04-03T12:58:49.001Z</time></trkpt><trkpt lat="44.091281338522116" lon="9.907429144038058"><ele>172.0</ele><time>2026-04-03T12:58:52.001Z</time></trkpt><trkpt lat="44.09133862026631" lon="9.907333956585463"><ele>172.0</ele><time>2026-04-03T12:58:56.001Z</time></trkpt><trkpt lat="44.09138566846864" lon="9.907248091655445"><ele>172.0</ele><time>2026-04-03T12:58:58Z</time></trkpt><trkpt lat="44.09145264138365" lon="9.907119301137643"><ele>172.0</ele><time>2026-04-03T12:59:00Z</time></trkpt><trkpt lat="44.09152094109653" lon="9.90702331825713"><ele>171.16666666666669</ele><time>2026-04-03T12:59:02Z</time></trkpt><trkpt lat="44.0916217430344" lon="9.90702913626522"><ele>170.33333333333334</ele><time>2026-04-03T12:59:04Z</time></trkpt><trkpt lat="44.09170402103491" lon="9.907018256054803"><ele>169.5</ele><time>2026-04-03T12:59:09Z</time></trkpt><trkpt lat="44.09175469980657" lon="9.906942683865168"><ele>168.66666666666666</ele><time>2026-04-03T12:59:13Z</time></trkpt><trkpt lat="44.0918117572219" lon="9.906880178350864"><ele>167.83333333333331</ele><time>2026-04-03T12:59:16Z</time></trkpt><trkpt lat="44.09187756131292" lon="9.906834443868572"><ele>167.0</ele><time>2026-04-03T12:59:20Z</time></trkpt><trkpt lat="44.0919458621851" lon="9.906835526340716"><ele>167.0</ele><time>2026-04-03T12:59:37Z</time></trkpt><trkpt lat="44.09188297998074" lon="9.906860801055927"><ele>167.0</ele><time>2026-04-03T13:00:43.001Z</time></trkpt><trkpt lat="44.09182398334332" lon="9.906911817974905"><ele>167.0</ele><time>2026-04-03T13:00:50.001Z</time></trkpt><trkpt lat="44.09177773344256" lon="9.906977114933595"><ele>167.0</ele><time>2026-04-03T13:00:54.001Z</time></trkpt><trkpt lat="44.09170334048586" lon="9.907034208844877"><ele>167.0</ele><time>2026-04-03T13:00:59.001Z</time></trkpt><trkpt lat="44.091631410443945" lon="9.907016431484946"><ele>167.0</ele><time>2026-04-03T13:01:01.001Z</time></trkpt><trkpt lat="44.09155358101532" lon="9.907061353321813"><ele>167.0</ele><time>2026-04-03T13:01:03Z</time></trkpt><trkpt lat="44.091524458100565" lon="9.907147063593454"><ele>167.71428571428572</ele><time>2026-04-03T13:01:06Z</time></trkpt><trkpt lat="44.09148109417443" lon="9.907214303811056"><ele>168.42857142857144</ele><time>2026-04-03T13:01:10Z</time></trkpt><trkpt lat="44.09143566479967" lon="9.90728963771603"><ele>169.14285714285717</ele><time>2026-04-03T13:01:13Z</time></trkpt><trkpt lat="44.0913877857386" lon="9.907378393647274"><ele>169.85714285714286</ele><time>2026-04-03T13:01:16Z</time></trkpt><trkpt lat="44.091329053861564" lon="9.90741140030532"><ele>170.57142857142858</ele><time>2026-04-03T13:01:18Z</time></trkpt><trkpt lat="44.09126441154053" lon="9.907448658575563"><ele>171.2857142857143</ele><time>2026-04-03T13:01:21Z</time></trkpt><trkpt lat="44.09118611628938" lon="9.907468172637708"><ele>172.0</ele><time>2026-04-03T13:01:24Z</time></trkpt><trkpt lat="44.091115191757254" lon="9.907473101008854"><ele>172.00000000000003</ele><time>2026-04-03T13:01:27Z</time></trkpt><trkpt lat="44.09104831001003" lon="9.907475246444507"><ele>172.0</ele><time>2026-04-03T13:01:46Z</time></trkpt><trkpt lat="44.090989162163034" lon="9.907434913367835"><ele>172.0</ele><time>2026-04-03T13:01:51Z</time></trkpt><trkpt lat="44.09090786491937" lon="9.907391896212145"><ele>172.0</ele><time>2026-04-03T13:01:55Z</time></trkpt><trkpt lat="44.09084692673605" lon="9.90735119820901"><ele>172.0</ele><time>2026-04-03T13:02:00Z</time></trkpt><trkpt lat="44.09077496191937" lon="9.907328434418707"><ele>172.00000000000003</ele><time>2026-04-03T13:02:03Z</time></trkpt><trkpt lat="44.09070307809676" lon="9.907330047205393"><ele>172.0</ele><time>2026-04-03T13:02:07Z</time></trkpt><trkpt lat="44.09062324802534" lon="9.907340628754351"><ele>171.57142857142858</ele><time>2026-04-03T13:02:12Z</time></trkpt><trkpt lat="44.090544969797584" lon="9.907342530203321"><ele>171.14285714285714</ele><time>2026-04-03T13:02:16Z</time></trkpt><trkpt lat="44.09047003878542" lon="9.907358820931647"><ele>170.71428571428572</ele><time>2026-04-03T13:02:19Z</time></trkpt><trkpt lat="44.09039844112917" lon="9.907380210518284"><ele>170.28571428571428</ele><time>2026-04-03T13:02:22Z</time></trkpt><trkpt lat="44.09033471143479" lon="9.907400678633273"><ele>169.85714285714286</ele><time>2026-04-03T13:02:25Z</time></trkpt><trkpt lat="44.09026791242001" lon="9.907444379604838"><ele>169.42857142857144</ele><time>2026-04-03T13:02:29Z</time></trkpt><trkpt lat="44.09021126880873" lon="9.907486463972255"><ele>169.0</ele><time>2026-04-03T13:02:32Z</time></trkpt><trkpt lat="44.09015408504476" lon="9.90752640341669"><ele>169.0</ele><time>2026-04-03T13:02:46Z</time></trkpt><trkpt lat="44.09008287740897" lon="9.907490849495597"><ele>169.0</ele><time>2026-04-03T13:02:52Z</time></trkpt><trkpt lat="44.09003305830695" lon="9.90743618795098"><ele>169.0</ele><time>2026-04-03T13:03:06Z</time></trkpt><trkpt lat="44.090093243346104" lon="9.907488994470144"><ele>169.0</ele><time>2026-04-03T13:03:20.999Z</time></trkpt><trkpt lat="44.090071345515824" lon="9.907589850909607"><ele>169.0</ele><time>2026-04-03T13:03:39Z</time></trkpt><trkpt lat="44.090024166777674" lon="9.90768134694854"><ele>169.0</ele><time>2026-04-03T13:03:43Z</time></trkpt><trkpt lat="44.089996203774255" lon="9.907767051167806"><ele>169.0</ele><time>2026-04-03T13:03:51Z</time></trkpt><trkpt lat="44.089969470902574" lon="9.907866770647406"><ele>167.66666666666669</ele><time>2026-04-03T13:03:55Z</time></trkpt><trkpt lat="44.089942259769686" lon="9.907985549770784"><ele>166.33333333333334</ele><time>2026-04-03T13:04:10Z</time></trkpt><trkpt lat="44.089892937909056" lon="9.908062043107828"><ele>165.0</ele><time>2026-04-03T13:04:15Z</time></trkpt><trkpt lat="44.089817002260084" lon="9.908099931590979"><ele>163.66666666666666</ele><time>2026-04-03T13:04:18Z</time></trkpt><trkpt lat="44.08972304064843" lon="9.908075913752217"><ele>162.33333333333331</ele><time>2026-04-03T13:04:21Z</time></trkpt><trkpt lat="44.08965432140614" lon="9.90806066437191"><ele>161.0</ele><time>2026-04-03T13:04:23Z</time></trkpt><trkpt lat="44.089573380366254" lon="9.908084137666563"><ele>158.8</ele><time>2026-04-03T13:04:26Z</time></trkpt><trkpt lat="44.08949371873305" lon="9.908130144026225"><ele>156.60000000000002</ele><time>2026-04-03T13:04:28Z</time></trkpt><trkpt lat="44.089408938482926" lon="9.908217045265292"><ele>154.4</ele><time>2026-04-03T13:04:31Z</time></trkpt><trkpt lat="44.089323599170946" lon="9.908245961276865"><ele>152.2</ele><time>2026-04-03T13:04:33Z</time></trkpt><trkpt lat="44.08923681910213" lon="9.908299759077707"><ele>150.0</ele><time>2026-04-03T13:04:35Z</time></trkpt><trkpt lat="44.08913234771892" lon="9.908370945194584"><ele>148.33333333333334</ele><time>2026-04-03T13:04:37Z</time></trkpt><trkpt lat="44.08906265681693" lon="9.90843455170427"><ele>146.66666666666666</ele><time>2026-04-03T13:04:39Z</time></trkpt><trkpt lat="44.0889964807972" lon="9.908528091004555"><ele>145.0</ele><time>2026-04-03T13:04:41Z</time></trkpt><trkpt lat="44.08895813835019" lon="9.908621880235092"><ele>143.33333333333331</ele><time>2026-04-03T13:04:43Z</time></trkpt><trkpt lat="44.088922985865146" lon="9.908699649535222"><ele>141.66666666666666</ele><time>2026-04-03T13:04:45Z</time></trkpt><trkpt lat="44.08888868534787" lon="9.908799116866817"><ele>140.0</ele><time>2026-04-03T13:04:48Z</time></trkpt><trkpt lat="44.088758217326216" lon="9.908863110465113"><ele>140.0</ele><time>2026-04-03T13:04:50Z</time></trkpt><trkpt lat="44.088747957727456" lon="9.908959736731827"><ele>140.0</ele><time>2026-04-03T13:04:54Z</time></trkpt><trkpt lat="44.08873593102103" lon="9.909073006291397"><ele>140.0</ele><time>2026-04-03T13:04:57Z</time></trkpt><trkpt lat="44.08903850251556" lon="9.909519413047663"><ele>139.14285714285714</ele><time>2026-04-03T13:05:51Z</time></trkpt><trkpt lat="44.089062322993954" lon="9.909437498779043"><ele>138.28571428571428</ele><time>2026-04-03T13:05:54Z</time></trkpt><trkpt lat="44.08914003071402" lon="9.909512385420948"><ele>137.42857142857144</ele><time>2026-04-03T13:06:04Z</time></trkpt><trkpt lat="44.08914282520651" lon="9.909601220686532"><ele>136.57142857142856</ele><time>2026-04-03T13:06:08Z</time></trkpt><trkpt lat="44.08921378357967" lon="9.909633402219189"><ele>135.71428571428572</ele><time>2026-04-03T13:06:14Z</time></trkpt><trkpt lat="44.08927140521438" lon="9.909703934103959"><ele>134.85714285714286</ele><time>2026-04-03T13:06:24Z</time></trkpt><trkpt lat="44.08933468191949" lon="9.909736656018985"><ele>134.0</ele><time>2026-04-03T13:06:28Z</time></trkpt><trkpt lat="44.089410603149055" lon="9.909732656985955"><ele>133.0</ele><time>2026-04-03T13:06:39Z</time></trkpt><trkpt lat="44.08945080753219" lon="9.90981245792302"><ele>132.0</ele><time>2026-04-03T13:06:42Z</time></trkpt><trkpt lat="44.08947962401242" lon="9.909905135270716"><ele>131.0</ele><time>2026-04-03T13:06:45Z</time></trkpt><trkpt lat="44.08952547585668" lon="9.910012309690178"><ele>130.0</ele><time>2026-04-03T13:06:48Z</time></trkpt><trkpt lat="44.08949940681003" lon="9.910110040023822"><ele>129.0</ele><time>2026-04-03T13:06:51Z</time></trkpt><trkpt lat="44.089498646462566" lon="9.910221840579613"><ele>128.0</ele><time>2026-04-03T13:08:00Z</time></trkpt><trkpt lat="44.0894831785437" lon="9.910311136589366"><ele>122.83333333333333</ele><time>2026-04-03T13:08:05Z</time></trkpt><trkpt lat="44.089420429664834" lon="9.910389074037676"><ele>117.66666666666666</ele><time>2026-04-03T13:08:09Z</time></trkpt><trkpt lat="44.089376696627816" lon="9.910480231141268"><ele>112.5</ele><time>2026-04-03T13:08:12Z</time></trkpt><trkpt lat="44.08930535818286" lon="9.910569114369052"><ele>107.33333333333334</ele><time>2026-04-03T13:08:14Z</time></trkpt><trkpt lat="44.089240496417034" lon="9.910604971194378"><ele>102.16666666666667</ele><time>2026-04-03T13:08:17Z</time></trkpt><trkpt lat="44.08916844073036" lon="9.910617054366643"><ele>97.0</ele><time>2026-04-03T13:08:19Z</time></trkpt><trkpt lat="44.08910032421497" lon="9.910585706693594"><ele>98.66666666666667</ele><time>2026-04-03T13:08:21Z</time></trkpt><trkpt lat="44.089016535468716" lon="9.91058933401807"><ele>100.33333333333334</ele><time>2026-04-03T13:08:24Z</time></trkpt><trkpt lat="44.08894693199759" lon="9.910577751902428"><ele>102.0</ele><time>2026-04-03T13:08:26Z</time></trkpt><trkpt lat="44.08887100610635" lon="9.910596441527142"><ele>103.66666666666666</ele><time>2026-04-03T13:08:28Z</time></trkpt><trkpt lat="44.08878772136724" lon="9.910586888747472"><ele>105.33333333333333</ele><time>2026-04-03T13:08:30Z</time></trkpt><trkpt lat="44.08871435273129" lon="9.910582872125353"><ele>107.0</ele><time>2026-04-03T13:08:32Z</time></trkpt><trkpt lat="44.08863360585955" lon="9.91064634652528"><ele>101.5</ele><time>2026-04-03T13:08:35Z</time></trkpt><trkpt lat="44.088542496008884" lon="9.911022400960015"><ele>96.0</ele><time>2026-04-03T13:08:37Z</time></trkpt><trkpt lat="44.08847484690737" lon="9.911010077843713"><ele>90.5</ele><time>2026-04-03T13:08:41Z</time></trkpt><trkpt lat="44.08839214148826" lon="9.911003048119287"><ele>85.0</ele><time>2026-04-03T13:08:51Z</time></trkpt><trkpt lat="44.08830254476842" lon="9.910934108200642"><ele>87.42857142857143</ele><time>2026-04-03T13:08:54.001Z</time></trkpt><trkpt lat="44.08823573355737" lon="9.910905171139214"><ele>89.85714285714285</ele><time>2026-04-03T13:08:57.001Z</time></trkpt><trkpt lat="44.08815135930555" lon="9.910863616311135"><ele>92.28571428571428</ele><time>2026-04-03T13:09:00.001Z</time></trkpt><trkpt lat="44.08808318802441" lon="9.910846810257523"><ele>94.71428571428572</ele><time>2026-04-03T13:09:02.001Z</time></trkpt><trkpt lat="44.0880124010415" lon="9.9108162184875"><ele>97.14285714285714</ele><time>2026-04-03T13:09:05.001Z</time></trkpt><trkpt lat="44.0879398618467" lon="9.910861555070651"><ele>99.57142857142857</ele><time>2026-04-03T13:09:26Z</time></trkpt><trkpt lat="44.08788876879329" lon="9.910919993486567"><ele>102.0</ele><time>2026-04-03T13:09:29Z</time></trkpt><trkpt lat="44.08783391836997" lon="9.910969410093184"><ele>102.0</ele><time>2026-04-03T13:09:31Z</time></trkpt><trkpt lat="44.08782142143658" lon="9.911059849233824"><ele>102.0</ele><time>2026-04-03T13:09:34Z</time></trkpt><trkpt lat="44.087779129671944" lon="9.911150290318973"><ele>102.0</ele><time>2026-04-03T13:09:36Z</time></trkpt><trkpt lat="44.08773756595063" lon="9.91123709009229"><ele>102.0</ele><time>2026-04-03T13:09:40Z</time></trkpt><trkpt lat="44.08768968926472" lon="9.911337072430536"><ele>102.0</ele><time>2026-04-03T13:09:44Z</time></trkpt><trkpt lat="44.08736040501159" lon="9.911115722464718"><ele>101.0</ele><time>2026-04-03T13:09:47Z</time></trkpt><trkpt lat="44.08728149779847" lon="9.91111536135624"><ele>100.0</ele><time>2026-04-03T13:09:49Z</time></trkpt><trkpt lat="44.08719236459554" lon="9.911128324413669"><ele>99.0</ele><time>2026-04-03T13:09:51Z</time></trkpt><trkpt lat="44.0871074664739" lon="9.91114233299795"><ele>98.0</ele><time>2026-04-03T13:09:53Z</time></trkpt><trkpt lat="44.08702708894528" lon="9.911109407362549"><ele>97.0</ele><time>2026-04-03T13:09:55Z</time></trkpt><trkpt lat="44.086943099782275" lon="9.911055729663124"><ele>96.0</ele><time>2026-04-03T13:09:57Z</time></trkpt><trkpt lat="44.086855802139645" lon="9.911025834814382"><ele>96.0</ele><time>2026-04-03T13:09:59Z</time></trkpt><trkpt lat="44.086737800934145" lon="9.910997371768973"><ele>96.0</ele><time>2026-04-03T13:10:01Z</time></trkpt><trkpt lat="44.08667353183054" lon="9.910995945055054"><ele>96.0</ele><time>2026-04-03T13:10:02Z</time></trkpt><trkpt lat="44.086595915577966" lon="9.910958182999565"><ele>96.0</ele><time>2026-04-03T13:10:03Z</time></trkpt><trkpt lat="44.08652244009641" lon="9.910932228221025"><ele>96.0</ele><time>2026-04-03T13:10:04Z</time></trkpt><trkpt lat="44.08644957529673" lon="9.910914627897986"><ele>96.0</ele><time>2026-04-03T13:10:05Z</time></trkpt><trkpt lat="44.08635495142194" lon="9.910844986209863"><ele>95.66666666666667</ele><time>2026-04-03T13:10:07Z</time></trkpt><trkpt lat="44.086289834545745" lon="9.910868616479972"><ele>95.33333333333333</ele><time>2026-04-03T13:10:09Z</time></trkpt><trkpt lat="44.08624442661586" lon="9.910940038717424"><ele>95.0</ele><time>2026-04-03T13:10:11Z</time></trkpt><trkpt lat="44.08630235020405" lon="9.91107291543441"><ele>94.66666666666666</ele><time>2026-04-03T13:10:12Z</time></trkpt><trkpt lat="44.086333258282714" lon="9.911195473526321"><ele>94.33333333333333</ele><time>2026-04-03T13:10:14Z</time></trkpt><trkpt lat="44.08632621927518" lon="9.911287276844547"><ele>94.0</ele><time>2026-04-03T13:10:17Z</time></trkpt><trkpt lat="44.08627739703835" lon="9.91137847229324"><ele>94.83333333333333</ele><time>2026-04-03T13:10:58.001Z</time></trkpt><trkpt lat="44.0862744371834" lon="9.911466149563818"><ele>95.66666666666666</ele><time>2026-04-03T13:11:01.001Z</time></trkpt><trkpt lat="44.086280812447434" lon="9.911351568576665"><ele>96.5</ele><time>2026-04-03T13:11:04.001Z</time></trkpt><trkpt lat="44.08628222286989" lon="9.911249266983521"><ele>97.33333333333333</ele><time>2026-04-03T13:11:06.001Z</time></trkpt><trkpt lat="44.08627386462925" lon="9.911137718849767"><ele>98.16666666666667</ele><time>2026-04-03T13:11:09.001Z</time></trkpt><trkpt lat="44.08626729089352" lon="9.91103018447584"><ele>99.0</ele><time>2026-04-03T13:11:12.001Z</time></trkpt><trkpt lat="44.08635560344673" lon="9.910993137454092"><ele>99.0</ele><time>2026-04-03T13:11:14.001Z</time></trkpt><trkpt lat="44.086289714932214" lon="9.910939754132325"><ele>99.0</ele><time>2026-04-03T13:11:15.001Z</time></trkpt><trkpt lat="44.08629269359842" lon="9.910823556338837"><ele>99.0</ele><time>2026-04-03T13:11:20.001Z</time></trkpt><trkpt lat="44.08642899688344" lon="9.91090525984393"><ele>99.0</ele><time>2026-04-03T13:11:24.001Z</time></trkpt><trkpt lat="44.08649568727517" lon="9.91091505764113"><ele>99.0</ele><time>2026-04-03T13:11:25.001Z</time></trkpt><trkpt lat="44.08658997400596" lon="9.910936383939372"><ele>98.5</ele><time>2026-04-03T13:11:28.001Z</time></trkpt><trkpt lat="44.08665470167694" lon="9.91095338457223"><ele>98.0</ele><time>2026-04-03T13:11:30.001Z</time></trkpt><trkpt lat="44.08672074827268" lon="9.910976088897176"><ele>97.5</ele><time>2026-04-03T13:11:32Z</time></trkpt><trkpt lat="44.086790084929135" lon="9.911000122078578"><ele>97.0</ele><time>2026-04-03T13:11:34Z</time></trkpt><trkpt lat="44.08685878207098" lon="9.911011970562864"><ele>96.5</ele><time>2026-04-03T13:11:36Z</time></trkpt><trkpt lat="44.086943168051064" lon="9.911081649167139"><ele>96.0</ele><time>2026-04-03T13:11:40Z</time></trkpt><trkpt lat="44.0870899430551" lon="9.9108868842431"><ele>96.0</ele><time>2026-04-03T13:11:42Z</time></trkpt><trkpt lat="44.08714829049054" lon="9.91093201344491"><ele>96.0</ele><time>2026-04-03T13:11:44Z</time></trkpt><trkpt lat="44.08729947399987" lon="9.91110374599758"><ele>96.0</ele><time>2026-04-03T13:11:52Z</time></trkpt><trkpt lat="44.08737474175661" lon="9.9110961369859"><ele>96.0</ele><time>2026-04-03T13:11:54Z</time></trkpt><trkpt lat="44.08729539076959" lon="9.910817412031825"><ele>97.4</ele><time>2026-04-03T13:12:39Z</time></trkpt><trkpt lat="44.08721210036647" lon="9.910825142453943"><ele>98.8</ele><time>2026-04-03T13:12:42Z</time></trkpt><trkpt lat="44.087141251470705" lon="9.910831718145825"><ele>100.2</ele><time>2026-04-03T13:12:44.001Z</time></trkpt><trkpt lat="44.08707515871247" lon="9.910837852411293"><ele>101.60000000000001</ele><time>2026-04-03T13:12:46.001Z</time></trkpt><trkpt lat="44.08695559814282" lon="9.910730081851101"><ele>103.0</ele><time>2026-04-03T13:12:54.001Z</time></trkpt><trkpt lat="44.086844566650015" lon="9.910747486069624"><ele>94.0</ele><time>2026-04-03T13:12:55.001Z</time></trkpt><trkpt lat="44.086303154776296" lon="9.910905452702439"><ele>94.83333333333333</ele><time>2026-04-03T13:13:06.001Z</time></trkpt><trkpt lat="44.08623678733905" lon="9.910993323153566"><ele>95.66666666666666</ele><time>2026-04-03T13:13:11.001Z</time></trkpt><trkpt lat="44.08625910965555" lon="9.911089977945297"><ele>96.5</ele><time>2026-04-03T13:13:13.001Z</time></trkpt><trkpt lat="44.08627703438597" lon="9.911201182784223"><ele>97.33333333333333</ele><time>2026-04-03T13:13:16.001Z</time></trkpt><trkpt lat="44.086283213557806" lon="9.911311666300131"><ele>98.16666666666667</ele><time>2026-04-03T13:13:20.001Z</time></trkpt><trkpt lat="44.08627122837782" lon="9.911408275590649"><ele>99.0</ele><time>2026-04-03T13:13:24.001Z</time></trkpt><trkpt lat="44.08624917356353" lon="9.911503761258276"><ele>99.0</ele><time>2026-04-03T13:13:27.001Z</time></trkpt><trkpt lat="44.086243540275596" lon="9.911597484799671"><ele>99.0</ele><time>2026-04-03T13:13:29.001Z</time></trkpt><trkpt lat="44.08621160641381" lon="9.911715970214283"><ele>99.0</ele><time>2026-04-03T13:13:31.001Z</time></trkpt><trkpt lat="44.08618745330777" lon="9.911841245162591"><ele>99.0</ele><time>2026-04-03T13:13:33.001Z</time></trkpt><trkpt lat="44.086167721278024" lon="9.911978979383901"><ele>99.0</ele><time>2026-04-03T13:13:35.001Z</time></trkpt><trkpt lat="44.08616118927387" lon="9.91213105675921"><ele>98.80000000000001</ele><time>2026-04-03T13:13:37Z</time></trkpt><trkpt lat="44.08616523809924" lon="9.912277796049752"><ele>98.60000000000001</ele><time>2026-04-03T13:13:39Z</time></trkpt><trkpt lat="44.08617673062703" lon="9.912435129251676"><ele>98.4</ele><time>2026-04-03T13:13:41Z</time></trkpt><trkpt lat="44.08616358978175" lon="9.912604038773436"><ele>98.2</ele><time>2026-04-03T13:13:43Z</time></trkpt><trkpt lat="44.086178095185446" lon="9.912690970823652"><ele>98.0</ele><time>2026-04-03T13:13:44Z</time></trkpt><trkpt lat="44.086160678783855" lon="9.912779809850733"><ele>96.0</ele><time>2026-04-03T13:13:45Z</time></trkpt><trkpt lat="44.08610859681949" lon="9.91293309396319"><ele>94.0</ele><time>2026-04-03T13:13:47Z</time></trkpt><trkpt lat="44.086057295851866" lon="9.913078507899018"><ele>92.0</ele><time>2026-04-03T13:13:49Z</time></trkpt><trkpt lat="44.08601867378473" lon="9.913237159838317"><ele>90.0</ele><time>2026-04-03T13:13:51Z</time></trkpt><trkpt lat="44.086000762473724" lon="9.913403851130758"><ele>88.66666666666667</ele><time>2026-04-03T13:13:53Z</time></trkpt><trkpt lat="44.08601356587748" lon="9.913578782065064"><ele>87.33333333333333</ele><time>2026-04-03T13:13:55Z</time></trkpt><trkpt lat="44.086034119639585" lon="9.913666002781444"><ele>86.0</ele><time>2026-04-03T13:13:56Z</time></trkpt><trkpt lat="44.0860583476054" lon="9.91375368109901"><ele>84.66666666666666</ele><time>2026-04-03T13:13:57Z</time></trkpt><trkpt lat="44.086080613127024" lon="9.913844319607295"><ele>83.33333333333333</ele><time>2026-04-03T13:13:58Z</time></trkpt><trkpt lat="44.08610115288859" lon="9.91393475813107"><ele>82.0</ele><time>2026-04-03T13:13:59Z</time></trkpt><trkpt lat="44.086105534233965" lon="9.9140297317752"><ele>81.99999999999999</ele><time>2026-04-03T13:14:00Z</time></trkpt><trkpt lat="44.08608007346749" lon="9.91412186529804"><ele>82.0</ele><time>2026-04-03T13:14:01Z</time></trkpt><trkpt lat="44.086071486619545" lon="9.914224063541607"><ele>82.0</ele><time>2026-04-03T13:14:02Z</time></trkpt><trkpt lat="44.086029262074646" lon="9.914313601744608"><ele>82.0</ele><time>2026-04-03T13:14:03Z</time></trkpt><trkpt lat="44.085976474168646" lon="9.914387578714372"><ele>82.0</ele><time>2026-04-03T13:14:04Z</time></trkpt><trkpt lat="44.08591697328918" lon="9.914448821085319"><ele>81.99999999999999</ele><time>2026-04-03T13:14:05Z</time></trkpt><trkpt lat="44.08584779198032" lon="9.914466133240817"><ele>82.0</ele><time>2026-04-03T13:14:06Z</time></trkpt><trkpt lat="44.08574617519922" lon="9.914530179002952"><ele>81.83333333333333</ele><time>2026-04-03T13:14:08Z</time></trkpt><trkpt lat="44.08566267366186" lon="9.914531407301274"><ele>81.66666666666666</ele><time>2026-04-03T13:14:10Z</time></trkpt><trkpt lat="44.08570137246436" lon="9.91460055222322"><ele>81.5</ele><time>2026-04-03T13:16:56.001Z</time></trkpt><trkpt lat="44.08578794170015" lon="9.914570429301973"><ele>81.33333333333333</ele><time>2026-04-03T13:16:59.001Z</time></trkpt><trkpt lat="44.08586563308702" lon="9.91454421269534"><ele>81.16666666666667</ele><time>2026-04-03T13:17:02.001Z</time></trkpt><trkpt lat="44.08592978555674" lon="9.914495755479747"><ele>81.0</ele><time>2026-04-03T13:17:05.001Z</time></trkpt><trkpt lat="44.085995529542124" lon="9.914414402708552"><ele>81.14285714285714</ele><time>2026-04-03T13:17:08.001Z</time></trkpt><trkpt lat="44.08606013365765" lon="9.914321086977964"><ele>81.28571428571428</ele><time>2026-04-03T13:17:11.001Z</time></trkpt><trkpt lat="44.08610202397717" lon="9.914205754916722"><ele>81.42857142857142</ele><time>2026-04-03T13:17:14.001Z</time></trkpt><trkpt lat="44.08611498856999" lon="9.914118214431547"><ele>81.57142857142857</ele><time>2026-04-03T13:17:16.001Z</time></trkpt><trkpt lat="44.086121550747144" lon="9.914029853615101"><ele>81.71428571428571</ele><time>2026-04-03T13:17:18.001Z</time></trkpt><trkpt lat="44.08612115174803" lon="9.913940163680296"><ele>81.85714285714285</ele><time>2026-04-03T13:17:20.001Z</time></trkpt><trkpt lat="44.08610327201886" lon="9.913849680844745"><ele>82.0</ele><time>2026-04-03T13:17:22.001Z</time></trkpt><trkpt lat="44.08607749323297" lon="9.913758827667653"><ele>81.99999999999999</ele><time>2026-04-03T13:17:24.001Z</time></trkpt><trkpt lat="44.08605530656601" lon="9.913675491133851"><ele>82.0</ele><time>2026-04-03T13:17:26.001Z</time></trkpt><trkpt lat="44.08604174080309" lon="9.913584048429824"><ele>82.0</ele><time>2026-04-03T13:17:28.001Z</time></trkpt><trkpt lat="44.08602941080591" lon="9.913495087959678"><ele>82.0</ele><time>2026-04-03T13:17:30.001Z</time></trkpt><trkpt lat="44.08602465966662" lon="9.913401336845563"><ele>82.0</ele><time>2026-04-03T13:17:32.001Z</time></trkpt><trkpt lat="44.08603518776495" lon="9.913310575485335"><ele>81.99999999999999</ele><time>2026-04-03T13:17:34.001Z</time></trkpt><trkpt lat="44.08604883744058" lon="9.913221315672178"><ele>82.0</ele><time>2026-04-03T13:17:36.001Z</time></trkpt><trkpt lat="44.08607308130396" lon="9.913134598681454"><ele>83.14285714285714</ele><time>2026-04-03T13:17:38.001Z</time></trkpt><trkpt lat="44.08609524885572" lon="9.913052329332274"><ele>84.28571428571428</ele><time>2026-04-03T13:17:40.001Z</time></trkpt><trkpt lat="44.086119853439314" lon="9.912965757542679"><ele>85.42857142857142</ele><time>2026-04-03T13:17:42.001Z</time></trkpt><trkpt lat="44.08614718572877" lon="9.912880887283748"><ele>86.57142857142857</ele><time>2026-04-03T13:17:44.001Z</time></trkpt><trkpt lat="44.08617425658215" lon="9.912800766282924"><ele>87.71428571428572</ele><time>2026-04-03T13:17:46.001Z</time></trkpt><trkpt lat="44.08619009008088" lon="9.912713783096823"><ele>88.85714285714285</ele><time>2026-04-03T13:17:48.001Z</time></trkpt><trkpt lat="44.086193234442746" lon="9.912618948811604"><ele>90.0</ele><time>2026-04-03T13:17:50.001Z</time></trkpt><trkpt lat="44.08618946891195" lon="9.912528822888497"><ele>91.14285714285714</ele><time>2026-04-03T13:17:52.001Z</time></trkpt><trkpt lat="44.08618744415217" lon="9.912433288946508"><ele>92.28571428571429</ele><time>2026-04-03T13:17:54.001Z</time></trkpt><trkpt lat="44.08618860094862" lon="9.912337450665314"><ele>93.42857142857143</ele><time>2026-04-03T13:17:56.001Z</time></trkpt><trkpt lat="44.08618141634461" lon="9.91224639505435"><ele>94.57142857142857</ele><time>2026-04-03T13:17:58.001Z</time></trkpt><trkpt lat="44.0861773166666" lon="9.91215206366871"><ele>95.71428571428572</ele><time>2026-04-03T13:18:00.001Z</time></trkpt><trkpt lat="44.086183344667816" lon="9.912056590228818"><ele>96.85714285714286</ele><time>2026-04-03T13:18:02.001Z</time></trkpt><trkpt lat="44.086195318359486" lon="9.911963340697955"><ele>98.0</ele><time>2026-04-03T13:18:04.001Z</time></trkpt><trkpt lat="44.08620726822705" lon="9.911874226475419"><ele>97.99999999999999</ele><time>2026-04-03T13:18:06.001Z</time></trkpt><trkpt lat="44.08622591721057" lon="9.9117878713068"><ele>98.0</ele><time>2026-04-03T13:18:08.001Z</time></trkpt><trkpt lat="44.086238299327" lon="9.911676589861521"><ele>98.0</ele><time>2026-04-03T13:18:11.001Z</time></trkpt><trkpt lat="44.086269090418305" lon="9.911572155686878"><ele>98.0</ele><time>2026-04-03T13:18:14.001Z</time></trkpt><trkpt lat="44.08628630351531" lon="9.911457044213373"><ele>97.99999999999999</ele><time>2026-04-03T13:18:17.001Z</time></trkpt><trkpt lat="44.086299416468144" lon="9.911353327513739"><ele>98.0</ele><time>2026-04-03T13:18:20.001Z</time></trkpt><trkpt lat="44.08630619332842" lon="9.911257943906897"><ele>98.2</ele><time>2026-04-03T13:18:23.001Z</time></trkpt><trkpt lat="44.08630029978603" lon="9.911169617399318"><ele>98.4</ele><time>2026-04-03T13:18:26.001Z</time></trkpt><trkpt lat="44.0862785449962" lon="9.911322469740233"><ele>98.60000000000001</ele><time>2026-04-03T13:19:34.001Z</time></trkpt><trkpt lat="44.0862723559019" lon="9.911410219755961"><ele>98.80000000000001</ele><time>2026-04-03T13:19:35.001Z</time></trkpt><trkpt lat="44.08624309401861" lon="9.911555817986297"><ele>99.0</ele><time>2026-04-03T13:19:37.001Z</time></trkpt><trkpt lat="44.08620578806849" lon="9.911714169087459"><ele>98.83333333333333</ele><time>2026-04-03T13:19:39.001Z</time></trkpt><trkpt lat="44.08619123014696" lon="9.911823375065596"><ele>98.66666666666666</ele><time>2026-04-03T13:19:40.001Z</time></trkpt><trkpt lat="44.08617755234747" lon="9.911937309552812"><ele>98.5</ele><time>2026-04-03T13:19:41.001Z</time></trkpt><trkpt lat="44.08616846761416" lon="9.912049954044962"><ele>98.33333333333333</ele><time>2026-04-03T13:19:42.001Z</time></trkpt><trkpt lat="44.08616790682616" lon="9.91215952757135"><ele>98.16666666666666</ele><time>2026-04-03T13:19:43.001Z</time></trkpt><trkpt lat="44.08617281132533" lon="9.912273982246772"><ele>98.0</ele><time>2026-04-03T13:19:44.001Z</time></trkpt><trkpt lat="44.08615900631338" lon="9.912383870297864"><ele>97.99999999999999</ele><time>2026-04-03T13:19:45.001Z</time></trkpt><trkpt lat="44.08616138759413" lon="9.912498266640512"><ele>98.0</ele><time>2026-04-03T13:19:46.001Z</time></trkpt><trkpt lat="44.08617799854218" lon="9.912612156727619"><ele>98.0</ele><time>2026-04-03T13:19:47.001Z</time></trkpt><trkpt lat="44.086174035442504" lon="9.912730225410442"><ele>98.0</ele><time>2026-04-03T13:19:48.001Z</time></trkpt><trkpt lat="44.0861332519334" lon="9.912837427910667"><ele>97.99999999999999</ele><time>2026-04-03T13:19:49.001Z</time></trkpt><trkpt lat="44.08609099404124" lon="9.912935626272775"><ele>98.0</ele><time>2026-04-03T13:19:50.001Z</time></trkpt><trkpt lat="44.08605275531861" lon="9.913038426020064"><ele>96.66666666666666</ele><time>2026-04-03T13:19:51.001Z</time></trkpt><trkpt lat="44.08601966152302" lon="9.913147578623425"><ele>95.33333333333333</ele><time>2026-04-03T13:19:52.001Z</time></trkpt><trkpt lat="44.08599716289731" lon="9.913267042949125"><ele>94.0</ele><time>2026-04-03T13:19:53.001Z</time></trkpt><trkpt lat="44.08598864135135" lon="9.913391973069842"><ele>92.66666666666666</ele><time>2026-04-03T13:19:54.001Z</time></trkpt><trkpt lat="44.08599664340723" lon="9.913520309157384"><ele>91.33333333333333</ele><time>2026-04-03T13:19:55.001Z</time></trkpt><trkpt lat="44.08603238095731" lon="9.913639879624823"><ele>90.0</ele><time>2026-04-03T13:19:56.001Z</time></trkpt><trkpt lat="44.08605676379224" lon="9.913743470193683"><ele>88.4</ele><time>2026-04-03T13:19:57.001Z</time></trkpt><trkpt lat="44.08607308725689" lon="9.913852454665639"><ele>86.8</ele><time>2026-04-03T13:19:58.001Z</time></trkpt><trkpt lat="44.08609120382821" lon="9.913939012198936"><ele>85.19999999999999</ele><time>2026-04-03T13:19:59.001Z</time></trkpt><trkpt lat="44.08608557377493" lon="9.914088155117591"><ele>83.6</ele><time>2026-04-03T13:20:01.001Z</time></trkpt><trkpt lat="44.08605576702049" lon="9.914227913677216"><ele>82.0</ele><time>2026-04-03T13:20:03.001Z</time></trkpt><trkpt lat="44.0860003510422" lon="9.914362013730791"><ele>81.8</ele><time>2026-04-03T13:20:05.001Z</time></trkpt><trkpt lat="44.08594285921637" lon="9.914399830568739"><ele>81.6</ele><time>2026-04-03T13:20:06.001Z</time></trkpt><trkpt lat="44.085846928662825" lon="9.91446445481209"><ele>81.39999999999999</ele><time>2026-04-03T13:20:08.001Z</time></trkpt><trkpt lat="44.08574490383517" lon="9.914513317209144"><ele>81.19999999999999</ele><time>2026-04-03T13:20:10.001Z</time></trkpt><trkpt lat="44.08563247179654" lon="9.914528983062121"><ele>81.0</ele><time>2026-04-03T13:20:12.001Z</time></trkpt><trkpt lat="44.0855713936619" lon="9.91457784375207"><ele>81.0</ele><time>2026-04-03T13:20:13.001Z</time></trkpt><trkpt lat="44.085550679265836" lon="9.914669080207183"><ele>81.0</ele><time>2026-04-03T13:20:14.001Z</time></trkpt><trkpt lat="44.0856386955291" lon="9.914747086915044"><ele>81.0</ele><time>2026-04-03T13:20:16.001Z</time></trkpt><trkpt lat="44.08574882076854" lon="9.914678705841398"><ele>81.0</ele><time>2026-04-03T13:20:18.001Z</time></trkpt><trkpt lat="44.08582101531449" lon="9.914684878023099"><ele>81.0</ele><time>2026-04-03T13:20:19.001Z</time></trkpt><trkpt lat="44.085890883167814" lon="9.914690500513325"><ele>81.0</ele><time>2026-04-03T13:20:20.001Z</time></trkpt><trkpt lat="44.08596474097379" lon="9.914669869933572"><ele>80.0</ele><time>2026-04-03T13:20:21.001Z</time></trkpt><trkpt lat="44.086037611587265" lon="9.914624359388805"><ele>79.0</ele><time>2026-04-03T13:20:22.001Z</time></trkpt><trkpt lat="44.08611131408116" lon="9.914575211600638"><ele>78.0</ele><time>2026-04-03T13:20:23.001Z</time></trkpt><trkpt lat="44.08618737048665" lon="9.91452536231817"><ele>77.0</ele><time>2026-04-03T13:20:24.001Z</time></trkpt><trkpt lat="44.086266827409155" lon="9.914475488261175"><ele>76.0</ele><time>2026-04-03T13:20:25.001Z</time></trkpt><trkpt lat="44.08634655664888" lon="9.91442208713964"><ele>75.0</ele><time>2026-04-03T13:20:26.001Z</time></trkpt><trkpt lat="44.086426277258234" lon="9.914362325416633"><ele>75.0</ele><time>2026-04-03T13:20:27.001Z</time></trkpt><trkpt lat="44.08650126240145" lon="9.914299324583139"><ele>75.0</ele><time>2026-04-03T13:20:28.001Z</time></trkpt><trkpt lat="44.086569839138754" lon="9.914240450786348"><ele>75.0</ele><time>2026-04-03T13:20:29.001Z</time></trkpt><trkpt lat="44.08665366329932" lon="9.914178734047544"><ele>75.0</ele><time>2026-04-03T13:20:31.001Z</time></trkpt><trkpt lat="44.08676103057479" lon="9.91415807467075"><ele>75.0</ele><time>2026-04-03T13:20:33.001Z</time></trkpt><trkpt lat="44.08688864501266" lon="9.9141847643161"><ele>73.66666666666667</ele><time>2026-04-03T13:20:35.001Z</time></trkpt><trkpt lat="44.08693998012338" lon="9.914238801430812"><ele>72.33333333333333</ele><time>2026-04-03T13:20:36.001Z</time></trkpt><trkpt lat="44.0870056778061" lon="9.914286411661262"><ele>71.0</ele><time>2026-04-03T13:20:37.001Z</time></trkpt><trkpt lat="44.08707927654578" lon="9.914335364451274"><ele>69.66666666666666</ele><time>2026-04-03T13:20:38.001Z</time></trkpt><trkpt lat="44.087155047532775" lon="9.914397847134122"><ele>68.33333333333333</ele><time>2026-04-03T13:20:39.001Z</time></trkpt><trkpt lat="44.08723284724872" lon="9.914465059447418"><ele>67.0</ele><time>2026-04-03T13:20:40.001Z</time></trkpt><trkpt lat="44.08730850704427" lon="9.914537490083934"><ele>67.0</ele><time>2026-04-03T13:20:41.001Z</time></trkpt><trkpt lat="44.08738116036148" lon="9.914609358430358"><ele>67.0</ele><time>2026-04-03T13:20:42.001Z</time></trkpt><trkpt lat="44.08745469877019" lon="9.914680504297074"><ele>67.0</ele><time>2026-04-03T13:20:43.001Z</time></trkpt><trkpt lat="44.087523844228855" lon="9.914755435263865"><ele>67.0</ele><time>2026-04-03T13:20:44.001Z</time></trkpt><trkpt lat="44.08759173623762" lon="9.91483091918148"><ele>67.0</ele><time>2026-04-03T13:20:45.001Z</time></trkpt><trkpt lat="44.087656987768696" lon="9.914906456542392"><ele>67.0</ele><time>2026-04-03T13:20:46.001Z</time></trkpt><trkpt lat="44.087719693586756" lon="9.914989036707444"><ele>67.33333333333333</ele><time>2026-04-03T13:20:47.001Z</time></trkpt><trkpt lat="44.08778481900956" lon="9.915068885442107"><ele>67.66666666666666</ele><time>2026-04-03T13:20:48.001Z</time></trkpt><trkpt lat="44.0878505860447" lon="9.91514685670361"><ele>68.0</ele><time>2026-04-03T13:20:49.001Z</time></trkpt><trkpt lat="44.087917753588016" lon="9.915227189236083"><ele>68.33333333333333</ele><time>2026-04-03T13:20:50.001Z</time></trkpt><trkpt lat="44.087979317422175" lon="9.915305208219019"><ele>68.66666666666667</ele><time>2026-04-03T13:20:51.001Z</time></trkpt><trkpt lat="44.088037527757166" lon="9.915385808385459"><ele>69.0</ele><time>2026-04-03T13:20:52.001Z</time></trkpt><trkpt lat="44.088099595916816" lon="9.915459361462593"><ele>69.0</ele><time>2026-04-03T13:20:53.001Z</time></trkpt><trkpt lat="44.08816137991965" lon="9.91553406930214"><ele>69.0</ele><time>2026-04-03T13:20:54.001Z</time></trkpt><trkpt lat="44.088224611549414" lon="9.915607084944071"><ele>69.0</ele><time>2026-04-03T13:20:55.001Z</time></trkpt><trkpt lat="44.088285469519136" lon="9.915681911683595"><ele>69.0</ele><time>2026-04-03T13:20:56.001Z</time></trkpt><trkpt lat="44.08834730036126" lon="9.915755223961456"><ele>69.0</ele><time>2026-04-03T13:20:57.001Z</time></trkpt><trkpt lat="44.08840904981409" lon="9.91582785603901"><ele>69.0</ele><time>2026-04-03T13:20:58.001Z</time></trkpt><trkpt lat="44.08847093736712" lon="9.915905794140846"><ele>69.2</ele><time>2026-04-03T13:20:59.001Z</time></trkpt><trkpt lat="44.088534924069954" lon="9.915987787894156"><ele>69.4</ele><time>2026-04-03T13:21:00.001Z</time></trkpt><trkpt lat="44.08859161603372" lon="9.916087968391953"><ele>69.6</ele><time>2026-04-03T13:21:01.001Z</time></trkpt><trkpt lat="44.08866112656137" lon="9.916175088236749"><ele>69.8</ele><time>2026-04-03T13:21:02.001Z</time></trkpt><trkpt lat="44.08872967736706" lon="9.916260930485063"><ele>70.0</ele><time>2026-04-03T13:21:03.001Z</time></trkpt><trkpt lat="44.08879693595828" lon="9.916344826429826"><ele>70.0</ele><time>2026-04-03T13:21:04.001Z</time></trkpt><trkpt lat="44.08887335628456" lon="9.916411749853848"><ele>70.0</ele><time>2026-04-03T13:21:05.001Z</time></trkpt><trkpt lat="44.08894293568945" lon="9.91649474268843"><ele>70.0</ele><time>2026-04-03T13:21:06.001Z</time></trkpt><trkpt lat="44.08901134872437" lon="9.916576964143673"><ele>70.0</ele><time>2026-04-03T13:21:07.001Z</time></trkpt><trkpt lat="44.0890806240657" lon="9.916656765947174"><ele>70.0</ele><time>2026-04-03T13:21:08.001Z</time></trkpt><trkpt lat="44.08913955159245" lon="9.91675490767593"><ele>67.6</ele><time>2026-04-03T13:21:09.001Z</time></trkpt><trkpt lat="44.089208329322375" lon="9.916836521387685"><ele>65.2</ele><time>2026-04-03T13:21:10.001Z</time></trkpt><trkpt lat="44.089278792990505" lon="9.91691719540546"><ele>62.8</ele><time>2026-04-03T13:21:11.001Z</time></trkpt><trkpt lat="44.089359943166386" lon="9.916979862245086"><ele>60.4</ele><time>2026-04-03T13:21:12.001Z</time></trkpt><trkpt lat="44.089435594953706" lon="9.917048247024956"><ele>58.0</ele><time>2026-04-03T13:21:13.001Z</time></trkpt><trkpt lat="44.08951901804934" lon="9.91709433944495"><ele>58.0</ele><time>2026-04-03T13:21:14.001Z</time></trkpt><trkpt lat="44.089611428085746" lon="9.917111844830266"><ele>58.0</ele><time>2026-04-03T13:21:15.001Z</time></trkpt><trkpt lat="44.08970171131493" lon="9.917120685083317"><ele>58.0</ele><time>2026-04-03T13:21:16.001Z</time></trkpt><trkpt lat="44.0897921844847" lon="9.917137415118317"><ele>58.0</ele><time>2026-04-03T13:21:17.001Z</time></trkpt><trkpt lat="44.08988130932701" lon="9.91716724383764"><ele>58.0</ele><time>2026-04-03T13:21:18.001Z</time></trkpt><trkpt lat="44.08996611328067" lon="9.917218528419243"><ele>57.599999999999994</ele><time>2026-04-03T13:21:19.001Z</time></trkpt><trkpt lat="44.09004680372977" lon="9.917279831046425"><ele>57.199999999999996</ele><time>2026-04-03T13:21:20.001Z</time></trkpt><trkpt lat="44.090121113661866" lon="9.91735063974085"><ele>56.8</ele><time>2026-04-03T13:21:21.001Z</time></trkpt><trkpt lat="44.09018878502729" lon="9.917432642101204"><ele>56.4</ele><time>2026-04-03T13:21:22.001Z</time></trkpt><trkpt lat="44.09025899807975" lon="9.917511407184588"><ele>56.0</ele><time>2026-04-03T13:21:23.001Z</time></trkpt><trkpt lat="44.09032509469629" lon="9.917596123623706"><ele>58.199999999999996</ele><time>2026-04-03T13:21:24.001Z</time></trkpt><trkpt lat="44.09039052221376" lon="9.917683103047656"><ele>60.39999999999999</ele><time>2026-04-03T13:21:25.001Z</time></trkpt><trkpt lat="44.09046366351215" lon="9.917758202137975"><ele>62.6</ele><time>2026-04-03T13:21:26.001Z</time></trkpt><trkpt lat="44.09054865740161" lon="9.917806039992154"><ele>64.8</ele><time>2026-04-03T13:21:27.001Z</time></trkpt><trkpt lat="44.09063643740678" lon="9.917841142112417"><ele>67.0</ele><time>2026-04-03T13:21:28.001Z</time></trkpt><trkpt lat="44.09073154193315" lon="9.91784304893219"><ele>65.8</ele><time>2026-04-03T13:21:29.001Z</time></trkpt><trkpt lat="44.09082834875262" lon="9.917826586975249"><ele>64.6</ele><time>2026-04-03T13:21:30.001Z</time></trkpt><trkpt lat="44.09092897629789" lon="9.917808451136839"><ele>63.39999999999999</ele><time>2026-04-03T13:21:31.001Z</time></trkpt><trkpt lat="44.09103480343546" lon="9.917792631943211"><ele>62.199999999999996</ele><time>2026-04-03T13:21:32.001Z</time></trkpt><trkpt lat="44.0911451431818" lon="9.917803929074495"><ele>61.0</ele><time>2026-04-03T13:21:33.001Z</time></trkpt><trkpt lat="44.09125004110177" lon="9.91786989065516"><ele>61.0</ele><time>2026-04-03T13:21:34.001Z</time></trkpt><trkpt lat="44.091344246391834" lon="9.91797869233803"><ele>61.0</ele><time>2026-04-03T13:21:35.001Z</time></trkpt><trkpt lat="44.09143835445018" lon="9.91809511876028"><ele>61.0</ele><time>2026-04-03T13:21:36.001Z</time></trkpt><trkpt lat="44.09152560124297" lon="9.918212844926053"><ele>61.0</ele><time>2026-04-03T13:21:37.001Z</time></trkpt><trkpt lat="44.091611793544985" lon="9.918329097902518"><ele>61.75</ele><time>2026-04-03T13:21:38.001Z</time></trkpt><trkpt lat="44.0916925488125" lon="9.918447220319875"><ele>62.5</ele><time>2026-04-03T13:21:39.001Z</time></trkpt><trkpt lat="44.0917647064025" lon="9.918571032056208"><ele>63.25</ele><time>2026-04-03T13:21:40.001Z</time></trkpt><trkpt lat="44.09184315091488" lon="9.918682232395257"><ele>64.0</ele><time>2026-04-03T13:21:41.001Z</time></trkpt><trkpt lat="44.09193771192209" lon="9.918755367896411"><ele>64.0</ele><time>2026-04-03T13:21:42.001Z</time></trkpt><trkpt lat="44.09203729764154" lon="9.918805955914022"><ele>64.0</ele><time>2026-04-03T13:21:43.001Z</time></trkpt><trkpt lat="44.092138655890885" lon="9.91883854050508"><ele>64.0</ele><time>2026-04-03T13:21:44.001Z</time></trkpt><trkpt lat="44.09223996053012" lon="9.918833863593257"><ele>64.0</ele><time>2026-04-03T13:21:45.001Z</time></trkpt><trkpt lat="44.092338739737784" lon="9.918828269863623"><ele>64.0</ele><time>2026-04-03T13:21:46.001Z</time></trkpt><trkpt lat="44.09243667149656" lon="9.918829777324035"><ele>60.0</ele><time>2026-04-03T13:21:47.001Z</time></trkpt><trkpt lat="44.0925310101533" lon="9.918836641175169"><ele>56.00000000000001</ele><time>2026-04-03T13:21:48.001Z</time></trkpt><trkpt lat="44.092619592979865" lon="9.918885303996666"><ele>52.0</ele><time>2026-04-03T13:21:49.001Z</time></trkpt><trkpt lat="44.09268743517252" lon="9.918974573566798"><ele>48.0</ele><time>2026-04-03T13:21:50.001Z</time></trkpt><trkpt lat="44.09272840606343" lon="9.919097483061398"><ele>44.0</ele><time>2026-04-03T13:21:51.001Z</time></trkpt><trkpt lat="44.09276299206877" lon="9.919229849184166"><ele>46.6</ele><time>2026-04-03T13:21:52.001Z</time></trkpt><trkpt lat="44.09282693023647" lon="9.919341766919937"><ele>49.2</ele><time>2026-04-03T13:21:53.001Z</time></trkpt><trkpt lat="44.09291837590361" lon="9.919416412050648"><ele>51.800000000000004</ele><time>2026-04-03T13:21:54.001Z</time></trkpt><trkpt lat="44.093025456516806" lon="9.919449851182764"><ele>54.400000000000006</ele><time>2026-04-03T13:21:55.001Z</time></trkpt><trkpt lat="44.09314008567087" lon="9.919463835048635"><ele>57.0</ele><time>2026-04-03T13:21:56.001Z</time></trkpt><trkpt lat="44.09324711018238" lon="9.919508582569495"><ele>53.8</ele><time>2026-04-03T13:21:57.001Z</time></trkpt><trkpt lat="44.093350396095495" lon="9.91957170489818"><ele>50.6</ele><time>2026-04-03T13:21:58.001Z</time></trkpt><trkpt lat="44.093449243890696" lon="9.91963952842917"><ele>47.4</ele><time>2026-04-03T13:21:59.001Z</time></trkpt><trkpt lat="44.093545449465886" lon="9.919700430862422"><ele>44.199999999999996</ele><time>2026-04-03T13:22:00.001Z</time></trkpt><trkpt lat="44.09364151063029" lon="9.919760032586522"><ele>41.0</ele><time>2026-04-03T13:22:01.001Z</time></trkpt><trkpt lat="44.093733506913104" lon="9.91982142949894"><ele>41.0</ele><time>2026-04-03T13:22:02.001Z</time></trkpt><trkpt lat="44.093824837398" lon="9.919881580154874"><ele>41.0</ele><time>2026-04-03T13:22:03.001Z</time></trkpt><trkpt lat="44.093916030938225" lon="9.919939927042366"><ele>41.0</ele><time>2026-04-03T13:22:04.001Z</time></trkpt><trkpt lat="44.0940041139456" lon="9.91999844238892"><ele>41.0</ele><time>2026-04-03T13:22:05.001Z</time></trkpt><trkpt lat="44.09408972006574" lon="9.92005808788018"><ele>41.0</ele><time>2026-04-03T13:22:06.001Z</time></trkpt><trkpt lat="44.094167528594426" lon="9.920125674833084"><ele>39.4</ele><time>2026-04-03T13:22:07.001Z</time></trkpt><trkpt lat="44.094230055318384" lon="9.920216934539825"><ele>37.8</ele><time>2026-04-03T13:22:08.001Z</time></trkpt><trkpt lat="44.0942746672272" lon="9.920325385105432"><ele>36.199999999999996</ele><time>2026-04-03T13:22:09.001Z</time></trkpt><trkpt lat="44.09430927995792" lon="9.920442811470974"><ele>34.599999999999994</ele><time>2026-04-03T13:22:10.001Z</time></trkpt><trkpt lat="44.0943428391493" lon="9.920562538052746"><ele>33.0</ele><time>2026-04-03T13:22:11.001Z</time></trkpt><trkpt lat="44.09439169429814" lon="9.920676712658274"><ele>33.0</ele><time>2026-04-03T13:22:12.001Z</time></trkpt><trkpt lat="44.094447958532406" lon="9.92078624609868"><ele>33.0</ele><time>2026-04-03T13:22:13.001Z</time></trkpt><trkpt lat="44.094507511417845" lon="9.920895182251591"><ele>33.0</ele><time>2026-04-03T13:22:14.001Z</time></trkpt><trkpt lat="44.094570980433495" lon="9.921001205202383"><ele>33.0</ele><time>2026-04-03T13:22:15.001Z</time></trkpt><trkpt lat="44.094636754227544" lon="9.92110581037102"><ele>33.0</ele><time>2026-04-03T13:22:16.001Z</time></trkpt><trkpt lat="44.094702331062194" lon="9.921206685404613"><ele>32.8</ele><time>2026-04-03T13:22:17.001Z</time></trkpt><trkpt lat="44.09476984694178" lon="9.921305487641861"><ele>32.599999999999994</ele><time>2026-04-03T13:22:18.001Z</time></trkpt><trkpt lat="44.09483755946459" lon="9.921402693869647"><ele>32.400000000000006</ele><time>2026-04-03T13:22:19.001Z</time></trkpt><trkpt lat="44.09489686972725" lon="9.921509459328867"><ele>32.2</ele><time>2026-04-03T13:22:20.001Z</time></trkpt><trkpt lat="44.09495278431396" lon="9.921616526441955"><ele>32.0</ele><time>2026-04-03T13:22:21.001Z</time></trkpt><trkpt lat="44.09501377085081" lon="9.92171465388513"><ele>30.833333333333332</ele><time>2026-04-03T13:22:22.001Z</time></trkpt><trkpt lat="44.09507329435044" lon="9.921812510234178"><ele>29.666666666666664</ele><time>2026-04-03T13:22:23.001Z</time></trkpt><trkpt lat="44.095129449138035" lon="9.921906656040694"><ele>28.5</ele><time>2026-04-03T13:22:24.001Z</time></trkpt><trkpt lat="44.095180223219124" lon="9.92200408048434"><ele>27.333333333333336</ele><time>2026-04-03T13:22:25.001Z</time></trkpt><trkpt lat="44.09523436088883" lon="9.922097441420352"><ele>26.166666666666668</ele><time>2026-04-03T13:22:26.001Z</time></trkpt><trkpt lat="44.09529463198678" lon="9.922185274040054"><ele>25.0</ele><time>2026-04-03T13:22:27.001Z</time></trkpt><trkpt lat="44.095356082505354" lon="9.922258653715277"><ele>25.0</ele><time>2026-04-03T13:22:28.001Z</time></trkpt><trkpt lat="44.09542478022473" lon="9.922332226303197"><ele>25.0</ele><time>2026-04-03T13:22:29.001Z</time></trkpt><trkpt lat="44.09549845953039" lon="9.922407530524158"><ele>25.0</ele><time>2026-04-03T13:22:30.001Z</time></trkpt><trkpt lat="44.09557327650169" lon="9.922479214433872"><ele>25.0</ele><time>2026-04-03T13:22:31.001Z</time></trkpt><trkpt lat="44.09563716504404" lon="9.922568832469008"><ele>25.0</ele><time>2026-04-03T13:22:32.001Z</time></trkpt><trkpt lat="44.09571919839831" lon="9.922629344105916"><ele>24.4</ele><time>2026-04-03T13:22:33.001Z</time></trkpt><trkpt lat="44.0957921644287" lon="9.922711634576228"><ele>23.8</ele><time>2026-04-03T13:22:34.001Z</time></trkpt><trkpt lat="44.0958732388354" lon="9.922790943732565"><ele>23.200000000000003</ele><time>2026-04-03T13:22:35.001Z</time></trkpt><trkpt lat="44.09595016212617" lon="9.92286845077447"><ele>22.6</ele><time>2026-04-03T13:22:36.001Z</time></trkpt><trkpt lat="44.09602356720738" lon="9.922945260086115"><ele>22.0</ele><time>2026-04-03T13:22:37.001Z</time></trkpt><trkpt lat="44.096097275843775" lon="9.923019015383863"><ele>22.0</ele><time>2026-04-03T13:22:38.001Z</time></trkpt><trkpt lat="44.096166980601474" lon="9.923094931126387"><ele>22.0</ele><time>2026-04-03T13:22:39.001Z</time></trkpt><trkpt lat="44.09623514840946" lon="9.923171606299332"><ele>22.0</ele><time>2026-04-03T13:22:40.001Z</time></trkpt><trkpt lat="44.09630347790476" lon="9.923245785201356"><ele>22.0</ele><time>2026-04-03T13:22:41.001Z</time></trkpt><trkpt lat="44.09637169848191" lon="9.923317213816281"><ele>22.0</ele><time>2026-04-03T13:22:42.001Z</time></trkpt><trkpt lat="44.09643861857818" lon="9.923387742877757"><ele>22.0</ele><time>2026-04-03T13:22:43.001Z</time></trkpt><trkpt lat="44.09649934795478" lon="9.923467487116394"><ele>21.666666666666664</ele><time>2026-04-03T13:22:44.001Z</time></trkpt><trkpt lat="44.09655435543474" lon="9.923555866282106"><ele>21.333333333333332</ele><time>2026-04-03T13:22:45.001Z</time></trkpt><trkpt lat="44.096609743332436" lon="9.923650452359846"><ele>21.0</ele><time>2026-04-03T13:22:46.001Z</time></trkpt><trkpt lat="44.096666037514865" lon="9.923746854033944"><ele>20.666666666666668</ele><time>2026-04-03T13:22:47.001Z</time></trkpt><trkpt lat="44.09672336559301" lon="9.923842145827289"><ele>20.333333333333336</ele><time>2026-04-03T13:22:48.001Z</time></trkpt><trkpt lat="44.096779134575286" lon="9.923939056260338"><ele>20.0</ele><time>2026-04-03T13:22:49.001Z</time></trkpt><trkpt lat="44.0968294762636" lon="9.924042364429617"><ele>20.0</ele><time>2026-04-03T13:22:50.001Z</time></trkpt><trkpt lat="44.09687078798468" lon="9.92415550141337"><ele>20.0</ele><time>2026-04-03T13:22:51.001Z</time></trkpt><trkpt lat="44.0969093101887" lon="9.924266427676733"><ele>20.0</ele><time>2026-04-03T13:22:52.001Z</time></trkpt><trkpt lat="44.09694666207271" lon="9.924369518657407"><ele>20.0</ele><time>2026-04-03T13:22:53.001Z</time></trkpt><trkpt lat="44.096992743196736" lon="9.924479319725556"><ele>20.0</ele><time>2026-04-03T13:22:54.001Z</time></trkpt><trkpt lat="44.09703186635436" lon="9.924586275455065"><ele>20.0</ele><time>2026-04-03T13:22:55.001Z</time></trkpt><trkpt lat="44.09707273953925" lon="9.92469505447245"><ele>21.2</ele><time>2026-04-03T13:22:56.001Z</time></trkpt><trkpt lat="44.097114722944156" lon="9.924804513812708"><ele>22.4</ele><time>2026-04-03T13:22:57.001Z</time></trkpt><trkpt lat="44.097156620313996" lon="9.924917364650756"><ele>23.6</ele><time>2026-04-03T13:22:58.001Z</time></trkpt><trkpt lat="44.09720031438353" lon="9.925034239823823"><ele>24.8</ele><time>2026-04-03T13:22:59.001Z</time></trkpt><trkpt lat="44.097244425473825" lon="9.925150886555796"><ele>26.0</ele><time>2026-04-03T13:23:00.001Z</time></trkpt><trkpt lat="44.09729564693768" lon="9.92526133804639"><ele>24.833333333333332</ele><time>2026-04-03T13:23:01.001Z</time></trkpt><trkpt lat="44.097358646631996" lon="9.925353288511648"><ele>23.666666666666664</ele><time>2026-04-03T13:23:02.001Z</time></trkpt><trkpt lat="44.09742331675564" lon="9.925437866803122"><ele>22.5</ele><time>2026-04-03T13:23:03.001Z</time></trkpt><trkpt lat="44.09748641808651" lon="9.925524925122682"><ele>21.333333333333332</ele><time>2026-04-03T13:23:04.001Z</time></trkpt><trkpt lat="44.097542466202626" lon="9.925616454048063"><ele>20.166666666666664</ele><time>2026-04-03T13:23:05.001Z</time></trkpt><trkpt lat="44.097599580323646" lon="9.925708172441666"><ele>19.0</ele><time>2026-04-03T13:23:06.001Z</time></trkpt><trkpt lat="44.097653992882385" lon="9.925804109976529"><ele>19.0</ele><time>2026-04-03T13:23:07.001Z</time></trkpt><trkpt lat="44.09770137459731" lon="9.925907835722251"><ele>19.0</ele><time>2026-04-03T13:23:08.001Z</time></trkpt><trkpt lat="44.09775062444582" lon="9.926007163405973"><ele>19.0</ele><time>2026-04-03T13:23:09.001Z</time></trkpt><trkpt lat="44.09780413309724" lon="9.926105430513115"><ele>19.0</ele><time>2026-04-03T13:23:10.001Z</time></trkpt><trkpt lat="44.09785944404694" lon="9.926203760479106"><ele>19.0</ele><time>2026-04-03T13:23:11.001Z</time></trkpt><trkpt lat="44.09791868270296" lon="9.926301640860563"><ele>19.0</ele><time>2026-04-03T13:23:12.001Z</time></trkpt><trkpt lat="44.09797988231806" lon="9.926396109749072"><ele>19.0</ele><time>2026-04-03T13:23:13.001Z</time></trkpt><trkpt lat="44.09804663719106" lon="9.926486734293377"><ele>19.0</ele><time>2026-04-03T13:23:14.001Z</time></trkpt><trkpt lat="44.09810999525219" lon="9.926578706112451"><ele>19.0</ele><time>2026-04-03T13:23:15.001Z</time></trkpt><trkpt lat="44.098161874739034" lon="9.92667895274122"><ele>19.0</ele><time>2026-04-03T13:23:16.001Z</time></trkpt><trkpt lat="44.098209552447074" lon="9.9267839834494"><ele>19.0</ele><time>2026-04-03T13:23:17.001Z</time></trkpt><trkpt lat="44.098250048931305" lon="9.926888485950853"><ele>19.0</ele><time>2026-04-03T13:23:18.001Z</time></trkpt><trkpt lat="44.09828894884477" lon="9.926994092070455"><ele>18.5</ele><time>2026-04-03T13:23:19.001Z</time></trkpt><trkpt lat="44.09832622874937" lon="9.927098366815848"><ele>18.0</ele><time>2026-04-03T13:23:20.001Z</time></trkpt><trkpt lat="44.0983608111337" lon="9.927208396625547"><ele>17.5</ele><time>2026-04-03T13:23:21.001Z</time></trkpt><trkpt lat="44.09836744827153" lon="9.927330961197676"><ele>17.0</ele><time>2026-04-03T13:23:22.001Z</time></trkpt><trkpt lat="44.09837280376058" lon="9.927451777931239"><ele>16.5</ele><time>2026-04-03T13:23:23.001Z</time></trkpt><trkpt lat="44.09838959595528" lon="9.92757125834416"><ele>16.0</ele><time>2026-04-03T13:23:24.001Z</time></trkpt><trkpt lat="44.098391084495184" lon="9.927696609854202"><ele>15.8</ele><time>2026-04-03T13:23:25.001Z</time></trkpt><trkpt lat="44.098391625007615" lon="9.927823978110204"><ele>15.600000000000001</ele><time>2026-04-03T13:23:26.001Z</time></trkpt><trkpt lat="44.098387986464324" lon="9.927951225471855"><ele>15.4</ele><time>2026-04-03T13:23:27.001Z</time></trkpt><trkpt lat="44.09838229106903" lon="9.928079525003135"><ele>15.2</ele><time>2026-04-03T13:23:28.001Z</time></trkpt><trkpt lat="44.098375743021506" lon="9.9282084992861"><ele>15.0</ele><time>2026-04-03T13:23:29.001Z</time></trkpt><trkpt lat="44.098367673034076" lon="9.928330170713835"><ele>14.666666666666666</ele><time>2026-04-03T13:23:30.001Z</time></trkpt><trkpt lat="44.09835794026692" lon="9.928453560140012"><ele>14.333333333333332</ele><time>2026-04-03T13:23:31.001Z</time></trkpt><trkpt lat="44.0983507744843" lon="9.9285690349282"><ele>14.0</ele><time>2026-04-03T13:23:32.001Z</time></trkpt><trkpt lat="44.09834333337879" lon="9.928679058678545"><ele>13.666666666666666</ele><time>2026-04-03T13:23:33.001Z</time></trkpt><trkpt lat="44.098335390347074" lon="9.928790767171291"><ele>13.333333333333332</ele><time>2026-04-03T13:23:34.001Z</time></trkpt><trkpt lat="44.098328077287604" lon="9.928904462493808"><ele>13.0</ele><time>2026-04-03T13:23:35.001Z</time></trkpt><trkpt lat="44.09832383516849" lon="9.929015905322467"><ele>12.999999999999998</ele><time>2026-04-03T13:23:36.001Z</time></trkpt><trkpt lat="44.09831843894211" lon="9.929128644684182"><ele>13.0</ele><time>2026-04-03T13:23:37.001Z</time></trkpt><trkpt lat="44.09831266575482" lon="9.929241677913987"><ele>13.0</ele><time>2026-04-03T13:23:38.001Z</time></trkpt><trkpt lat="44.09830537057912" lon="9.92935500825263"><ele>13.0</ele><time>2026-04-03T13:23:39.001Z</time></trkpt><trkpt lat="44.09829485480226" lon="9.929469797941053"><ele>12.999999999999998</ele><time>2026-04-03T13:23:40.001Z</time></trkpt><trkpt lat="44.09828812068468" lon="9.929586402974328"><ele>13.0</ele><time>2026-04-03T13:23:41.001Z</time></trkpt><trkpt lat="44.09829046030458" lon="9.929704355069967"><ele>12.666666666666666</ele><time>2026-04-03T13:23:42.001Z</time></trkpt><trkpt lat="44.09829244931714" lon="9.92982227844395"><ele>12.333333333333332</ele><time>2026-04-03T13:23:43.001Z</time></trkpt><trkpt lat="44.09829537423491" lon="9.92993708536794"><ele>12.0</ele><time>2026-04-03T13:23:44.001Z</time></trkpt><trkpt lat="44.09829973942761" lon="9.930046571278137"><ele>11.666666666666666</ele><time>2026-04-03T13:23:45.001Z</time></trkpt><trkpt lat="44.09830324661053" lon="9.93015417490606"><ele>11.333333333333332</ele><time>2026-04-03T13:23:46.001Z</time></trkpt><trkpt lat="44.09830804927726" lon="9.930268502655602"><ele>11.0</ele><time>2026-04-03T13:23:47.001Z</time></trkpt><trkpt lat="44.09831255997376" lon="9.930381582178597"><ele>11.0</ele><time>2026-04-03T13:23:48.001Z</time></trkpt><trkpt lat="44.098321838704216" lon="9.93049536619266"><ele>11.0</ele><time>2026-04-03T13:23:49.001Z</time></trkpt><trkpt lat="44.09833524311763" lon="9.930608753806656"><ele>11.0</ele><time>2026-04-03T13:23:50.001Z</time></trkpt><trkpt lat="44.09835268669859" lon="9.930724472338856"><ele>11.0</ele><time>2026-04-03T13:23:51.001Z</time></trkpt><trkpt lat="44.09836815642167" lon="9.93084171369389"><ele>11.0</ele><time>2026-04-03T13:23:52.001Z</time></trkpt><trkpt lat="44.09838218946439" lon="9.930961417252053"><ele>11.0</ele><time>2026-04-03T13:23:53.001Z</time></trkpt><trkpt lat="44.098398516668254" lon="9.931083611866525"><ele>10.833333333333332</ele><time>2026-04-03T13:23:54.001Z</time></trkpt><trkpt lat="44.0984122401876" lon="9.931202945326028"><ele>10.666666666666666</ele><time>2026-04-03T13:23:55.001Z</time></trkpt><trkpt lat="44.09842702041028" lon="9.931320295742047"><ele>10.5</ele><time>2026-04-03T13:23:56.001Z</time></trkpt><trkpt lat="44.098439400660396" lon="9.931433546059335"><ele>10.333333333333334</ele><time>2026-04-03T13:23:57.001Z</time></trkpt><trkpt lat="44.09845086696688" lon="9.931543672303036"><ele>10.166666666666668</ele><time>2026-04-03T13:23:58.001Z</time></trkpt><trkpt lat="44.098463855560354" lon="9.931650990829272"><ele>10.0</ele><time>2026-04-03T13:23:59.001Z</time></trkpt><trkpt lat="44.098480421446745" lon="9.93175752147274"><ele>10.0</ele><time>2026-04-03T13:24:00.001Z</time></trkpt><trkpt lat="44.09849905925669" lon="9.93186078814319"><ele>10.0</ele><time>2026-04-03T13:24:01.001Z</time></trkpt><trkpt lat="44.098515615128605" lon="9.931962213642917"><ele>10.0</ele><time>2026-04-03T13:24:02.001Z</time></trkpt><trkpt lat="44.098530440759355" lon="9.932058476004931"><ele>10.0</ele><time>2026-04-03T13:24:03.001Z</time></trkpt><trkpt lat="44.09855036162902" lon="9.932151655586518"><ele>10.0</ele><time>2026-04-03T13:24:04.001Z</time></trkpt><trkpt lat="44.09857353096549" lon="9.93224485827924"><ele>10.0</ele><time>2026-04-03T13:24:05.001Z</time></trkpt><trkpt lat="44.09859229787396" lon="9.932341765131453"><ele>10.0</ele><time>2026-04-03T13:24:06.001Z</time></trkpt><trkpt lat="44.09861122056261" lon="9.93243892715898"><ele>10.0</ele><time>2026-04-03T13:24:07.001Z</time></trkpt><trkpt lat="44.0986328757362" lon="9.932537026435805"><ele>10.0</ele><time>2026-04-03T13:24:08.001Z</time></trkpt><trkpt lat="44.09865561258746" lon="9.932635323141087"><ele>10.0</ele><time>2026-04-03T13:24:09.001Z</time></trkpt><trkpt lat="44.09867985190382" lon="9.93273274241281"><ele>10.0</ele><time>2026-04-03T13:24:10.001Z</time></trkpt><trkpt lat="44.09870401319801" lon="9.932828970826998"><ele>10.0</ele><time>2026-04-03T13:24:11.001Z</time></trkpt><trkpt lat="44.09872920233578" lon="9.932921399967489"><ele>10.0</ele><time>2026-04-03T13:24:12.001Z</time></trkpt><trkpt lat="44.09875519413928" lon="9.933013776453048"><ele>10.0</ele><time>2026-04-03T13:24:13.001Z</time></trkpt><trkpt lat="44.09877945143888" lon="9.933103725928575"><ele>9.666666666666668</ele><time>2026-04-03T13:24:14.001Z</time></trkpt><trkpt lat="44.098802215976356" lon="9.933187501278871"><ele>9.333333333333334</ele><time>2026-04-03T13:24:15.001Z</time></trkpt><trkpt lat="44.09885949423562" lon="9.933319671068926"><ele>9.0</ele><time>2026-04-03T13:24:17.001Z</time></trkpt><trkpt lat="44.09893097280814" lon="9.933405903125466"><ele>8.666666666666666</ele><time>2026-04-03T13:24:19.001Z</time></trkpt><trkpt lat="44.0989924823352" lon="9.933469198380116"><ele>8.333333333333332</ele><time>2026-04-03T13:24:21.001Z</time></trkpt><trkpt lat="44.0990721582918" lon="9.933537632971806"><ele>8.0</ele><time>2026-04-03T13:24:23.001Z</time></trkpt><trkpt lat="44.099129624537234" lon="9.933609804267572"><ele>7.999999999999999</ele><time>2026-04-03T13:24:25.001Z</time></trkpt><trkpt lat="44.09909306295861" lon="9.933695850616617"><ele>8.0</ele><time>2026-04-03T13:24:28.001Z</time></trkpt><trkpt lat="44.099143135183844" lon="9.93375022984499"><ele>8.0</ele><time>2026-04-03T13:24:30.001Z</time></trkpt><trkpt lat="44.09921945252697" lon="9.93382595382644"><ele>8.0</ele><time>2026-04-03T13:24:32.001Z</time></trkpt><trkpt lat="44.099276988153974" lon="9.933927219022413"><ele>7.999999999999999</ele><time>2026-04-03T13:24:34.001Z</time></trkpt><trkpt lat="44.09931809271371" lon="9.934024069360408"><ele>8.0</ele><time>2026-04-03T13:24:36.001Z</time></trkpt><trkpt lat="44.09936067330703" lon="9.93410035942403"><ele>8.0</ele><time>2026-04-03T13:24:39.001Z</time></trkpt><trkpt lat="44.099415172429836" lon="9.9342063119456"><ele>7.999999999999999</ele><time>2026-04-03T13:24:42.001Z</time></trkpt><trkpt lat="44.0994556630693" lon="9.934289181603432"><ele>8.0</ele><time>2026-04-03T13:24:44.001Z</time></trkpt><trkpt lat="44.099499040650294" lon="9.934373193330169"><ele>8.0</ele><time>2026-04-03T13:24:46.001Z</time></trkpt><trkpt lat="44.09953917231711" lon="9.934452636984169"><ele>7.999999999999999</ele><time>2026-04-03T13:24:48.001Z</time></trkpt><trkpt lat="44.09958898495202" lon="9.934516563666998"><ele>8.0</ele><time>2026-04-03T13:24:50.001Z</time></trkpt><trkpt lat="44.09963307915563" lon="9.934595560662435"><ele>8.0</ele><time>2026-04-03T13:24:53.001Z</time></trkpt><trkpt lat="44.09966532463785" lon="9.934687620350658"><ele>8.142857142857142</ele><time>2026-04-03T13:25:06.001Z</time></trkpt><trkpt lat="44.09969036624176" lon="9.934772938975385"><ele>8.285714285714285</ele><time>2026-04-03T13:25:11.001Z</time></trkpt><trkpt lat="44.09967572797163" lon="9.934687153868976"><ele>8.428571428571429</ele><time>2026-04-03T13:25:18.001Z</time></trkpt><trkpt lat="44.09964417565116" lon="9.934599256594877"><ele>8.571428571428571</ele><time>2026-04-03T13:25:21.001Z</time></trkpt><trkpt lat="44.099588843688686" lon="9.93453134311005"><ele>8.714285714285715</ele><time>2026-04-03T13:25:25.001Z</time></trkpt><trkpt lat="44.09961468440954" lon="9.934616015350686"><ele>8.857142857142858</ele><time>2026-04-03T13:25:45.001Z</time></trkpt><trkpt lat="44.09967401388028" lon="9.934695737492914"><ele>9.0</ele><time>2026-04-03T13:25:48.001Z</time></trkpt><trkpt lat="44.09971958947351" lon="9.934797528450776"><ele>9.0</ele><time>2026-04-03T13:25:51.001Z</time></trkpt><trkpt lat="44.09974557334765" lon="9.934898112870226"><ele>9.0</ele><time>2026-04-03T13:25:54.001Z</time></trkpt><trkpt lat="44.0997567341171" lon="9.934994730153639"><ele>9.0</ele><time>2026-04-03T13:25:58.001Z</time></trkpt><trkpt lat="44.099779260655154" lon="9.93513149086629"><ele>9.0</ele><time>2026-04-03T13:26:33.001Z</time></trkpt><trkpt lat="44.099834538730676" lon="9.93524233032614"><ele>9.0</ele><time>2026-04-03T13:26:35.001Z</time></trkpt><trkpt lat="44.09993411183767" lon="9.935227713045242"><ele>9.0</ele><time>2026-04-03T13:26:37.001Z</time></trkpt><trkpt lat="44.100002991338734" lon="9.935123681760938"><ele>9.0</ele><time>2026-04-03T13:26:39.001Z</time></trkpt><trkpt lat="44.10007976789527" lon="9.935051523643327"><ele>9.0</ele><time>2026-04-03T13:26:41.001Z</time></trkpt><trkpt lat="44.10016342482349" lon="9.934982475564484"><ele>9.0</ele><time>2026-04-03T13:26:43.001Z</time></trkpt><trkpt lat="44.10023592604847" lon="9.934898801201044"><ele>9.0</ele><time>2026-04-03T13:26:45.001Z</time></trkpt><trkpt lat="44.100307538874404" lon="9.934821010964036"><ele>9.0</ele><time>2026-04-03T13:26:47.001Z</time></trkpt><trkpt lat="44.10038323850514" lon="9.934741585268954"><ele>9.0</ele><time>2026-04-03T13:26:49.001Z</time></trkpt><trkpt lat="44.100466318011144" lon="9.934665371460188"><ele>9.0</ele><time>2026-04-03T13:26:51.001Z</time></trkpt><trkpt lat="44.10056475441797" lon="9.934613072120094"><ele>9.0</ele><time>2026-04-03T13:26:53.001Z</time></trkpt><trkpt lat="44.10066878865614" lon="9.934567197483336"><ele>9.0</ele><time>2026-04-03T13:26:55.001Z</time></trkpt><trkpt lat="44.100781683479056" lon="9.934547487113148"><ele>9.0</ele><time>2026-04-03T13:26:57.001Z</time></trkpt><trkpt lat="44.10089623441811" lon="9.934534945691539"><ele>9.25</ele><time>2026-04-03T13:26:59.001Z</time></trkpt><trkpt lat="44.10101101798065" lon="9.934535880670825"><ele>9.5</ele><time>2026-04-03T13:27:01.001Z</time></trkpt><trkpt lat="44.10112579423876" lon="9.934542954273532"><ele>9.75</ele><time>2026-04-03T13:27:03.001Z</time></trkpt><trkpt lat="44.10123966919843" lon="9.934565282602833"><ele>10.0</ele><time>2026-04-03T13:27:05.001Z</time></trkpt><trkpt lat="44.10135629969688" lon="9.934594036522752"><ele>10.0</ele><time>2026-04-03T13:27:07.001Z</time></trkpt><trkpt lat="44.101475150170316" lon="9.934623841828952"><ele>10.0</ele><time>2026-04-03T13:27:09.001Z</time></trkpt><trkpt lat="44.10159735924503" lon="9.934653744339672"><ele>10.0</ele><time>2026-04-03T13:27:11.001Z</time></trkpt><trkpt lat="44.10172071185071" lon="9.934680553809969"><ele>10.0</ele><time>2026-04-03T13:27:13.001Z</time></trkpt><trkpt lat="44.101844892445115" lon="9.93470965202998"><ele>10.142857142857142</ele><time>2026-04-03T13:27:15.001Z</time></trkpt><trkpt lat="44.101907477033535" lon="9.934725165186475"><ele>10.285714285714286</ele><time>2026-04-03T13:27:16.001Z</time></trkpt><trkpt lat="44.10197114235856" lon="9.934738191202467"><ele>10.428571428571429</ele><time>2026-04-03T13:27:17.001Z</time></trkpt><trkpt lat="44.10203522997548" lon="9.934752476256286"><ele>10.571428571428571</ele><time>2026-04-03T13:27:18.001Z</time></trkpt><trkpt lat="44.10209995416377" lon="9.934772744623427"><ele>10.714285714285714</ele><time>2026-04-03T13:27:19.001Z</time></trkpt><trkpt lat="44.10216572155882" lon="9.934797252369139"><ele>10.857142857142858</ele><time>2026-04-03T13:27:20.001Z</time></trkpt><trkpt lat="44.10223131509427" lon="9.93482102272337"><ele>11.0</ele><time>2026-04-03T13:27:21.001Z</time></trkpt><trkpt lat="44.102305219253026" lon="9.934848609456713"><ele>11.0</ele><time>2026-04-03T13:27:22.001Z</time></trkpt><trkpt lat="44.10238463984993" lon="9.934873996901509"><ele>11.0</ele><time>2026-04-03T13:27:23.001Z</time></trkpt><trkpt lat="44.10245935613089" lon="9.934907835489694"><ele>11.0</ele><time>2026-04-03T13:27:24.001Z</time></trkpt><trkpt lat="44.10252941707488" lon="9.934960560487307"><ele>11.0</ele><time>2026-04-03T13:27:25.001Z</time></trkpt><trkpt lat="44.10259494709088" lon="9.935019072185103"><ele>11.0</ele><time>2026-04-03T13:27:26.001Z</time></trkpt><trkpt lat="44.10265128807462" lon="9.935087422943806"><ele>11.0</ele><time>2026-04-03T13:27:27.001Z</time></trkpt><trkpt lat="44.10269113116579" lon="9.935173709073343"><ele>10.714285714285715</ele><time>2026-04-03T13:27:28.001Z</time></trkpt><trkpt lat="44.10272061575654" lon="9.935265218021472"><ele>10.428571428571429</ele><time>2026-04-03T13:27:29.001Z</time></trkpt><trkpt lat="44.102728436423156" lon="9.935363116822494"><ele>10.142857142857142</ele><time>2026-04-03T13:27:30.001Z</time></trkpt><trkpt lat="44.10271484996035" lon="9.93545522967501"><ele>9.857142857142858</ele><time>2026-04-03T13:27:31.001Z</time></trkpt><trkpt lat="44.10267369267013" lon="9.935537308167785"><ele>9.571428571428571</ele><time>2026-04-03T13:27:32.001Z</time></trkpt><trkpt lat="44.102682652266864" lon="9.93564465416224"><ele>9.285714285714286</ele><time>2026-04-03T13:27:33.001Z</time></trkpt><trkpt lat="44.10274933628343" lon="9.93570845085161"><ele>9.0</ele><time>2026-04-03T13:27:34.001Z</time></trkpt><trkpt lat="44.10281108724887" lon="9.935736619012578"><ele>9.0</ele><time>2026-04-03T13:27:35.001Z</time></trkpt><trkpt lat="44.102873798669705" lon="9.93571529082081"><ele>9.0</ele><time>2026-04-03T13:27:36.001Z</time></trkpt><trkpt lat="44.10299756475129" lon="9.935703224141202"><ele>9.0</ele><time>2026-04-03T13:27:38.001Z</time></trkpt><trkpt lat="44.10306305048637" lon="9.935709439675016"><ele>9.0</ele><time>2026-04-03T13:27:39.001Z</time></trkpt><trkpt lat="44.1031307795064" lon="9.935719795871181"><ele>9.0</ele><time>2026-04-03T13:27:40.001Z</time></trkpt><trkpt lat="44.103198403018354" lon="9.935722577493843"><ele>9.0</ele><time>2026-04-03T13:27:41.001Z</time></trkpt><trkpt lat="44.10326533387991" lon="9.935705507544231"><ele>9.142857142857144</ele><time>2026-04-03T13:27:42.001Z</time></trkpt><trkpt lat="44.103331926573446" lon="9.935686082820395"><ele>9.285714285714286</ele><time>2026-04-03T13:27:43.001Z</time></trkpt><trkpt lat="44.10339909904511" lon="9.935665014514699"><ele>9.428571428571429</ele><time>2026-04-03T13:27:44.001Z</time></trkpt><trkpt lat="44.10346758138263" lon="9.935643838945436"><ele>9.571428571428573</ele><time>2026-04-03T13:27:45.001Z</time></trkpt><trkpt lat="44.10353580614414" lon="9.93562343329127"><ele>9.714285714285715</ele><time>2026-04-03T13:27:46.001Z</time></trkpt><trkpt lat="44.10360461629022" lon="9.935599219630058"><ele>9.857142857142858</ele><time>2026-04-03T13:27:47.001Z</time></trkpt><trkpt lat="44.10367204807835" lon="9.935573522618151"><ele>10.0</ele><time>2026-04-03T13:27:48.001Z</time></trkpt><trkpt lat="44.10373820491959" lon="9.935547759209912"><ele>10.0</ele><time>2026-04-03T13:27:49.001Z</time></trkpt><trkpt lat="44.103805241454864" lon="9.935536151548831"><ele>10.0</ele><time>2026-04-03T13:27:50.001Z</time></trkpt><trkpt lat="44.10386855071701" lon="9.935508371674146"><ele>10.0</ele><time>2026-04-03T13:27:51.001Z</time></trkpt><trkpt lat="44.10393338986936" lon="9.93546281698298"><ele>10.0</ele><time>2026-04-03T13:27:52.001Z</time></trkpt><trkpt lat="44.10400238993363" lon="9.935418282549067"><ele>10.0</ele><time>2026-04-03T13:27:53.001Z</time></trkpt><trkpt lat="44.10407538549318" lon="9.935387299684523"><ele>10.0</ele><time>2026-04-03T13:27:54.001Z</time></trkpt><trkpt lat="44.104148136249265" lon="9.935354989030847"><ele>10.0</ele><time>2026-04-03T13:27:55.001Z</time></trkpt><trkpt lat="44.10422191083722" lon="9.935320711027959"><ele>9.833333333333334</ele><time>2026-04-03T13:27:56.001Z</time></trkpt><trkpt lat="44.10429621664323" lon="9.93528879853678"><ele>9.666666666666668</ele><time>2026-04-03T13:27:57.001Z</time></trkpt><trkpt lat="44.10437026291616" lon="9.935256747055803"><ele>9.5</ele><time>2026-04-03T13:27:58.001Z</time></trkpt><trkpt lat="44.104444617040656" lon="9.935224607712787"><ele>9.333333333333334</ele><time>2026-04-03T13:27:59.001Z</time></trkpt><trkpt lat="44.104520116375646" lon="9.935189692480048"><ele>9.166666666666666</ele><time>2026-04-03T13:28:00.001Z</time></trkpt><trkpt lat="44.104593043000655" lon="9.935160976421095"><ele>9.0</ele><time>2026-04-03T13:28:01.001Z</time></trkpt><trkpt lat="44.1046652624358" lon="9.935133628190863"><ele>9.0</ele><time>2026-04-03T13:28:02.001Z</time></trkpt><trkpt lat="44.10473864906377" lon="9.935107079607466"><ele>9.0</ele><time>2026-04-03T13:28:03.001Z</time></trkpt><trkpt lat="44.104811524078485" lon="9.935077993077444"><ele>9.0</ele><time>2026-04-03T13:28:04.001Z</time></trkpt><trkpt lat="44.10488495582573" lon="9.935046694367708"><ele>9.0</ele><time>2026-04-03T13:28:05.001Z</time></trkpt><trkpt lat="44.104958010927405" lon="9.935014453645715"><ele>9.0</ele><time>2026-04-03T13:28:06.001Z</time></trkpt><trkpt lat="44.10503196703779" lon="9.9349852079438"><ele>9.0</ele><time>2026-04-03T13:28:07.001Z</time></trkpt><trkpt lat="44.10510712363267" lon="9.934959649955033"><ele>9.0</ele><time>2026-04-03T13:28:08.001Z</time></trkpt><trkpt lat="44.10518206080819" lon="9.934929697324439"><ele>9.0</ele><time>2026-04-03T13:28:09.001Z</time></trkpt><trkpt lat="44.10525595110959" lon="9.934901111925166"><ele>9.0</ele><time>2026-04-03T13:28:10.001Z</time></trkpt><trkpt lat="44.105330720156765" lon="9.934871188976974"><ele>9.0</ele><time>2026-04-03T13:28:11.001Z</time></trkpt><trkpt lat="44.10540631118601" lon="9.934842252313983"><ele>9.0</ele><time>2026-04-03T13:28:12.001Z</time></trkpt><trkpt lat="44.10548160843715" lon="9.934809740747808"><ele>9.0</ele><time>2026-04-03T13:28:13.001Z</time></trkpt><trkpt lat="44.10555629582944" lon="9.934777198938125"><ele>9.0</ele><time>2026-04-03T13:28:14.001Z</time></trkpt><trkpt lat="44.105631004373166" lon="9.934746085789468"><ele>9.0</ele><time>2026-04-03T13:28:15.001Z</time></trkpt><trkpt lat="44.10570732946036" lon="9.934715129728632"><ele>9.0</ele><time>2026-04-03T13:28:16.001Z</time></trkpt><trkpt lat="44.105782472074985" lon="9.934683768048307"><ele>9.0</ele><time>2026-04-03T13:28:17.001Z</time></trkpt><trkpt lat="44.105857823142344" lon="9.934655921006271"><ele>9.0</ele><time>2026-04-03T13:28:18.001Z</time></trkpt><trkpt lat="44.105935835094265" lon="9.9346277905239"><ele>9.0</ele><time>2026-04-03T13:28:19.001Z</time></trkpt><trkpt lat="44.10601260196537" lon="9.934596122779991"><ele>8.833333333333334</ele><time>2026-04-03T13:28:20.001Z</time></trkpt><trkpt lat="44.10609071767345" lon="9.934564515400963"><ele>8.666666666666666</ele><time>2026-04-03T13:28:21.001Z</time></trkpt><trkpt lat="44.10617042867154" lon="9.934532200526471"><ele>8.5</ele><time>2026-04-03T13:28:22.001Z</time></trkpt><trkpt lat="44.10624899325361" lon="9.934503156494452"><ele>8.333333333333332</ele><time>2026-04-03T13:28:23.001Z</time></trkpt><trkpt lat="44.1063277863494" lon="9.934475389814661"><ele>8.166666666666666</ele><time>2026-04-03T13:28:24.001Z</time></trkpt><trkpt lat="44.10640415009759" lon="9.93444618511098"><ele>8.0</ele><time>2026-04-03T13:28:25.001Z</time></trkpt><trkpt lat="44.10648357020932" lon="9.934418287885425"><ele>7.999999999999999</ele><time>2026-04-03T13:28:26.001Z</time></trkpt><trkpt lat="44.106561332242926" lon="9.93438700526696"><ele>8.0</ele><time>2026-04-03T13:28:27.001Z</time></trkpt><trkpt lat="44.10664895346537" lon="9.934351099479642"><ele>8.0</ele><time>2026-04-03T13:28:28.001Z</time></trkpt><trkpt lat="44.10673260768552" lon="9.934321761200579"><ele>8.0</ele><time>2026-04-03T13:28:29.001Z</time></trkpt><trkpt lat="44.10681490442928" lon="9.934293582161946"><ele>7.999999999999999</ele><time>2026-04-03T13:28:30.001Z</time></trkpt><trkpt lat="44.106894600112014" lon="9.934261133801245"><ele>8.0</ele><time>2026-04-03T13:28:31.001Z</time></trkpt><trkpt lat="44.10697436616111" lon="9.934229026517858"><ele>8.833333333333332</ele><time>2026-04-03T13:28:32.001Z</time></trkpt><trkpt lat="44.1070543376216" lon="9.934196792254273"><ele>9.666666666666666</ele><time>2026-04-03T13:28:33.001Z</time></trkpt><trkpt lat="44.10713433412399" lon="9.934163416013511"><ele>10.5</ele><time>2026-04-03T13:28:34.001Z</time></trkpt><trkpt lat="44.107214829958394" lon="9.93411887618167"><ele>11.333333333333332</ele><time>2026-04-03T13:28:35.001Z</time></trkpt><trkpt lat="44.10728531856904" lon="9.93404340302686"><ele>12.166666666666666</ele><time>2026-04-03T13:28:36.001Z</time></trkpt><trkpt lat="44.10734491312649" lon="9.933951980059087"><ele>13.0</ele><time>2026-04-03T13:28:37.001Z</time></trkpt><trkpt lat="44.10738552427997" lon="9.933843319315965"><ele>12.999999999999998</ele><time>2026-04-03T13:28:38.001Z</time></trkpt><trkpt lat="44.107408417082596" lon="9.93372513339426"><ele>13.0</ele><time>2026-04-03T13:28:39.001Z</time></trkpt><trkpt lat="44.10741022736924" lon="9.933606729615502"><ele>13.0</ele><time>2026-04-03T13:28:40.001Z</time></trkpt><trkpt lat="44.10739588080531" lon="9.933493530264428"><ele>13.0</ele><time>2026-04-03T13:28:41.001Z</time></trkpt><trkpt lat="44.10736230172561" lon="9.9333923119411"><ele>12.999999999999998</ele><time>2026-04-03T13:28:42.001Z</time></trkpt><trkpt lat="44.107318152923085" lon="9.93330453486322"><ele>13.0</ele><time>2026-04-03T13:28:43.001Z</time></trkpt><trkpt lat="44.10726390004595" lon="9.93323692906394"><ele>14.428571428571427</ele><time>2026-04-03T13:28:44.001Z</time></trkpt><trkpt lat="44.107209592939" lon="9.933180957143264"><ele>15.857142857142858</ele><time>2026-04-03T13:28:45.001Z</time></trkpt><trkpt lat="44.10716041887357" lon="9.933125161579358"><ele>17.285714285714285</ele><time>2026-04-03T13:28:46Z</time></trkpt><trkpt lat="44.107122171447614" lon="9.933055225966537"><ele>18.714285714285715</ele><time>2026-04-03T13:28:47Z</time></trkpt><trkpt lat="44.10709314394489" lon="9.932976438611933"><ele>20.142857142857142</ele><time>2026-04-03T13:28:48Z</time></trkpt><trkpt lat="44.107074080762956" lon="9.93289101286328"><ele>21.571428571428573</ele><time>2026-04-03T13:28:49Z</time></trkpt><trkpt lat="44.107066472613724" lon="9.932800174132527"><ele>23.0</ele><time>2026-04-03T13:28:50Z</time></trkpt><trkpt lat="44.10706911824159" lon="9.932706362149098"><ele>23.0</ele><time>2026-04-03T13:28:51Z</time></trkpt><trkpt lat="44.10709226861857" lon="9.93261023171352"><ele>23.0</ele><time>2026-04-03T13:28:52Z</time></trkpt><trkpt lat="44.107128450327515" lon="9.932520179552563"><ele>23.0</ele><time>2026-04-03T13:28:53Z</time></trkpt><trkpt lat="44.107171771864685" lon="9.932433267003207"><ele>23.0</ele><time>2026-04-03T13:28:54Z</time></trkpt><trkpt lat="44.10718268087493" lon="9.932329981639095"><ele>23.0</ele><time>2026-04-03T13:28:55Z</time></trkpt><trkpt lat="44.10725522861676" lon="9.93224682339038"><ele>23.0</ele><time>2026-04-03T13:28:56Z</time></trkpt><trkpt lat="44.10729765246849" lon="9.932153265029111"><ele>22.0</ele><time>2026-04-03T13:28:57Z</time></trkpt><trkpt lat="44.10734557641837" lon="9.932061970197655"><ele>21.0</ele><time>2026-04-03T13:28:58Z</time></trkpt><trkpt lat="44.107395496332714" lon="9.931967335191384"><ele>20.0</ele><time>2026-04-03T13:28:59Z</time></trkpt><trkpt lat="44.10744326348277" lon="9.931871039894903"><ele>19.0</ele><time>2026-04-03T13:29:00Z</time></trkpt><trkpt lat="44.107491813175564" lon="9.931775829175486"><ele>18.0</ele><time>2026-04-03T13:29:01Z</time></trkpt><trkpt lat="44.10754258493231" lon="9.931683123708561"><ele>17.0</ele><time>2026-04-03T13:29:02Z</time></trkpt><trkpt lat="44.10759266267474" lon="9.931592470864393"><ele>17.0</ele><time>2026-04-03T13:29:03Z</time></trkpt><trkpt lat="44.10764157687525" lon="9.931502524210146"><ele>17.0</ele><time>2026-04-03T13:29:04Z</time></trkpt><trkpt lat="44.10768951526741" lon="9.93141232473335"><ele>17.0</ele><time>2026-04-03T13:29:05Z</time></trkpt><trkpt lat="44.10773860489098" lon="9.931324374136345"><ele>17.0</ele><time>2026-04-03T13:29:06Z</time></trkpt><trkpt lat="44.10778628909155" lon="9.931235449183182"><ele>17.0</ele><time>2026-04-03T13:29:07Z</time></trkpt><trkpt lat="44.10783205260961" lon="9.931147470168996"><ele>17.0</ele><time>2026-04-03T13:29:08Z</time></trkpt><trkpt lat="44.10787659071299" lon="9.931062028224826"><ele>16.999999999999996</ele><time>2026-04-03T13:29:09Z</time></trkpt><trkpt lat="44.107922050839285" lon="9.930980265621688"><ele>17.0</ele><time>2026-04-03T13:29:10Z</time></trkpt><trkpt lat="44.10796694140524" lon="9.930900194103002"><ele>17.0</ele><time>2026-04-03T13:29:11Z</time></trkpt><trkpt lat="44.108011788193295" lon="9.930820833871238"><ele>17.0</ele><time>2026-04-03T13:29:12Z</time></trkpt><trkpt lat="44.108055248539394" lon="9.93074127585539"><ele>17.0</ele><time>2026-04-03T13:29:13Z</time></trkpt><trkpt lat="44.108096471153054" lon="9.930658879430966"><ele>16.999999999999996</ele><time>2026-04-03T13:29:14Z</time></trkpt><trkpt lat="44.108144927446375" lon="9.930585926911531"><ele>17.0</ele><time>2026-04-03T13:29:15Z</time></trkpt><trkpt lat="44.108216850743375" lon="9.930575155903298"><ele>15.833333333333334</ele><time>2026-04-03T13:29:16Z</time></trkpt><trkpt lat="44.108281336081475" lon="9.93061143926154"><ele>14.666666666666668</ele><time>2026-04-03T13:29:17Z</time></trkpt><trkpt lat="44.10834350622185" lon="9.930649049189674"><ele>13.5</ele><time>2026-04-03T13:29:18Z</time></trkpt><trkpt lat="44.108445228271265" lon="9.930736134442608"><ele>12.333333333333334</ele><time>2026-04-03T13:29:20Z</time></trkpt><trkpt lat="44.10849970032" lon="9.930789272589305"><ele>11.166666666666668</ele><time>2026-04-03T13:29:21Z</time></trkpt><trkpt lat="44.108548007773564" lon="9.930849586874277"><ele>10.0</ele><time>2026-04-03T13:29:22Z</time></trkpt><trkpt lat="44.10859933317269" lon="9.930906557785603"><ele>9.8</ele><time>2026-04-03T13:29:23Z</time></trkpt><trkpt lat="44.10869049050755" lon="9.931011370781727"><ele>9.6</ele><time>2026-04-03T13:29:25Z</time></trkpt><trkpt lat="44.10879598275828" lon="9.931051360068068"><ele>9.4</ele><time>2026-04-03T13:29:27Z</time></trkpt><trkpt lat="44.10891986868261" lon="9.931035310684202"><ele>9.2</ele><time>2026-04-03T13:29:29Z</time></trkpt><trkpt lat="44.10898209441452" lon="9.930980817356659"><ele>9.0</ele><time>2026-04-03T13:29:30Z</time></trkpt><trkpt lat="44.1090520397634" lon="9.930974962387586"><ele>8.666666666666666</ele><time>2026-04-03T13:29:31Z</time></trkpt><trkpt lat="44.109123531619744" lon="9.93094817262128"><ele>8.333333333333334</ele><time>2026-04-03T13:29:32Z</time></trkpt><trkpt lat="44.10920281871061" lon="9.930918461782552"><ele>8.0</ele><time>2026-04-03T13:29:33Z</time></trkpt><trkpt lat="44.10928648918211" lon="9.930884150833062"><ele>7.666666666666667</ele><time>2026-04-03T13:29:34Z</time></trkpt><trkpt lat="44.10937175411274" lon="9.930844834056039"><ele>7.333333333333334</ele><time>2026-04-03T13:29:35Z</time></trkpt><trkpt lat="44.10944950109818" lon="9.930783343342657"><ele>7.0</ele><time>2026-04-03T13:29:36Z</time></trkpt><trkpt lat="44.109531784800325" lon="9.93074172968045"><ele>7.0</ele><time>2026-04-03T13:29:37Z</time></trkpt><trkpt lat="44.10961638631321" lon="9.930690045652035"><ele>6.999999999999999</ele><time>2026-04-03T13:29:38Z</time></trkpt><trkpt lat="44.10970361730454" lon="9.930635510909058"><ele>6.999999999999999</ele><time>2026-04-03T13:29:39Z</time></trkpt><trkpt lat="44.109791213154" lon="9.93057847185585"><ele>7.0</ele><time>2026-04-03T13:29:40Z</time></trkpt><trkpt lat="44.10987730744487" lon="9.930518351852955"><ele>7.0</ele><time>2026-04-03T13:29:41Z</time></trkpt><trkpt lat="44.109962815321424" lon="9.930456174336214"><ele>7.199999999999999</ele><time>2026-04-03T13:29:42Z</time></trkpt><trkpt lat="44.110044492033644" lon="9.930392550813615"><ele>7.3999999999999995</ele><time>2026-04-03T13:29:43Z</time></trkpt><trkpt lat="44.1101260613524" lon="9.930326896346626"><ele>7.6000000000000005</ele><time>2026-04-03T13:29:44Z</time></trkpt><trkpt lat="44.11020929682445" lon="9.930259536737745"><ele>7.800000000000001</ele><time>2026-04-03T13:29:45Z</time></trkpt><trkpt lat="44.1102925819729" lon="9.930186298301562"><ele>8.0</ele><time>2026-04-03T13:29:46Z</time></trkpt><trkpt lat="44.110375192917246" lon="9.930108254287651"><ele>8.0</ele><time>2026-04-03T13:29:47Z</time></trkpt><trkpt lat="44.1104579870564" lon="9.930030094479417"><ele>8.0</ele><time>2026-04-03T13:29:48Z</time></trkpt><trkpt lat="44.11053731704181" lon="9.929947190193085"><ele>8.0</ele><time>2026-04-03T13:29:49Z</time></trkpt><trkpt lat="44.11061502698068" lon="9.929860936136324"><ele>8.0</ele><time>2026-04-03T13:29:50Z</time></trkpt><trkpt lat="44.110691653614055" lon="9.929775040200516"><ele>8.0</ele><time>2026-04-03T13:29:51Z</time></trkpt><trkpt lat="44.110766777938366" lon="9.929689762903491"><ele>8.0</ele><time>2026-04-03T13:29:52Z</time></trkpt><trkpt lat="44.11083992413732" lon="9.929599457408438"><ele>8.0</ele><time>2026-04-03T13:29:53Z</time></trkpt><trkpt lat="44.110910379373394" lon="9.92950406579327"><ele>8.0</ele><time>2026-04-03T13:29:54Z</time></trkpt><trkpt lat="44.1109768959978" lon="9.929397902977586"><ele>8.0</ele><time>2026-04-03T13:29:55Z</time></trkpt><trkpt lat="44.11104545255115" lon="9.929290294275134"><ele>8.0</ele><time>2026-04-03T13:29:56Z</time></trkpt><trkpt lat="44.11111438992915" lon="9.929179085928906"><ele>7.800000000000001</ele><time>2026-04-03T13:29:57Z</time></trkpt><trkpt lat="44.1111826180446" lon="9.929066528877682"><ele>7.6000000000000005</ele><time>2026-04-03T13:29:58Z</time></trkpt><trkpt lat="44.111248787885884" lon="9.928948679948968"><ele>7.3999999999999995</ele><time>2026-04-03T13:29:59Z</time></trkpt><trkpt lat="44.11131407476174" lon="9.928833263156893"><ele>7.199999999999999</ele><time>2026-04-03T13:29:59.999Z</time></trkpt><trkpt lat="44.11137681691953" lon="9.92871232508862"><ele>7.0</ele><time>2026-04-03T13:30:00.999Z</time></trkpt><trkpt lat="44.111443691105045" lon="9.92859869074185"><ele>7.0</ele><time>2026-04-03T13:30:01.999Z</time></trkpt><trkpt lat="44.11151087611199" lon="9.928488335031757"><ele>6.999999999999999</ele><time>2026-04-03T13:30:02.999Z</time></trkpt><trkpt lat="44.11157501752729" lon="9.928374676788762"><ele>6.999999999999999</ele><time>2026-04-03T13:30:03.999Z</time></trkpt><trkpt lat="44.11163966543478" lon="9.92825957374335"><ele>7.0</ele><time>2026-04-03T13:30:04.999Z</time></trkpt><trkpt lat="44.111700941454316" lon="9.92814105037446"><ele>7.0</ele><time>2026-04-03T13:30:05.999Z</time></trkpt><trkpt lat="44.11175206179013" lon="9.928013693829664"><ele>7.6</ele><time>2026-04-03T13:30:06.999Z</time></trkpt><trkpt lat="44.11180010304756" lon="9.92788178590455"><ele>8.2</ele><time>2026-04-03T13:30:07.999Z</time></trkpt><trkpt lat="44.11184079349382" lon="9.92774842870011"><ele>8.8</ele><time>2026-04-03T13:30:08.999Z</time></trkpt><trkpt lat="44.11187971912562" lon="9.92761580417675"><ele>9.4</ele><time>2026-04-03T13:30:09.999Z</time></trkpt><trkpt lat="44.11191382013359" lon="9.927490756249568"><ele>10.0</ele><time>2026-04-03T13:30:10.999Z</time></trkpt><trkpt lat="44.11194352342561" lon="9.927368775319527"><ele>10.0</ele><time>2026-04-03T13:30:11.999Z</time></trkpt><trkpt lat="44.11197273543642" lon="9.927248892063634"><ele>10.0</ele><time>2026-04-03T13:30:12.999Z</time></trkpt><trkpt lat="44.11199977804091" lon="9.927129273998547"><ele>10.0</ele><time>2026-04-03T13:30:13.999Z</time></trkpt><trkpt lat="44.1120240166478" lon="9.927008854027621"><ele>10.0</ele><time>2026-04-03T13:30:14.999Z</time></trkpt><trkpt lat="44.1120478422709" lon="9.92688739538248"><ele>10.0</ele><time>2026-04-03T13:30:15.999Z</time></trkpt><trkpt lat="44.1120665515399" lon="9.926762916218351"><ele>9.8</ele><time>2026-04-03T13:30:16.999Z</time></trkpt><trkpt lat="44.11208658651027" lon="9.926637732708455"><ele>9.6</ele><time>2026-04-03T13:30:17.999Z</time></trkpt><trkpt lat="44.112107866946765" lon="9.926511454080956"><ele>9.4</ele><time>2026-04-03T13:30:18.999Z</time></trkpt><trkpt lat="44.11212636818141" lon="9.926383742269108"><ele>9.2</ele><time>2026-04-03T13:30:19.999Z</time></trkpt><trkpt lat="44.11214366691961" lon="9.926254191992166"><ele>9.0</ele><time>2026-04-03T13:30:20.999Z</time></trkpt><trkpt lat="44.11216414016933" lon="9.926125228716309"><ele>9.0</ele><time>2026-04-03T13:30:21.999Z</time></trkpt><trkpt lat="44.1121903210562" lon="9.925997087776057"><ele>9.0</ele><time>2026-04-03T13:30:22.999Z</time></trkpt><trkpt lat="44.11221950343934" lon="9.925869163694294"><ele>9.0</ele><time>2026-04-03T13:30:24Z</time></trkpt><trkpt lat="44.11225311145873" lon="9.925750812542793"><ele>9.0</ele><time>2026-04-03T13:30:25Z</time></trkpt><trkpt lat="44.11229752905438" lon="9.925640561207578"><ele>9.0</ele><time>2026-04-03T13:30:26Z</time></trkpt><trkpt lat="44.11234978506381" lon="9.925540519098535"><ele>9.0</ele><time>2026-04-03T13:30:27Z</time></trkpt><trkpt lat="44.11240282122568" lon="9.925441502793937"><ele>9.0</ele><time>2026-04-03T13:30:28Z</time></trkpt><trkpt lat="44.11245706114589" lon="9.925343751686812"><ele>9.0</ele><time>2026-04-03T13:30:29Z</time></trkpt><trkpt lat="44.11250942020675" lon="9.925245172258707"><ele>9.0</ele><time>2026-04-03T13:30:30Z</time></trkpt><trkpt lat="44.11256128871316" lon="9.925146513265203"><ele>9.0</ele><time>2026-04-03T13:30:31Z</time></trkpt><trkpt lat="44.11261287313331" lon="9.925047403481932"><ele>9.0</ele><time>2026-04-03T13:30:32Z</time></trkpt><trkpt lat="44.11266422846421" lon="9.92494890721998"><ele>9.0</ele><time>2026-04-03T13:30:33Z</time></trkpt><trkpt lat="44.11271511507844" lon="9.924852371903551"><ele>9.0</ele><time>2026-04-03T13:30:34Z</time></trkpt><trkpt lat="44.112765816684416" lon="9.924756137622362"><ele>9.0</ele><time>2026-04-03T13:30:35Z</time></trkpt><trkpt lat="44.112814520104756" lon="9.924658882227003"><ele>9.0</ele><time>2026-04-03T13:30:36Z</time></trkpt><trkpt lat="44.11286399952957" lon="9.924562237942835"><ele>9.0</ele><time>2026-04-03T13:30:37Z</time></trkpt><trkpt lat="44.11291424143041" lon="9.924466523323085"><ele>9.0</ele><time>2026-04-03T13:30:38Z</time></trkpt><trkpt lat="44.112965616740354" lon="9.9243694868437"><ele>9.0</ele><time>2026-04-03T13:30:39Z</time></trkpt><trkpt lat="44.113014428630485" lon="9.92427074184888"><ele>9.0</ele><time>2026-04-03T13:30:40Z</time></trkpt><trkpt lat="44.11305954503153" lon="9.924172849372303"><ele>9.0</ele><time>2026-04-03T13:30:41Z</time></trkpt><trkpt lat="44.11311681412087" lon="9.92409204279274"><ele>9.0</ele><time>2026-04-03T13:30:42Z</time></trkpt><trkpt lat="44.11316439770013" lon="9.924005760937105"><ele>9.0</ele><time>2026-04-03T13:30:43Z</time></trkpt><trkpt lat="44.113212222727945" lon="9.92392724683559"><ele>9.0</ele><time>2026-04-03T13:30:44Z</time></trkpt><trkpt lat="44.11325961482204" lon="9.923859368260908"><ele>9.2</ele><time>2026-04-03T13:30:45Z</time></trkpt><trkpt lat="44.11330731301915" lon="9.923802014219529"><ele>9.4</ele><time>2026-04-03T13:30:46Z</time></trkpt><trkpt lat="44.11332167694057" lon="9.923600175402742"><ele>9.6</ele><time>2026-04-03T13:30:48Z</time></trkpt><trkpt lat="44.113260755628794" lon="9.923467227552443"><ele>9.8</ele><time>2026-04-03T13:30:50Z</time></trkpt><trkpt lat="44.1132050034772" lon="9.92342570915759"><ele>10.0</ele><time>2026-04-03T13:30:51Z</time></trkpt><trkpt lat="44.11316863782021" lon="9.92334819598077"><ele>9.6</ele><time>2026-04-03T13:30:52Z</time></trkpt><trkpt lat="44.113070953059825" lon="9.92324190109351"><ele>9.2</ele><time>2026-04-03T13:30:54Z</time></trkpt><trkpt lat="44.113017949184936" lon="9.923187229016076"><ele>8.8</ele><time>2026-04-03T13:30:55Z</time></trkpt><trkpt lat="44.11291145069481" lon="9.923088378510652"><ele>8.4</ele><time>2026-04-03T13:30:57Z</time></trkpt><trkpt lat="44.11285182963862" lon="9.923049188480524"><ele>8.0</ele><time>2026-04-03T13:30:58Z</time></trkpt><trkpt lat="44.11279189275094" lon="9.923010708950153"><ele>8.0</ele><time>2026-04-03T13:30:59Z</time></trkpt><trkpt lat="44.11271460327842" lon="9.922896226535036"><ele>8.0</ele><time>2026-04-03T13:31:01Z</time></trkpt><trkpt lat="44.11274985285889" lon="9.922727221457475"><ele>8.0</ele><time>2026-04-03T13:31:03Z</time></trkpt><trkpt lat="44.112763285508066" lon="9.922621244228488"><ele>8.0</ele><time>2026-04-03T13:31:04Z</time></trkpt><trkpt lat="44.11279990068101" lon="9.92252178082091"><ele>8.0</ele><time>2026-04-03T13:31:05Z</time></trkpt><trkpt lat="44.11282446284938" lon="9.922431792345526"><ele>8.0</ele><time>2026-04-03T13:31:06Z</time></trkpt><trkpt lat="44.11285003941306" lon="9.922338102932732"><ele>7.999999999999999</ele><time>2026-04-03T13:31:07Z</time></trkpt><trkpt lat="44.112874114455245" lon="9.922243747773496"><ele>8.0</ele><time>2026-04-03T13:31:08Z</time></trkpt><trkpt lat="44.11289978591338" lon="9.922145737289188"><ele>8.0</ele><time>2026-04-03T13:31:09Z</time></trkpt><trkpt lat="44.11292275272128" lon="9.922049497280234"><ele>7.999999999999999</ele><time>2026-04-03T13:31:10Z</time></trkpt><trkpt lat="44.11296529272921" lon="9.921964016393492"><ele>8.0</ele><time>2026-04-03T13:31:11Z</time></trkpt><trkpt lat="44.112992946049225" lon="9.921876175698767"><ele>8.0</ele><time>2026-04-03T13:31:12Z</time></trkpt><trkpt lat="44.113022518421616" lon="9.921790247452302"><ele>8.0</ele><time>2026-04-03T13:31:13Z</time></trkpt><trkpt lat="44.113052514755864" lon="9.921704106651687"><ele>7.999999999999999</ele><time>2026-04-03T13:31:14Z</time></trkpt><trkpt lat="44.11306785227254" lon="9.921610475382284"><ele>8.0</ele><time>2026-04-03T13:31:15Z</time></trkpt><trkpt lat="44.113101078179746" lon="9.921527676003866"><ele>8.0</ele><time>2026-04-03T13:31:16Z</time></trkpt><trkpt lat="44.113132636633075" lon="9.92144472358395"><ele>7.999999999999999</ele><time>2026-04-03T13:31:17Z</time></trkpt><trkpt lat="44.11316367640617" lon="9.921361029836579"><ele>8.0</ele><time>2026-04-03T13:31:18Z</time></trkpt><trkpt lat="44.113190024857495" lon="9.921275470742042"><ele>8.0</ele><time>2026-04-03T13:31:19Z</time></trkpt><trkpt lat="44.11321585249216" lon="9.921191641021304"><ele>8.0</ele><time>2026-04-03T13:31:20Z</time></trkpt><trkpt lat="44.113245542959575" lon="9.921111671008886"><ele>7.999999999999999</ele><time>2026-04-03T13:31:21Z</time></trkpt><trkpt lat="44.113292582419795" lon="9.921038244715197"><ele>8.0</ele><time>2026-04-03T13:31:22Z</time></trkpt><trkpt lat="44.11332460139562" lon="9.920954886132469"><ele>8.0</ele><time>2026-04-03T13:31:23Z</time></trkpt><trkpt lat="44.11334404804736" lon="9.920860385641829"><ele>7.999999999999999</ele><time>2026-04-03T13:31:24Z</time></trkpt><trkpt lat="44.113376934487746" lon="9.920775736406071"><ele>8.0</ele><time>2026-04-03T13:31:25Z</time></trkpt><trkpt lat="44.11341069528049" lon="9.92069290109929"><ele>8.0</ele><time>2026-04-03T13:31:26Z</time></trkpt><trkpt lat="44.11344649335792" lon="9.920612724892793"><ele>8.166666666666666</ele><time>2026-04-03T13:31:27Z</time></trkpt><trkpt lat="44.11348185477053" lon="9.920530107362614"><ele>8.333333333333332</ele><time>2026-04-03T13:31:28Z</time></trkpt><trkpt lat="44.113531138243204" lon="9.9204605258922"><ele>8.5</ele><time>2026-04-03T13:31:29Z</time></trkpt><trkpt lat="44.11355542064778" lon="9.920363679841646"><ele>8.666666666666666</ele><time>2026-04-03T13:31:30Z</time></trkpt><trkpt lat="44.11359762646403" lon="9.920280594672304"><ele>8.833333333333334</ele><time>2026-04-03T13:31:31Z</time></trkpt><trkpt lat="44.11364152966084" lon="9.920188624335204"><ele>9.0</ele><time>2026-04-03T13:31:32Z</time></trkpt><trkpt lat="44.11368810390044" lon="9.920090756129788"><ele>8.833333333333334</ele><time>2026-04-03T13:31:33Z</time></trkpt><trkpt lat="44.11373745469168" lon="9.91999030632721"><ele>8.666666666666666</ele><time>2026-04-03T13:31:34Z</time></trkpt><trkpt lat="44.11378941724534" lon="9.919883921807504"><ele>8.5</ele><time>2026-04-03T13:31:35Z</time></trkpt><trkpt lat="44.113839261223816" lon="9.919801643544178"><ele>8.333333333333332</ele><time>2026-04-03T13:31:37Z</time></trkpt><trkpt lat="44.11388050090873" lon="9.919722698040358"><ele>8.166666666666666</ele><time>2026-04-03T13:31:38Z</time></trkpt><trkpt lat="44.11391935164789" lon="9.919641875307395"><ele>8.0</ele><time>2026-04-03T13:31:39Z</time></trkpt><trkpt lat="44.11396006928953" lon="9.919556792876733"><ele>8.0</ele><time>2026-04-03T13:31:40Z</time></trkpt><trkpt lat="44.11399664563515" lon="9.919469580970745"><ele>7.999999999999999</ele><time>2026-04-03T13:31:41Z</time></trkpt><trkpt lat="44.11403948484336" lon="9.919389674396024"><ele>8.0</ele><time>2026-04-03T13:31:42Z</time></trkpt><trkpt lat="44.11408913636088" lon="9.919309811790647"><ele>8.0</ele><time>2026-04-03T13:31:43Z</time></trkpt><trkpt lat="44.11413461925785" lon="9.91923070107005"><ele>7.999999999999999</ele><time>2026-04-03T13:31:44Z</time></trkpt><trkpt lat="44.114184211101126" lon="9.919159343066779"><ele>8.0</ele><time>2026-04-03T13:31:45Z</time></trkpt><trkpt lat="44.114230475527656" lon="9.919073776954288"><ele>8.0</ele><time>2026-04-03T13:31:46Z</time></trkpt><trkpt lat="44.114270463014854" lon="9.918987753441156"><ele>7.999999999999999</ele><time>2026-04-03T13:31:47Z</time></trkpt><trkpt lat="44.11431669775891" lon="9.918905510747683"><ele>8.0</ele><time>2026-04-03T13:31:48Z</time></trkpt><trkpt lat="44.1143669454937" lon="9.9188319825122"><ele>8.0</ele><time>2026-04-03T13:31:49Z</time></trkpt><trkpt lat="44.11441469842647" lon="9.918748651807155"><ele>8.0</ele><time>2026-04-03T13:31:50Z</time></trkpt><trkpt lat="44.11446491218486" lon="9.91866869347922"><ele>7.999999999999999</ele><time>2026-04-03T13:31:51Z</time></trkpt><trkpt lat="44.11451485512292" lon="9.918582990899303"><ele>8.0</ele><time>2026-04-03T13:31:52Z</time></trkpt><trkpt lat="44.11458061665935" lon="9.918515032151836"><ele>7.999999999999999</ele><time>2026-04-03T13:31:53Z</time></trkpt><trkpt lat="44.11463534771727" lon="9.918430445895673"><ele>8.0</ele><time>2026-04-03T13:31:54Z</time></trkpt><trkpt lat="44.11468664774814" lon="9.91835431921707"><ele>8.0</ele><time>2026-04-03T13:31:55Z</time></trkpt><trkpt lat="44.1147430874042" lon="9.918273804795273"><ele>8.0</ele><time>2026-04-03T13:31:56Z</time></trkpt><trkpt lat="44.11480045217804" lon="9.918193903679423"><ele>7.999999999999999</ele><time>2026-04-03T13:31:57Z</time></trkpt><trkpt lat="44.114858090879146" lon="9.918114496174933"><ele>8.0</ele><time>2026-04-03T13:31:58Z</time></trkpt><trkpt lat="44.11491582929364" lon="9.918035782410515"><ele>8.166666666666666</ele><time>2026-04-03T13:31:59Z</time></trkpt><trkpt lat="44.11497390203367" lon="9.917957438532463"><ele>8.333333333333332</ele><time>2026-04-03T13:32:00Z</time></trkpt><trkpt lat="44.115033778317155" lon="9.91787666152938"><ele>8.5</ele><time>2026-04-03T13:32:01Z</time></trkpt><trkpt lat="44.115091314078214" lon="9.917800807596624"><ele>8.666666666666666</ele><time>2026-04-03T13:32:02Z</time></trkpt><trkpt lat="44.1151498734648" lon="9.917725106290316"><ele>8.833333333333334</ele><time>2026-04-03T13:32:02.999Z</time></trkpt><trkpt lat="44.11520930512032" lon="9.91765300157932"><ele>9.0</ele><time>2026-04-03T13:32:03.999Z</time></trkpt><trkpt lat="44.11526998868265" lon="9.917581012149013"><ele>9.0</ele><time>2026-04-03T13:32:04.999Z</time></trkpt><trkpt lat="44.11532367693064" lon="9.917517528926954"><ele>9.0</ele><time>2026-04-03T13:32:05.999Z</time></trkpt><trkpt lat="44.11537578741803" lon="9.917455495780128"><ele>9.0</ele><time>2026-04-03T13:32:06.999Z</time></trkpt><trkpt lat="44.11542573278628" lon="9.917395457662373"><ele>9.0</ele><time>2026-04-03T13:32:07.999Z</time></trkpt><trkpt lat="44.11551967924575" lon="9.91731587248948"><ele>9.0</ele><time>2026-04-03T13:32:09.999Z</time></trkpt><trkpt lat="44.11562669970521" lon="9.917345411999435"><ele>9.0</ele><time>2026-04-03T13:32:11.999Z</time></trkpt><trkpt lat="44.11565324267811" lon="9.917426423313117"><ele>9.0</ele><time>2026-04-03T13:32:12.999Z</time></trkpt><trkpt lat="44.115767920179145" lon="9.917493399167704"><ele>9.0</ele><time>2026-04-03T13:32:14.999Z</time></trkpt><trkpt lat="44.11582018375315" lon="9.91740284615215"><ele>9.0</ele><time>2026-04-03T13:32:15.999Z</time></trkpt><trkpt lat="44.115770536213624" lon="9.917255419700929"><ele>9.0</ele><time>2026-04-03T13:32:17.999Z</time></trkpt><trkpt lat="44.115658194754495" lon="9.917210475839548"><ele>9.0</ele><time>2026-04-03T13:32:19.999Z</time></trkpt><trkpt lat="44.115594380013036" lon="9.917175325410712"><ele>9.000000000000002</ele><time>2026-04-03T13:32:20.999Z</time></trkpt><trkpt lat="44.115531077727766" lon="9.917133482532492"><ele>9.0</ele><time>2026-04-03T13:32:21.999Z</time></trkpt><trkpt lat="44.11547023850527" lon="9.917096294729692"><ele>9.0</ele><time>2026-04-03T13:32:22.999Z</time></trkpt><trkpt lat="44.11541852761176" lon="9.917042848079188"><ele>9.0</ele><time>2026-04-03T13:32:23.999Z</time></trkpt><trkpt lat="44.115358061046166" lon="9.917005920056493"><ele>9.0</ele><time>2026-04-03T13:32:24.999Z</time></trkpt><trkpt lat="44.11529709268623" lon="9.916964213055738"><ele>9.000000000000002</ele><time>2026-04-03T13:32:25.999Z</time></trkpt><trkpt lat="44.115242511384295" lon="9.916917048966743"><ele>9.0</ele><time>2026-04-03T13:32:26.999Z</time></trkpt><trkpt lat="44.11518692572096" lon="9.916874568539809"><ele>9.0</ele><time>2026-04-03T13:32:27.999Z</time></trkpt><trkpt lat="44.115131845545186" lon="9.916817026152971"><ele>9.0</ele><time>2026-04-03T13:32:28.999Z</time></trkpt><trkpt lat="44.11510629947632" lon="9.916645004512183"><ele>9.0</ele><time>2026-04-03T13:32:31Z</time></trkpt><trkpt lat="44.11513439459703" lon="9.916556616317338"><ele>9.0</ele><time>2026-04-03T13:32:32Z</time></trkpt><trkpt lat="44.11517923160414" lon="9.916458284344266"><ele>9.0</ele><time>2026-04-03T13:32:33Z</time></trkpt><trkpt lat="44.115209105782576" lon="9.916345575220747"><ele>9.0</ele><time>2026-04-03T13:32:34Z</time></trkpt><trkpt lat="44.11524943680635" lon="9.916234732658024"><ele>9.0</ele><time>2026-04-03T13:32:35Z</time></trkpt><trkpt lat="44.11527002455943" lon="9.916138742523566"><ele>9.0</ele><time>2026-04-03T13:32:36Z</time></trkpt><trkpt lat="44.11531773163431" lon="9.916040679022052"><ele>9.0</ele><time>2026-04-03T13:32:37Z</time></trkpt><trkpt lat="44.11537245852142" lon="9.91592362548909"><ele>9.0</ele><time>2026-04-03T13:32:39Z</time></trkpt><trkpt lat="44.11539475354826" lon="9.915799924092484"><ele>9.0</ele><time>2026-04-03T13:32:40Z</time></trkpt><trkpt lat="44.115429792631424" lon="9.915710611055951"><ele>9.0</ele><time>2026-04-03T13:32:41Z</time></trkpt><trkpt lat="44.11545893027078" lon="9.915617741951662"><ele>9.166666666666666</ele><time>2026-04-03T13:32:42Z</time></trkpt><trkpt lat="44.11548843604372" lon="9.915526244772732"><ele>9.333333333333334</ele><time>2026-04-03T13:32:43Z</time></trkpt><trkpt lat="44.115522734790304" lon="9.91544598115119"><ele>9.5</ele><time>2026-04-03T13:32:44Z</time></trkpt><trkpt lat="44.115516349734975" lon="9.9153427619897"><ele>9.666666666666668</ele><time>2026-04-03T13:32:45Z</time></trkpt><trkpt lat="44.11553122146359" lon="9.915247773646788"><ele>9.833333333333334</ele><time>2026-04-03T13:32:46Z</time></trkpt><trkpt lat="44.11549372062923" lon="9.91512946086935"><ele>10.0</ele><time>2026-04-03T13:32:48Z</time></trkpt><trkpt lat="44.1153665865959" lon="9.915151512358976"><ele>10.0</ele><time>2026-04-03T13:32:50Z</time></trkpt><trkpt lat="44.115300826736735" lon="9.91515333838886"><ele>10.0</ele><time>2026-04-03T13:32:51Z</time></trkpt><trkpt lat="44.11517396049933" lon="9.915159700179403"><ele>10.0</ele><time>2026-04-03T13:32:53Z</time></trkpt><trkpt lat="44.11510380216375" lon="9.915165583151067"><ele>10.0</ele><time>2026-04-03T13:32:54Z</time></trkpt><trkpt lat="44.114984771552436" lon="9.915194175282211"><ele>10.0</ele><time>2026-04-03T13:32:56Z</time></trkpt><trkpt lat="44.114862563041605" lon="9.915173947450556"><ele>9.666666666666668</ele><time>2026-04-03T13:32:58Z</time></trkpt><trkpt lat="44.114792901392526" lon="9.915121243844455"><ele>9.333333333333334</ele><time>2026-04-03T13:33:00Z</time></trkpt><trkpt lat="44.114790371668796" lon="9.9149880645753"><ele>9.0</ele><time>2026-04-03T13:33:01Z</time></trkpt><trkpt lat="44.11453339938597" lon="9.914203595097463"><ele>10.0</ele><time>2026-04-03T13:33:05Z</time></trkpt><trkpt lat="44.11495661428869" lon="9.915032385775095"><ele>10.0</ele><time>2026-04-03T13:33:06Z</time></trkpt><trkpt lat="44.11502542068399" lon="9.91511755568448"><ele>10.0</ele><time>2026-04-03T13:33:08Z</time></trkpt><trkpt lat="44.11513462762707" lon="9.91509922081147"><ele>10.0</ele><time>2026-04-03T13:33:10Z</time></trkpt><trkpt lat="44.11523132104418" lon="9.915040089700769"><ele>10.0</ele><time>2026-04-03T13:33:12Z</time></trkpt><trkpt lat="44.115272319572306" lon="9.914900839065364"><ele>10.0</ele><time>2026-04-03T13:33:14Z</time></trkpt><trkpt lat="44.11527355085348" lon="9.914757524518366"><ele>10.0</ele><time>2026-04-03T13:33:16Z</time></trkpt><trkpt lat="44.11528302953228" lon="9.914630472276672"><ele>10.0</ele><time>2026-04-03T13:33:18Z</time></trkpt><trkpt lat="44.11528998121072" lon="9.91451410364171"><ele>10.0</ele><time>2026-04-03T13:33:20Z</time></trkpt><trkpt lat="44.115311361183814" lon="9.914420676967373"><ele>10.0</ele><time>2026-04-03T13:33:22Z</time></trkpt><trkpt lat="44.11532804824984" lon="9.914333814283413"><ele>10.0</ele><time>2026-04-03T13:33:24Z</time></trkpt><trkpt lat="44.1153804786897" lon="9.914283522883528"><ele>10.0</ele><time>2026-04-03T13:33:26Z</time></trkpt><trkpt lat="44.11546767141005" lon="9.914288794517926"><ele>10.0</ele><time>2026-04-03T13:33:28Z</time></trkpt><trkpt lat="44.115555839042926" lon="9.914256833286617"><ele>10.0</ele><time>2026-04-03T13:33:30Z</time></trkpt><trkpt lat="44.11561036812267" lon="9.914145229715755"><ele>10.0</ele><time>2026-04-03T13:33:32Z</time></trkpt><trkpt lat="44.115580928017835" lon="9.913988217850896"><ele>10.0</ele><time>2026-04-03T13:33:34Z</time></trkpt><trkpt lat="44.11555661582563" lon="9.913850251589487"><ele>10.0</ele><time>2026-04-03T13:33:36Z</time></trkpt><trkpt lat="44.115543940493815" lon="9.91370617411258"><ele>10.2</ele><time>2026-04-03T13:33:38Z</time></trkpt><trkpt lat="44.115525534580044" lon="9.91356275979384"><ele>10.4</ele><time>2026-04-03T13:33:40Z</time></trkpt><trkpt lat="44.1155012585182" lon="9.913429720225436"><ele>10.600000000000001</ele><time>2026-04-03T13:33:42Z</time></trkpt><trkpt lat="44.115498468500704" lon="9.913320429296578"><ele>10.8</ele><time>2026-04-03T13:33:44Z</time></trkpt><trkpt lat="44.11558018487656" lon="9.913282457965792"><ele>11.0</ele><time>2026-04-03T13:33:45Z</time></trkpt><trkpt lat="44.115676265867556" lon="9.913257572283166"><ele>11.8</ele><time>2026-04-03T13:33:47Z</time></trkpt><trkpt lat="44.115767494971195" lon="9.913244457910622"><ele>12.600000000000001</ele><time>2026-04-03T13:33:48.999Z</time></trkpt><trkpt lat="44.11585416383534" lon="9.91321317414896"><ele>13.4</ele><time>2026-04-03T13:33:50.999Z</time></trkpt><trkpt lat="44.11595028270472" lon="9.913203556456848"><ele>14.2</ele><time>2026-04-03T13:33:52.999Z</time></trkpt><trkpt lat="44.11604357400802" lon="9.913174527853393"><ele>15.0</ele><time>2026-04-03T13:33:54.999Z</time></trkpt><trkpt lat="44.116138269782795" lon="9.913156321832274"><ele>15.0</ele><time>2026-04-03T13:33:56.999Z</time></trkpt><trkpt lat="44.11623371565485" lon="9.913133332577653"><ele>15.0</ele><time>2026-04-03T13:33:58.999Z</time></trkpt><trkpt lat="44.11632727650193" lon="9.913114654860138"><ele>15.0</ele><time>2026-04-03T13:34:00.999Z</time></trkpt><trkpt lat="44.11632471847144" lon="9.912968563577744"><ele>15.0</ele><time>2026-04-03T13:34:01.999Z</time></trkpt><trkpt lat="44.11630393544075" lon="9.912821658544694"><ele>15.0</ele><time>2026-04-03T13:34:03.999Z</time></trkpt><trkpt lat="44.11627276705876" lon="9.912672161686444"><ele>15.8</ele><time>2026-04-03T13:34:05.999Z</time></trkpt><trkpt lat="44.11622693284532" lon="9.912547968427145"><ele>16.6</ele><time>2026-04-03T13:34:07.999Z</time></trkpt><trkpt lat="44.116210499049686" lon="9.912409176204772"><ele>17.4</ele><time>2026-04-03T13:34:09.999Z</time></trkpt><trkpt lat="44.11617535401192" lon="9.912272886269335"><ele>18.2</ele><time>2026-04-03T13:34:11.999Z</time></trkpt><trkpt lat="44.11618393614437" lon="9.912108198391287"><ele>19.0</ele><time>2026-04-03T13:34:13.999Z</time></trkpt><trkpt lat="44.11622875782076" lon="9.911940244294806"><ele>19.0</ele><time>2026-04-03T13:34:15.999Z</time></trkpt><trkpt lat="44.11623308004394" lon="9.911846890937355"><ele>19.0</ele><time>2026-04-03T13:34:16.999Z</time></trkpt><trkpt lat="44.11621899306628" lon="9.911754015882185"><ele>19.0</ele><time>2026-04-03T13:34:17.999Z</time></trkpt><trkpt lat="44.11621391511976" lon="9.911656961004459"><ele>19.0</ele><time>2026-04-03T13:34:18.999Z</time></trkpt><trkpt lat="44.11620226143033" lon="9.911561069376125"><ele>19.0</ele><time>2026-04-03T13:34:19.999Z</time></trkpt><trkpt lat="44.116191567852745" lon="9.911464427248628"><ele>19.0</ele><time>2026-04-03T13:34:20.999Z</time></trkpt><trkpt lat="44.116176584069784" lon="9.911369512875659"><ele>19.0</ele><time>2026-04-03T13:34:21.999Z</time></trkpt><trkpt lat="44.116161688363576" lon="9.911274273335616"><ele>18.857142857142858</ele><time>2026-04-03T13:34:22.999Z</time></trkpt><trkpt lat="44.1161455971523" lon="9.911183808790652"><ele>18.714285714285715</ele><time>2026-04-03T13:34:23.999Z</time></trkpt><trkpt lat="44.116128270054894" lon="9.911095892941155"><ele>18.571428571428573</ele><time>2026-04-03T13:34:24.999Z</time></trkpt><trkpt lat="44.116111965497474" lon="9.911010018732814"><ele>18.42857142857143</ele><time>2026-04-03T13:34:25.999Z</time></trkpt><trkpt lat="44.11609642843608" lon="9.910924233336328"><ele>18.285714285714285</ele><time>2026-04-03T13:34:26.999Z</time></trkpt><trkpt lat="44.11608221041987" lon="9.910837618517268"><ele>18.142857142857146</ele><time>2026-04-03T13:34:27.999Z</time></trkpt><trkpt lat="44.1160689142794" lon="9.910750562203418"><ele>18.0</ele><time>2026-04-03T13:34:28.999Z</time></trkpt><trkpt lat="44.116057811771185" lon="9.910662754556304"><ele>18.142857142857146</ele><time>2026-04-03T13:34:29.999Z</time></trkpt><trkpt lat="44.11605004368474" lon="9.910569659844308"><ele>18.285714285714285</ele><time>2026-04-03T13:34:30.999Z</time></trkpt><trkpt lat="44.116043644704966" lon="9.910476698847415"><ele>18.42857142857143</ele><time>2026-04-03T13:34:31.999Z</time></trkpt><trkpt lat="44.11603906705749" lon="9.910377379586327"><ele>18.571428571428573</ele><time>2026-04-03T13:34:32.999Z</time></trkpt><trkpt lat="44.1160372858987" lon="9.91028182758023"><ele>18.714285714285715</ele><time>2026-04-03T13:34:33.999Z</time></trkpt><trkpt lat="44.11603557108268" lon="9.910187973420074"><ele>18.857142857142858</ele><time>2026-04-03T13:34:34.999Z</time></trkpt><trkpt lat="44.116035138400505" lon="9.910092284081268"><ele>19.0</ele><time>2026-04-03T13:34:36Z</time></trkpt><trkpt lat="44.11603255114392" lon="9.909993546264959"><ele>19.0</ele><time>2026-04-03T13:34:37Z</time></trkpt><trkpt lat="44.11603090429743" lon="9.909889307210337"><ele>19.0</ele><time>2026-04-03T13:34:38Z</time></trkpt><trkpt lat="44.116027048289" lon="9.909783298692043"><ele>19.0</ele><time>2026-04-03T13:34:39Z</time></trkpt><trkpt lat="44.116041314882644" lon="9.909673584843324"><ele>19.0</ele><time>2026-04-03T13:34:40Z</time></trkpt><trkpt lat="44.11602572834432" lon="9.909563708566356"><ele>19.0</ele><time>2026-04-03T13:34:41Z</time></trkpt><trkpt lat="44.11603129239965" lon="9.909461616096614"><ele>19.0</ele><time>2026-04-03T13:34:42Z</time></trkpt><trkpt lat="44.11604112285729" lon="9.909353224065553"><ele>19.0</ele><time>2026-04-03T13:34:43Z</time></trkpt><trkpt lat="44.116054519662086" lon="9.909245638298508"><ele>19.0</ele><time>2026-04-03T13:34:44Z</time></trkpt><trkpt lat="44.11606571528141" lon="9.909141060472516"><ele>19.0</ele><time>2026-04-03T13:34:45Z</time></trkpt><trkpt lat="44.11607214970665" lon="9.90904360203509"><ele>19.0</ele><time>2026-04-03T13:34:46Z</time></trkpt><trkpt lat="44.116079176347405" lon="9.908939165244801"><ele>19.0</ele><time>2026-04-03T13:34:47Z</time></trkpt><trkpt lat="44.116084831296035" lon="9.90883513460075"><ele>19.0</ele><time>2026-04-03T13:34:48Z</time></trkpt><trkpt lat="44.11609121038036" lon="9.908733492600302"><ele>19.0</ele><time>2026-04-03T13:34:49Z</time></trkpt><trkpt lat="44.11609116814959" lon="9.908639253743136"><ele>19.4</ele><time>2026-04-03T13:34:50Z</time></trkpt><trkpt lat="44.11609353250599" lon="9.908545831791315"><ele>19.799999999999997</ele><time>2026-04-03T13:34:51Z</time></trkpt><trkpt lat="44.11609793606886" lon="9.90845474230532"><ele>20.200000000000003</ele><time>2026-04-03T13:34:52Z</time></trkpt><trkpt lat="44.11609246662467" lon="9.908285674893301"><ele>20.6</ele><time>2026-04-03T13:34:54Z</time></trkpt><trkpt lat="44.11609571838964" lon="9.90812086696278"><ele>21.0</ele><time>2026-04-03T13:34:56Z</time></trkpt><trkpt lat="44.11607899343265" lon="9.907965927291999"><ele>21.4</ele><time>2026-04-03T13:34:58Z</time></trkpt><trkpt lat="44.116024097936084" lon="9.90783004378505"><ele>21.8</ele><time>2026-04-03T13:35:00Z</time></trkpt><trkpt lat="44.11596986831756" lon="9.907728409700313"><ele>22.2</ele><time>2026-04-03T13:35:02Z</time></trkpt><trkpt lat="44.115889360385026" lon="9.907655726928212"><ele>22.599999999999998</ele><time>2026-04-03T13:35:04Z</time></trkpt><trkpt lat="44.11579014219976" lon="9.907601573540628"><ele>23.0</ele><time>2026-04-03T13:35:06Z</time></trkpt><trkpt lat="44.115697369978065" lon="9.907575312487285"><ele>27.0</ele><time>2026-04-03T13:35:08Z</time></trkpt><trkpt lat="44.11561031534001" lon="9.90751867717486"><ele>31.0</ele><time>2026-04-03T13:35:10Z</time></trkpt><trkpt lat="44.11552439067383" lon="9.907462339239574"><ele>35.0</ele><time>2026-04-03T13:35:12Z</time></trkpt><trkpt lat="44.11544059302909" lon="9.907413666150031"><ele>39.0</ele><time>2026-04-03T13:35:14Z</time></trkpt><trkpt lat="44.115351708807296" lon="9.907404939793944"><ele>43.0</ele><time>2026-04-03T13:35:16Z</time></trkpt><trkpt lat="44.115263673217235" lon="9.907427863330437"><ele>43.0</ele><time>2026-04-03T13:35:18Z</time></trkpt><trkpt lat="44.11517974528208" lon="9.907455151639498"><ele>43.0</ele><time>2026-04-03T13:35:20Z</time></trkpt><trkpt lat="44.11510247173713" lon="9.90747439470393"><ele>43.0</ele><time>2026-04-03T13:35:22Z</time></trkpt><trkpt lat="44.11503618057651" lon="9.907435394999062"><ele>43.0</ele><time>2026-04-03T13:35:24Z</time></trkpt><trkpt lat="44.115084551808955" lon="9.90732110849685"><ele>43.0</ele><time>2026-04-03T13:35:26Z</time></trkpt><trkpt lat="44.11514793487937" lon="9.907278283930243"><ele>43.0</ele><time>2026-04-03T13:35:28Z</time></trkpt><trkpt lat="44.11521403630711" lon="9.907238360776336"><ele>43.0</ele><time>2026-04-03T13:35:31Z</time></trkpt><trkpt lat="44.11514569240423" lon="9.907275468959945"><ele>43.0</ele><time>2026-04-03T13:36:01Z</time></trkpt><trkpt lat="44.11508823547039" lon="9.907321487155963"><ele>43.0</ele><time>2026-04-03T13:36:07Z</time></trkpt><trkpt lat="44.114333729960705" lon="9.906488967494568"><ele>46.142857142857146</ele><time>2026-04-03T13:36:45Z</time></trkpt><trkpt lat="44.114260026000125" lon="9.906436532140411"><ele>49.28571428571429</ele><time>2026-04-03T13:36:48Z</time></trkpt><trkpt lat="44.11418788673422" lon="9.906375328304582"><ele>52.42857142857143</ele><time>2026-04-03T13:36:51Z</time></trkpt><trkpt lat="44.114129494111474" lon="9.906316616006947"><ele>55.57142857142858</ele><time>2026-04-03T13:36:54Z</time></trkpt><trkpt lat="44.11407116032847" lon="9.906274025955808"><ele>58.714285714285715</ele><time>2026-04-03T13:36:57Z</time></trkpt><trkpt lat="44.11401616126176" lon="9.906224406251827"><ele>61.85714285714287</ele><time>2026-04-03T13:37:00Z</time></trkpt><trkpt lat="44.113974082975226" lon="9.906134879105007"><ele>65.0</ele><time>2026-04-03T13:37:04Z</time></trkpt><trkpt lat="44.11393555198637" lon="9.906049812679324"><ele>68.0</ele><time>2026-04-03T13:37:07Z</time></trkpt><trkpt lat="44.11388999003091" lon="9.905976774886623"><ele>71.0</ele><time>2026-04-03T13:37:10Z</time></trkpt><trkpt lat="44.11383638760497" lon="9.905902467904326"><ele>74.0</ele><time>2026-04-03T13:37:13Z</time></trkpt><trkpt lat="44.11379588418129" lon="9.905787936339046"><ele>77.0</ele><time>2026-04-03T13:37:17Z</time></trkpt><trkpt lat="44.113864408152196" lon="9.905726742255597"><ele>80.0</ele><time>2026-04-03T13:37:21Z</time></trkpt><trkpt lat="44.113931285494054" lon="9.905733919169904"><ele>83.0</ele><time>2026-04-03T13:37:27Z</time></trkpt><trkpt lat="44.11399540933173" lon="9.905784134174295"><ele>83.0</ele><time>2026-04-03T13:37:32Z</time></trkpt><trkpt lat="44.114043076862686" lon="9.905866687483682"><ele>83.0</ele><time>2026-04-03T13:37:35Z</time></trkpt><trkpt lat="44.114097842094026" lon="9.905936142949697"><ele>83.0</ele><time>2026-04-03T13:37:40Z</time></trkpt><trkpt lat="44.11407865358367" lon="9.906031627080745"><ele>83.0</ele><time>2026-04-03T13:38:03Z</time></trkpt><trkpt lat="44.114013380468535" lon="9.906116238086188"><ele>83.0</ele><time>2026-04-03T13:38:05Z</time></trkpt><trkpt lat="44.11394227965066" lon="9.906138251362721"><ele>83.0</ele><time>2026-04-03T13:39:48Z</time></trkpt><trkpt lat="44.11398640067124" lon="9.906061647249423"><ele>83.2</ele><time>2026-04-03T13:40:00Z</time></trkpt><trkpt lat="44.11402818229652" lon="9.905987187094384"><ele>83.4</ele><time>2026-04-03T13:40:03Z</time></trkpt><trkpt lat="44.11413577023668" lon="9.905935696015044"><ele>83.60000000000001</ele><time>2026-04-03T13:40:05Z</time></trkpt><trkpt lat="44.11419417636889" lon="9.905877902667259"><ele>83.80000000000001</ele><time>2026-04-03T13:40:07Z</time></trkpt><trkpt lat="44.114353756856445" lon="9.905874176512848"><ele>84.0</ele><time>2026-04-03T13:40:09Z</time></trkpt><trkpt lat="44.114413587258326" lon="9.905841816347866"><ele>83.0</ele><time>2026-04-03T13:40:10.084Z</time></trkpt><trkpt lat="44.114520794181814" lon="9.905782488052274"><ele>82.0</ele><time>2026-04-03T13:40:12.042Z</time></trkpt><trkpt lat="44.11464427987602" lon="9.905714760669381"><ele>81.0</ele><time>2026-04-03T13:40:14.045Z</time></trkpt><trkpt lat="44.11476941563416" lon="9.905645920527778"><ele>80.0</ele><time>2026-04-03T13:40:16.042Z</time></trkpt><trkpt lat="44.11484127485789" lon="9.905606999492589"><ele>84.0</ele><time>2026-04-03T13:40:17.043Z</time></trkpt><trkpt lat="44.11399077867183" lon="9.906042383929758"><ele>84.0</ele><time>2026-04-03T13:45:56.141Z</time></trkpt><trkpt lat="44.113946204779886" lon="9.906116996872681"><ele>84.0</ele><time>2026-04-03T13:49:21.998Z</time></trkpt><trkpt lat="44.114009356054254" lon="9.906102920924795"><ele>84.0</ele><time>2026-04-03T13:49:23.998Z</time></trkpt></trkseg></trk></gpx>